<?xml version="1.0" encoding="UTF-8"?>
<gpx xmlns="http://www.topografix.com/GPX/1/1" creator="GPSies http://www.gpsies.com - Valle Gran Rey - Schluchtenrunde" version="1.1" xmlns:xsi="http://www.w3.org/2001/XMLSchema-instance" xsi:schemaLocation="http://www.topografix.com/GPX/1/1 http://www.topografix.com/GPX/1/1/gpx.xsd">
  <metadata>
    <name>Valle Gran Rey - Schluchtenrunde</name>
    <copyright author="GPSies.com" />
    <link href="http://www.gpsies.com/map.do?fileId=pfjnqnxcheluvqsc">
      <text>Valle Gran Rey - Schluchtenrunde on GPSies.com</text>
    </link>
    <time>2009-09-23T15:48:06Z</time>
  </metadata>
  <trk>
    <name>Valle Gran Rey - Schluchtenrunde on GPSies.com</name>
    <link href="http://www.gpsies.com/map.do?fileId=pfjnqnxcheluvqsc" />
    <trkseg>
      <trkpt lat="28.08860770" lon="-17.3391227">
        <ele>7.0000000</ele>
        <time>2009-09-23T15:48:06Z</time>
      </trkpt>
      <trkpt lat="28.08854860" lon="-17.3391208">
        <ele>7.0000000</ele>
        <time>2009-09-23T15:48:08Z</time>
      </trkpt>
      <trkpt lat="28.08844560" lon="-17.3391456">
        <ele>7.0000000</ele>
        <time>2009-09-23T15:48:12Z</time>
      </trkpt>
      <trkpt lat="28.08822440" lon="-17.3390293">
        <ele>7.0000000</ele>
        <time>2009-09-23T15:48:22Z</time>
      </trkpt>
      <trkpt lat="28.08819770" lon="-17.3390331">
        <ele>7.0000000</ele>
        <time>2009-09-23T15:48:23Z</time>
      </trkpt>
      <trkpt lat="28.08802600" lon="-17.3389835">
        <ele>7.0000000</ele>
        <time>2009-09-23T15:48:30Z</time>
      </trkpt>
      <trkpt lat="28.08797260" lon="-17.3389530">
        <ele>7.0000000</ele>
        <time>2009-09-23T15:48:33Z</time>
      </trkpt>
      <trkpt lat="28.08779330" lon="-17.3389034">
        <ele>8.0000000</ele>
        <time>2009-09-23T15:48:40Z</time>
      </trkpt>
      <trkpt lat="28.08772460" lon="-17.3388767">
        <ele>8.0000000</ele>
        <time>2009-09-23T15:48:43Z</time>
      </trkpt>
      <trkpt lat="28.08764450" lon="-17.3388500">
        <ele>8.0000000</ele>
        <time>2009-09-23T15:48:46Z</time>
      </trkpt>
      <trkpt lat="28.08749770" lon="-17.3388004">
        <ele>8.0000000</ele>
        <time>2009-09-23T15:48:52Z</time>
      </trkpt>
      <trkpt lat="28.08744230" lon="-17.3387680">
        <ele>8.0000000</ele>
        <time>2009-09-23T15:48:55Z</time>
      </trkpt>
      <trkpt lat="28.08726690" lon="-17.3387660">
        <ele>7.0000000</ele>
        <time>2009-09-23T15:49:02Z</time>
      </trkpt>
      <trkpt lat="28.08716010" lon="-17.3387527">
        <ele>7.0000000</ele>
        <time>2009-09-23T15:49:06Z</time>
      </trkpt>
      <trkpt lat="28.08713530" lon="-17.3387470">
        <ele>7.0000000</ele>
        <time>2009-09-23T15:49:07Z</time>
      </trkpt>
      <trkpt lat="28.08707420" lon="-17.3387050">
        <ele>7.0000000</ele>
        <time>2009-09-23T15:49:10Z</time>
      </trkpt>
      <trkpt lat="28.08689490" lon="-17.3386306">
        <ele>6.0000000</ele>
        <time>2009-09-23T15:49:18Z</time>
      </trkpt>
      <trkpt lat="28.08682440" lon="-17.3386192">
        <ele>6.0000000</ele>
        <time>2009-09-23T15:49:21Z</time>
      </trkpt>
      <trkpt lat="28.08674240" lon="-17.3385906">
        <ele>6.0000000</ele>
        <time>2009-09-23T15:49:24Z</time>
      </trkpt>
      <trkpt lat="28.08667940" lon="-17.3385524">
        <ele>5.0000000</ele>
        <time>2009-09-23T15:49:27Z</time>
      </trkpt>
      <trkpt lat="28.08653640" lon="-17.3384761">
        <ele>5.0000000</ele>
        <time>2009-09-23T15:49:33Z</time>
      </trkpt>
      <trkpt lat="28.08638190" lon="-17.3384017">
        <ele>4.0000000</ele>
        <time>2009-09-23T15:49:40Z</time>
      </trkpt>
      <trkpt lat="28.08631320" lon="-17.3383464">
        <ele>4.0000000</ele>
        <time>2009-09-23T15:49:43Z</time>
      </trkpt>
      <trkpt lat="28.08621020" lon="-17.3381996">
        <ele>4.0000000</ele>
        <time>2009-09-23T15:49:50Z</time>
      </trkpt>
      <trkpt lat="28.08618730" lon="-17.3381061">
        <ele>5.0000000</ele>
        <time>2009-09-23T15:49:53Z</time>
      </trkpt>
      <trkpt lat="28.08612440" lon="-17.3379135">
        <ele>5.0000000</ele>
        <time>2009-09-23T15:50:01Z</time>
      </trkpt>
      <trkpt lat="28.08606140" lon="-17.3377323">
        <ele>5.0000000</ele>
        <time>2009-09-23T15:50:08Z</time>
      </trkpt>
      <trkpt lat="28.08600230" lon="-17.3375453">
        <ele>6.0000000</ele>
        <time>2009-09-23T15:50:15Z</time>
      </trkpt>
      <trkpt lat="28.08591840" lon="-17.3373985">
        <ele>6.0000000</ele>
        <time>2009-09-23T15:50:21Z</time>
      </trkpt>
      <trkpt lat="28.08587260" lon="-17.3372440">
        <ele>6.0000000</ele>
        <time>2009-09-23T15:50:26Z</time>
      </trkpt>
      <trkpt lat="28.08576390" lon="-17.3370780">
        <ele>7.0000000</ele>
        <time>2009-09-23T15:50:34Z</time>
      </trkpt>
      <trkpt lat="28.08564180" lon="-17.3369426">
        <ele>7.0000000</ele>
        <time>2009-09-23T15:50:41Z</time>
      </trkpt>
      <trkpt lat="28.08556170" lon="-17.3368816">
        <ele>7.0000000</ele>
        <time>2009-09-23T15:50:44Z</time>
      </trkpt>
      <trkpt lat="28.08551970" lon="-17.3368301">
        <ele>7.0000000</ele>
        <time>2009-09-23T15:50:47Z</time>
      </trkpt>
      <trkpt lat="28.08539190" lon="-17.3366985">
        <ele>8.0000000</ele>
        <time>2009-09-23T15:50:54Z</time>
      </trkpt>
      <trkpt lat="28.08531180" lon="-17.3366622">
        <ele>8.0000000</ele>
        <time>2009-09-23T15:50:57Z</time>
      </trkpt>
      <trkpt lat="28.08522030" lon="-17.3366413">
        <ele>8.0000000</ele>
        <time>2009-09-23T15:51:01Z</time>
      </trkpt>
      <trkpt lat="28.08499330" lon="-17.3365764">
        <ele>8.0000000</ele>
        <time>2009-09-23T15:51:10Z</time>
      </trkpt>
      <trkpt lat="28.08483310" lon="-17.3365955">
        <ele>8.0000000</ele>
        <time>2009-09-23T15:51:17Z</time>
      </trkpt>
      <trkpt lat="28.08470150" lon="-17.3366222">
        <ele>8.0000000</ele>
        <time>2009-09-23T15:51:22Z</time>
      </trkpt>
      <trkpt lat="28.08465190" lon="-17.3366413">
        <ele>8.0000000</ele>
        <time>2009-09-23T15:51:24Z</time>
      </trkpt>
      <trkpt lat="28.08444210" lon="-17.3366699">
        <ele>7.0000000</ele>
        <time>2009-09-23T15:51:33Z</time>
      </trkpt>
      <trkpt lat="28.08439440" lon="-17.3366870">
        <ele>7.0000000</ele>
        <time>2009-09-23T15:51:35Z</time>
      </trkpt>
      <trkpt lat="28.08430090" lon="-17.3366851">
        <ele>7.0000000</ele>
        <time>2009-09-23T15:51:39Z</time>
      </trkpt>
      <trkpt lat="28.08412740" lon="-17.3364753">
        <ele>7.0000000</ele>
        <time>2009-09-23T15:51:49Z</time>
      </trkpt>
      <trkpt lat="28.08403390" lon="-17.3363933">
        <ele>7.0000000</ele>
        <time>2009-09-23T15:51:53Z</time>
      </trkpt>
      <trkpt lat="28.08399200" lon="-17.3363647">
        <ele>7.0000000</ele>
        <time>2009-09-23T15:51:55Z</time>
      </trkpt>
      <trkpt lat="28.08382030" lon="-17.3362274">
        <ele>6.0000000</ele>
        <time>2009-09-23T15:52:04Z</time>
      </trkpt>
      <trkpt lat="28.08365050" lon="-17.3361606">
        <ele>5.0000000</ele>
        <time>2009-09-23T15:52:11Z</time>
      </trkpt>
      <trkpt lat="28.08363720" lon="-17.3361701">
        <ele>5.0000000</ele>
        <time>2009-09-23T15:52:12Z</time>
      </trkpt>
      <trkpt lat="28.08353990" lon="-17.3361148">
        <ele>5.0000000</ele>
        <time>2009-09-23T15:52:16Z</time>
      </trkpt>
      <trkpt lat="28.08343120" lon="-17.3359317">
        <ele>4.0000000</ele>
        <time>2009-09-23T15:52:24Z</time>
      </trkpt>
      <trkpt lat="28.08329200" lon="-17.3357448">
        <ele>5.0000000</ele>
        <time>2009-09-23T15:52:32Z</time>
      </trkpt>
      <trkpt lat="28.08319660" lon="-17.3355770">
        <ele>6.0000000</ele>
        <time>2009-09-23T15:52:39Z</time>
      </trkpt>
      <trkpt lat="28.08316230" lon="-17.3355426">
        <ele>6.0000000</ele>
        <time>2009-09-23T15:52:41Z</time>
      </trkpt>
      <trkpt lat="28.08314510" lon="-17.3355064">
        <ele>6.0000000</ele>
        <time>2009-09-23T15:52:43Z</time>
      </trkpt>
      <trkpt lat="28.08303260" lon="-17.3354053">
        <ele>7.0000000</ele>
        <time>2009-09-23T15:52:48Z</time>
      </trkpt>
      <trkpt lat="28.08292570" lon="-17.3352184">
        <ele>8.0000000</ele>
        <time>2009-09-23T15:52:56Z</time>
      </trkpt>
      <trkpt lat="28.08288380" lon="-17.3351917">
        <ele>8.0000000</ele>
        <time>2009-09-23T15:52:58Z</time>
      </trkpt>
      <trkpt lat="28.08281510" lon="-17.3350982">
        <ele>8.0000000</ele>
        <time>2009-09-23T15:53:03Z</time>
      </trkpt>
      <trkpt lat="28.08274450" lon="-17.3349990">
        <ele>9.0000000</ele>
        <time>2009-09-23T15:53:07Z</time>
      </trkpt>
      <trkpt lat="28.08268920" lon="-17.3347911">
        <ele>8.0000000</ele>
        <time>2009-09-23T15:53:15Z</time>
      </trkpt>
      <trkpt lat="28.08267970" lon="-17.3347663">
        <ele>8.0000000</ele>
        <time>2009-09-23T15:53:16Z</time>
      </trkpt>
      <trkpt lat="28.08259200" lon="-17.3345947">
        <ele>8.0000000</ele>
        <time>2009-09-23T15:53:23Z</time>
      </trkpt>
      <trkpt lat="28.08250230" lon="-17.3344230">
        <ele>7.0000000</ele>
        <time>2009-09-23T15:53:30Z</time>
      </trkpt>
      <trkpt lat="28.08243750" lon="-17.3342285">
        <ele>7.0000000</ele>
        <time>2009-09-23T15:53:37Z</time>
      </trkpt>
      <trkpt lat="28.08234970" lon="-17.3340320">
        <ele>6.0000000</ele>
        <time>2009-09-23T15:53:45Z</time>
      </trkpt>
      <trkpt lat="28.08234210" lon="-17.3340206">
        <ele>6.0000000</ele>
        <time>2009-09-23T15:53:45Z</time>
      </trkpt>
      <trkpt lat="28.08227720" lon="-17.3339233">
        <ele>6.0000000</ele>
        <time>2009-09-23T15:53:50Z</time>
      </trkpt>
      <trkpt lat="28.08224860" lon="-17.3338813">
        <ele>6.0000000</ele>
        <time>2009-09-23T15:53:52Z</time>
      </trkpt>
      <trkpt lat="28.08210370" lon="-17.3337306">
        <ele>5.0000000</ele>
        <time>2009-09-23T15:53:59Z</time>
      </trkpt>
      <trkpt lat="28.08199500" lon="-17.3335590">
        <ele>5.0000000</ele>
        <time>2009-09-23T15:54:07Z</time>
      </trkpt>
      <trkpt lat="28.08197780" lon="-17.3335266">
        <ele>5.0000000</ele>
        <time>2009-09-23T15:54:08Z</time>
      </trkpt>
      <trkpt lat="28.08203880" lon="-17.3334674">
        <ele>5.0000000</ele>
        <time>2009-09-23T15:54:11Z</time>
      </trkpt>
      <trkpt lat="28.08214560" lon="-17.3333644">
        <ele>6.0000000</ele>
        <time>2009-09-23T15:54:17Z</time>
      </trkpt>
      <trkpt lat="28.08217810" lon="-17.3333358">
        <ele>6.0000000</ele>
        <time>2009-09-23T15:54:19Z</time>
      </trkpt>
      <trkpt lat="28.08228870" lon="-17.3332481">
        <ele>7.0000000</ele>
        <time>2009-09-23T15:54:24Z</time>
      </trkpt>
      <trkpt lat="28.08241460" lon="-17.3331127">
        <ele>9.0000000</ele>
        <time>2009-09-23T15:54:31Z</time>
      </trkpt>
      <trkpt lat="28.08242220" lon="-17.3330497">
        <ele>9.0000000</ele>
        <time>2009-09-23T15:54:33Z</time>
      </trkpt>
      <trkpt lat="28.08236690" lon="-17.3328380">
        <ele>11.000000</ele>
        <time>2009-09-23T15:54:41Z</time>
      </trkpt>
      <trkpt lat="28.08238410" lon="-17.3326606">
        <ele>13.000000</ele>
        <time>2009-09-23T15:54:47Z</time>
      </trkpt>
      <trkpt lat="28.08241080" lon="-17.3325881">
        <ele>14.000000</ele>
        <time>2009-09-23T15:54:50Z</time>
      </trkpt>
      <trkpt lat="28.08253660" lon="-17.3325443">
        <ele>15.000000</ele>
        <time>2009-09-23T15:54:55Z</time>
      </trkpt>
      <trkpt lat="28.08265680" lon="-17.3324375">
        <ele>17.000000</ele>
        <time>2009-09-23T15:55:02Z</time>
      </trkpt>
      <trkpt lat="28.08271400" lon="-17.3322181">
        <ele>19.000000</ele>
        <time>2009-09-23T15:55:10Z</time>
      </trkpt>
      <trkpt lat="28.08271020" lon="-17.3321342">
        <ele>19.000000</ele>
        <time>2009-09-23T15:55:13Z</time>
      </trkpt>
      <trkpt lat="28.08270260" lon="-17.3319568">
        <ele>20.000000</ele>
        <time>2009-09-23T15:55:19Z</time>
      </trkpt>
      <trkpt lat="28.08269300" lon="-17.3316745">
        <ele>21.000000</ele>
        <time>2009-09-23T15:55:29Z</time>
      </trkpt>
      <trkpt lat="28.08267210" lon="-17.3314857">
        <ele>22.000000</ele>
        <time>2009-09-23T15:55:36Z</time>
      </trkpt>
      <trkpt lat="28.08264540" lon="-17.3313732">
        <ele>22.000000</ele>
        <time>2009-09-23T15:55:40Z</time>
      </trkpt>
      <trkpt lat="28.08263010" lon="-17.3312721">
        <ele>22.000000</ele>
        <time>2009-09-23T15:55:43Z</time>
      </trkpt>
      <trkpt lat="28.08260340" lon="-17.3311805">
        <ele>21.000000</ele>
        <time>2009-09-23T15:55:47Z</time>
      </trkpt>
      <trkpt lat="28.08261100" lon="-17.3311004">
        <ele>21.000000</ele>
        <time>2009-09-23T15:55:50Z</time>
      </trkpt>
      <trkpt lat="28.08256910" lon="-17.3310775">
        <ele>21.000000</ele>
        <time>2009-09-23T15:55:51Z</time>
      </trkpt>
      <trkpt lat="28.08254430" lon="-17.3310127">
        <ele>23.000000</ele>
        <time>2009-09-23T15:55:54Z</time>
      </trkpt>
      <trkpt lat="28.08242980" lon="-17.3309383">
        <ele>30.000000</ele>
        <time>2009-09-23T15:55:59Z</time>
      </trkpt>
      <trkpt lat="28.08221430" lon="-17.3307361">
        <ele>44.000000</ele>
        <time>2009-09-23T15:56:10Z</time>
      </trkpt>
      <trkpt lat="28.08214560" lon="-17.3307094">
        <ele>47.000000</ele>
        <time>2009-09-23T15:56:13Z</time>
      </trkpt>
      <trkpt lat="28.08207130" lon="-17.3306961">
        <ele>49.000000</ele>
        <time>2009-09-23T15:56:16Z</time>
      </trkpt>
      <trkpt lat="28.08200260" lon="-17.3306655">
        <ele>51.000000</ele>
        <time>2009-09-23T15:56:19Z</time>
      </trkpt>
      <trkpt lat="28.08196440" lon="-17.3306732">
        <ele>51.000000</ele>
        <time>2009-09-23T15:56:21Z</time>
      </trkpt>
      <trkpt lat="28.08191490" lon="-17.3306369">
        <ele>49.000000</ele>
        <time>2009-09-23T15:56:23Z</time>
      </trkpt>
      <trkpt lat="28.08189390" lon="-17.3305530">
        <ele>45.000000</ele>
        <time>2009-09-23T15:56:26Z</time>
      </trkpt>
      <trkpt lat="28.08185190" lon="-17.3305568">
        <ele>43.000000</ele>
        <time>2009-09-23T15:56:28Z</time>
      </trkpt>
      <trkpt lat="28.08183470" lon="-17.3305511">
        <ele>42.000000</ele>
        <time>2009-09-23T15:56:29Z</time>
      </trkpt>
      <trkpt lat="28.08176800" lon="-17.3304977">
        <ele>38.000000</ele>
        <time>2009-09-23T15:56:32Z</time>
      </trkpt>
      <trkpt lat="28.08176040" lon="-17.3304061">
        <ele>34.000000</ele>
        <time>2009-09-23T15:56:35Z</time>
      </trkpt>
      <trkpt lat="28.08172030" lon="-17.3303699">
        <ele>33.000000</ele>
        <time>2009-09-23T15:56:37Z</time>
      </trkpt>
      <trkpt lat="28.08165160" lon="-17.3303318">
        <ele>31.000000</ele>
        <time>2009-09-23T15:56:40Z</time>
      </trkpt>
      <trkpt lat="28.08164020" lon="-17.3302955">
        <ele>30.000000</ele>
        <time>2009-09-23T15:56:42Z</time>
      </trkpt>
      <trkpt lat="28.08159630" lon="-17.3302268">
        <ele>29.000000</ele>
        <time>2009-09-23T15:56:45Z</time>
      </trkpt>
      <trkpt lat="28.08147620" lon="-17.3300933">
        <ele>27.000000</ele>
        <time>2009-09-23T15:56:51Z</time>
      </trkpt>
      <trkpt lat="28.08143610" lon="-17.3300781">
        <ele>27.000000</ele>
        <time>2009-09-23T15:56:53Z</time>
      </trkpt>
      <trkpt lat="28.08132170" lon="-17.3299331">
        <ele>26.000000</ele>
        <time>2009-09-23T15:57:00Z</time>
      </trkpt>
      <trkpt lat="28.08127970" lon="-17.3298492">
        <ele>25.000000</ele>
        <time>2009-09-23T15:57:03Z</time>
      </trkpt>
      <trkpt lat="28.08124730" lon="-17.3297939">
        <ele>25.000000</ele>
        <time>2009-09-23T15:57:06Z</time>
      </trkpt>
      <trkpt lat="28.08110230" lon="-17.3296794">
        <ele>24.000000</ele>
        <time>2009-09-23T15:57:13Z</time>
      </trkpt>
      <trkpt lat="28.08094020" lon="-17.3295536">
        <ele>23.000000</ele>
        <time>2009-09-23T15:57:21Z</time>
      </trkpt>
      <trkpt lat="28.08093260" lon="-17.3295192">
        <ele>23.000000</ele>
        <time>2009-09-23T15:57:22Z</time>
      </trkpt>
      <trkpt lat="28.08089060" lon="-17.3294849">
        <ele>24.000000</ele>
        <time>2009-09-23T15:57:24Z</time>
      </trkpt>
      <trkpt lat="28.08087730" lon="-17.3294162">
        <ele>24.000000</ele>
        <time>2009-09-23T15:57:26Z</time>
      </trkpt>
      <trkpt lat="28.08083150" lon="-17.3293437">
        <ele>24.000000</ele>
        <time>2009-09-23T15:57:30Z</time>
      </trkpt>
      <trkpt lat="28.08075710" lon="-17.3291969">
        <ele>25.000000</ele>
        <time>2009-09-23T15:57:36Z</time>
      </trkpt>
      <trkpt lat="28.08068650" lon="-17.3290462">
        <ele>26.000000</ele>
        <time>2009-09-23T15:57:42Z</time>
      </trkpt>
      <trkpt lat="28.08066170" lon="-17.3289070">
        <ele>26.000000</ele>
        <time>2009-09-23T15:57:47Z</time>
      </trkpt>
      <trkpt lat="28.08064840" lon="-17.3288879">
        <ele>26.000000</ele>
        <time>2009-09-23T15:57:47Z</time>
      </trkpt>
      <trkpt lat="28.08058350" lon="-17.3287963">
        <ele>27.000000</ele>
        <time>2009-09-23T15:57:52Z</time>
      </trkpt>
      <trkpt lat="28.08051490" lon="-17.3285827">
        <ele>27.000000</ele>
        <time>2009-09-23T15:58:00Z</time>
      </trkpt>
      <trkpt lat="28.08044430" lon="-17.3284244">
        <ele>26.000000</ele>
        <time>2009-09-23T15:58:06Z</time>
      </trkpt>
      <trkpt lat="28.08038900" lon="-17.3283672">
        <ele>26.000000</ele>
        <time>2009-09-23T15:58:09Z</time>
      </trkpt>
      <trkpt lat="28.08029930" lon="-17.3282356">
        <ele>26.000000</ele>
        <time>2009-09-23T15:58:15Z</time>
      </trkpt>
      <trkpt lat="28.08031460" lon="-17.3280658">
        <ele>27.000000</ele>
        <time>2009-09-23T15:58:21Z</time>
      </trkpt>
      <trkpt lat="28.08039090" lon="-17.3278388">
        <ele>28.000000</ele>
        <time>2009-09-23T15:58:29Z</time>
      </trkpt>
      <trkpt lat="28.08041760" lon="-17.3276729">
        <ele>28.000000</ele>
        <time>2009-09-23T15:58:35Z</time>
      </trkpt>
      <trkpt lat="28.08045000" lon="-17.3274822">
        <ele>27.000000</ele>
        <time>2009-09-23T15:58:42Z</time>
      </trkpt>
      <trkpt lat="28.08045950" lon="-17.3274517">
        <ele>26.000000</ele>
        <time>2009-09-23T15:58:43Z</time>
      </trkpt>
      <trkpt lat="28.08047860" lon="-17.3274002">
        <ele>26.000000</ele>
        <time>2009-09-23T15:58:45Z</time>
      </trkpt>
      <trkpt lat="28.08040420" lon="-17.3272228">
        <ele>22.000000</ele>
        <time>2009-09-23T15:58:52Z</time>
      </trkpt>
      <trkpt lat="28.08043470" lon="-17.3270301">
        <ele>18.000000</ele>
        <time>2009-09-23T15:58:59Z</time>
      </trkpt>
      <trkpt lat="28.08041950" lon="-17.3269786">
        <ele>17.000000</ele>
        <time>2009-09-23T15:59:01Z</time>
      </trkpt>
      <trkpt lat="28.08037180" lon="-17.3268108">
        <ele>15.000000</ele>
        <time>2009-09-23T15:59:07Z</time>
      </trkpt>
      <trkpt lat="28.08036230" lon="-17.3266277">
        <ele>14.000000</ele>
        <time>2009-09-23T15:59:14Z</time>
      </trkpt>
      <trkpt lat="28.08035850" lon="-17.3265380">
        <ele>12.000000</ele>
        <time>2009-09-23T15:59:17Z</time>
      </trkpt>
      <trkpt lat="28.08025550" lon="-17.3264770">
        <ele>11.000000</ele>
        <time>2009-09-23T15:59:22Z</time>
      </trkpt>
      <trkpt lat="28.08022490" lon="-17.3264236">
        <ele>10.000000</ele>
        <time>2009-09-23T15:59:24Z</time>
      </trkpt>
      <trkpt lat="28.08021540" lon="-17.3264026">
        <ele>10.000000</ele>
        <time>2009-09-23T15:59:25Z</time>
      </trkpt>
      <trkpt lat="28.08022880" lon="-17.3263568">
        <ele>10.000000</ele>
        <time>2009-09-23T15:59:26Z</time>
      </trkpt>
      <trkpt lat="28.08027260" lon="-17.3262863">
        <ele>9.0000000</ele>
        <time>2009-09-23T15:59:29Z</time>
      </trkpt>
      <trkpt lat="28.08041380" lon="-17.3260955">
        <ele>8.0000000</ele>
        <time>2009-09-23T15:59:38Z</time>
      </trkpt>
      <trkpt lat="28.08047480" lon="-17.3257961">
        <ele>5.0000000</ele>
        <time>2009-09-23T15:59:49Z</time>
      </trkpt>
      <trkpt lat="28.08049960" lon="-17.3255329">
        <ele>3.0000000</ele>
        <time>2009-09-23T15:59:58Z</time>
      </trkpt>
      <trkpt lat="28.08052250" lon="-17.3253765">
        <ele>2.0000000</ele>
        <time>2009-09-23T16:00:04Z</time>
      </trkpt>
      <trkpt lat="28.08037560" lon="-17.3252182">
        <ele>2.0000000</ele>
        <time>2009-09-23T16:00:12Z</time>
      </trkpt>
      <trkpt lat="28.08033940" lon="-17.3249607">
        <ele>1.0000000</ele>
        <time>2009-09-23T16:00:21Z</time>
      </trkpt>
      <trkpt lat="28.08025930" lon="-17.3247947">
        <ele>2.0000000</ele>
        <time>2009-09-23T16:00:28Z</time>
      </trkpt>
      <trkpt lat="28.08023830" lon="-17.3245830">
        <ele>4.0000000</ele>
        <time>2009-09-23T16:00:36Z</time>
      </trkpt>
      <trkpt lat="28.08026690" lon="-17.3243846">
        <ele>5.0000000</ele>
        <time>2009-09-23T16:00:43Z</time>
      </trkpt>
      <trkpt lat="28.08026880" lon="-17.3242588">
        <ele>6.0000000</ele>
        <time>2009-09-23T16:00:47Z</time>
      </trkpt>
      <trkpt lat="28.08019440" lon="-17.3241691">
        <ele>8.0000000</ele>
        <time>2009-09-23T16:00:51Z</time>
      </trkpt>
      <trkpt lat="28.08015440" lon="-17.3241500">
        <ele>9.0000000</ele>
        <time>2009-09-23T16:00:53Z</time>
      </trkpt>
      <trkpt lat="28.08008000" lon="-17.3241119">
        <ele>10.000000</ele>
        <time>2009-09-23T16:00:56Z</time>
      </trkpt>
      <trkpt lat="28.08001510" lon="-17.3240184">
        <ele>12.000000</ele>
        <time>2009-09-23T16:01:01Z</time>
      </trkpt>
      <trkpt lat="28.08001700" lon="-17.3240528">
        <ele>12.000000</ele>
        <time>2009-09-23T16:01:02Z</time>
      </trkpt>
      <trkpt lat="28.08010100" lon="-17.3240108">
        <ele>13.000000</ele>
        <time>2009-09-23T16:01:06Z</time>
      </trkpt>
      <trkpt lat="28.08022880" lon="-17.3238410">
        <ele>13.000000</ele>
        <time>2009-09-23T16:01:13Z</time>
      </trkpt>
      <trkpt lat="28.08039470" lon="-17.3237438">
        <ele>14.000000</ele>
        <time>2009-09-23T16:01:21Z</time>
      </trkpt>
      <trkpt lat="28.08042330" lon="-17.3235645">
        <ele>14.000000</ele>
        <time>2009-09-23T16:01:27Z</time>
      </trkpt>
      <trkpt lat="28.08047860" lon="-17.3234119">
        <ele>16.000000</ele>
        <time>2009-09-23T16:01:33Z</time>
      </trkpt>
      <trkpt lat="28.08049580" lon="-17.3232555">
        <ele>17.000000</ele>
        <time>2009-09-23T16:01:39Z</time>
      </trkpt>
      <trkpt lat="28.08064070" lon="-17.3231563">
        <ele>19.000000</ele>
        <time>2009-09-23T16:01:46Z</time>
      </trkpt>
      <trkpt lat="28.08063880" lon="-17.3230342">
        <ele>21.000000</ele>
        <time>2009-09-23T16:01:50Z</time>
      </trkpt>
      <trkpt lat="28.08062930" lon="-17.3230113">
        <ele>22.000000</ele>
        <time>2009-09-23T16:01:51Z</time>
      </trkpt>
      <trkpt lat="28.08051300" lon="-17.3229389">
        <ele>24.000000</ele>
        <time>2009-09-23T16:01:56Z</time>
      </trkpt>
      <trkpt lat="28.08049580" lon="-17.3227806">
        <ele>25.000000</ele>
        <time>2009-09-23T16:02:02Z</time>
      </trkpt>
      <trkpt lat="28.08054920" lon="-17.3227615">
        <ele>26.000000</ele>
        <time>2009-09-23T16:02:04Z</time>
      </trkpt>
      <trkpt lat="28.08063500" lon="-17.3227424">
        <ele>26.000000</ele>
        <time>2009-09-23T16:02:07Z</time>
      </trkpt>
      <trkpt lat="28.08050530" lon="-17.3226490">
        <ele>28.000000</ele>
        <time>2009-09-23T16:02:14Z</time>
      </trkpt>
      <trkpt lat="28.08039470" lon="-17.3226127">
        <ele>29.000000</ele>
        <time>2009-09-23T16:02:18Z</time>
      </trkpt>
      <trkpt lat="28.08027450" lon="-17.3224830">
        <ele>31.000000</ele>
        <time>2009-09-23T16:02:25Z</time>
      </trkpt>
      <trkpt lat="28.08026880" lon="-17.3224754">
        <ele>31.000000</ele>
        <time>2009-09-23T16:02:25Z</time>
      </trkpt>
      <trkpt lat="28.08019440" lon="-17.3222217">
        <ele>34.000000</ele>
        <time>2009-09-23T16:02:35Z</time>
      </trkpt>
      <trkpt lat="28.08028220" lon="-17.3220710">
        <ele>36.000000</ele>
        <time>2009-09-23T16:02:41Z</time>
      </trkpt>
      <trkpt lat="28.08027070" lon="-17.3219242">
        <ele>38.000000</ele>
        <time>2009-09-23T16:02:46Z</time>
      </trkpt>
      <trkpt lat="28.08024400" lon="-17.3218650">
        <ele>40.000000</ele>
        <time>2009-09-23T16:02:49Z</time>
      </trkpt>
      <trkpt lat="28.08013910" lon="-17.3217201">
        <ele>43.000000</ele>
        <time>2009-09-23T16:02:55Z</time>
      </trkpt>
      <trkpt lat="28.08015630" lon="-17.3216514">
        <ele>45.000000</ele>
        <time>2009-09-23T16:02:58Z</time>
      </trkpt>
      <trkpt lat="28.08028030" lon="-17.3216533">
        <ele>48.000000</ele>
        <time>2009-09-23T16:03:03Z</time>
      </trkpt>
      <trkpt lat="28.08033370" lon="-17.3216228">
        <ele>49.000000</ele>
        <time>2009-09-23T16:03:05Z</time>
      </trkpt>
      <trkpt lat="28.08032600" lon="-17.3215770">
        <ele>49.000000</ele>
        <time>2009-09-23T16:03:07Z</time>
      </trkpt>
      <trkpt lat="28.08042330" lon="-17.3216209">
        <ele>50.000000</ele>
        <time>2009-09-23T16:03:11Z</time>
      </trkpt>
      <trkpt lat="28.08053200" lon="-17.3216514">
        <ele>51.000000</ele>
        <time>2009-09-23T16:03:15Z</time>
      </trkpt>
      <trkpt lat="28.08067700" lon="-17.3217124">
        <ele>53.000000</ele>
        <time>2009-09-23T16:03:22Z</time>
      </trkpt>
      <trkpt lat="28.08076280" lon="-17.3217029">
        <ele>54.000000</ele>
        <time>2009-09-23T16:03:25Z</time>
      </trkpt>
      <trkpt lat="28.08092490" lon="-17.3217487">
        <ele>55.000000</ele>
        <time>2009-09-23T16:03:32Z</time>
      </trkpt>
      <trkpt lat="28.08106800" lon="-17.3217353">
        <ele>56.000000</ele>
        <time>2009-09-23T16:03:37Z</time>
      </trkpt>
      <trkpt lat="28.08123580" lon="-17.3216247">
        <ele>57.000000</ele>
        <time>2009-09-23T16:03:45Z</time>
      </trkpt>
      <trkpt lat="28.08136170" lon="-17.3215694">
        <ele>58.000000</ele>
        <time>2009-09-23T16:03:51Z</time>
      </trkpt>
      <trkpt lat="28.08148190" lon="-17.3215217">
        <ele>58.000000</ele>
        <time>2009-09-23T16:03:56Z</time>
      </trkpt>
      <trkpt lat="28.08150670" lon="-17.3215026">
        <ele>58.000000</ele>
        <time>2009-09-23T16:03:57Z</time>
      </trkpt>
      <trkpt lat="28.08164400" lon="-17.3214092">
        <ele>58.000000</ele>
        <time>2009-09-23T16:04:03Z</time>
      </trkpt>
      <trkpt lat="28.08164590" lon="-17.3213977">
        <ele>58.000000</ele>
        <time>2009-09-23T16:04:04Z</time>
      </trkpt>
      <trkpt lat="28.08172600" lon="-17.3213672">
        <ele>58.000000</ele>
        <time>2009-09-23T16:04:07Z</time>
      </trkpt>
      <trkpt lat="28.08176990" lon="-17.3212451">
        <ele>58.000000</ele>
        <time>2009-09-23T16:04:12Z</time>
      </trkpt>
      <trkpt lat="28.08179280" lon="-17.3211174">
        <ele>59.000000</ele>
        <time>2009-09-23T16:04:16Z</time>
      </trkpt>
      <trkpt lat="28.08186910" lon="-17.3211383">
        <ele>59.000000</ele>
        <time>2009-09-23T16:04:20Z</time>
      </trkpt>
      <trkpt lat="28.08190530" lon="-17.3211288">
        <ele>60.000000</ele>
        <time>2009-09-23T16:04:21Z</time>
      </trkpt>
      <trkpt lat="28.08199110" lon="-17.3211231">
        <ele>60.000000</ele>
        <time>2009-09-23T16:04:24Z</time>
      </trkpt>
      <trkpt lat="28.08210560" lon="-17.3211231">
        <ele>60.000000</ele>
        <time>2009-09-23T16:04:29Z</time>
      </trkpt>
      <trkpt lat="28.08214750" lon="-17.3211536">
        <ele>60.000000</ele>
        <time>2009-09-23T16:04:31Z</time>
      </trkpt>
      <trkpt lat="28.08222380" lon="-17.3211574">
        <ele>60.000000</ele>
        <time>2009-09-23T16:04:34Z</time>
      </trkpt>
      <trkpt lat="28.08234970" lon="-17.3211822">
        <ele>61.000000</ele>
        <time>2009-09-23T16:04:39Z</time>
      </trkpt>
      <trkpt lat="28.08244890" lon="-17.3212528">
        <ele>62.000000</ele>
        <time>2009-09-23T16:04:44Z</time>
      </trkpt>
      <trkpt lat="28.08256530" lon="-17.3213634">
        <ele>65.000000</ele>
        <time>2009-09-23T16:04:50Z</time>
      </trkpt>
      <trkpt lat="28.08261870" lon="-17.3213195">
        <ele>67.000000</ele>
        <time>2009-09-23T16:04:53Z</time>
      </trkpt>
      <trkpt lat="28.08272170" lon="-17.3213748">
        <ele>69.000000</ele>
        <time>2009-09-23T16:04:57Z</time>
      </trkpt>
      <trkpt lat="28.08283040" lon="-17.3213939">
        <ele>70.000000</ele>
        <time>2009-09-23T16:05:02Z</time>
      </trkpt>
      <trkpt lat="28.08291620" lon="-17.3213748">
        <ele>71.000000</ele>
        <time>2009-09-23T16:05:05Z</time>
      </trkpt>
      <trkpt lat="28.08296770" lon="-17.3214015">
        <ele>71.000000</ele>
        <time>2009-09-23T16:05:07Z</time>
      </trkpt>
      <trkpt lat="28.08308600" lon="-17.3214035">
        <ele>71.000000</ele>
        <time>2009-09-23T16:05:12Z</time>
      </trkpt>
      <trkpt lat="28.08322140" lon="-17.3213977">
        <ele>71.000000</ele>
        <time>2009-09-23T16:05:18Z</time>
      </trkpt>
      <trkpt lat="28.08334730" lon="-17.3213520">
        <ele>71.000000</ele>
        <time>2009-09-23T16:05:23Z</time>
      </trkpt>
      <trkpt lat="28.08346550" lon="-17.3213386">
        <ele>71.000000</ele>
        <time>2009-09-23T16:05:28Z</time>
      </trkpt>
      <trkpt lat="28.08356660" lon="-17.3213119">
        <ele>71.000000</ele>
        <time>2009-09-23T16:05:32Z</time>
      </trkpt>
      <trkpt lat="28.08362770" lon="-17.3212928">
        <ele>71.000000</ele>
        <time>2009-09-23T16:05:34Z</time>
      </trkpt>
      <trkpt lat="28.08371540" lon="-17.3213176">
        <ele>72.000000</ele>
        <time>2009-09-23T16:05:38Z</time>
      </trkpt>
      <trkpt lat="28.08399200" lon="-17.3212203">
        <ele>73.000000</ele>
        <time>2009-09-23T16:05:49Z</time>
      </trkpt>
      <trkpt lat="28.08402440" lon="-17.3210391">
        <ele>74.000000</ele>
        <time>2009-09-23T16:05:56Z</time>
      </trkpt>
      <trkpt lat="28.08412930" lon="-17.3211746">
        <ele>75.000000</ele>
        <time>2009-09-23T16:06:02Z</time>
      </trkpt>
      <trkpt lat="28.08421700" lon="-17.3212242">
        <ele>75.000000</ele>
        <time>2009-09-23T16:06:06Z</time>
      </trkpt>
      <trkpt lat="28.08434290" lon="-17.3211383">
        <ele>77.000000</ele>
        <time>2009-09-23T16:06:12Z</time>
      </trkpt>
      <trkpt lat="28.08440200" lon="-17.3212203">
        <ele>79.000000</ele>
        <time>2009-09-23T16:06:16Z</time>
      </trkpt>
      <trkpt lat="28.08441350" lon="-17.3212089">
        <ele>79.000000</ele>
        <time>2009-09-23T16:06:17Z</time>
      </trkpt>
      <trkpt lat="28.08448410" lon="-17.3213100">
        <ele>80.000000</ele>
        <time>2009-09-23T16:06:21Z</time>
      </trkpt>
      <trkpt lat="28.08450500" lon="-17.3214168">
        <ele>81.000000</ele>
        <time>2009-09-23T16:06:25Z</time>
      </trkpt>
      <trkpt lat="28.08448790" lon="-17.3215389">
        <ele>82.000000</ele>
        <time>2009-09-23T16:06:29Z</time>
      </trkpt>
      <trkpt lat="28.08453550" lon="-17.3215141">
        <ele>82.000000</ele>
        <time>2009-09-23T16:06:31Z</time>
      </trkpt>
      <trkpt lat="28.08457940" lon="-17.3214511">
        <ele>83.000000</ele>
        <time>2009-09-23T16:06:34Z</time>
      </trkpt>
      <trkpt lat="28.08467480" lon="-17.3214225">
        <ele>84.000000</ele>
        <time>2009-09-23T16:06:38Z</time>
      </trkpt>
      <trkpt lat="28.08471670" lon="-17.3214015">
        <ele>85.000000</ele>
        <time>2009-09-23T16:06:40Z</time>
      </trkpt>
      <trkpt lat="28.08477020" lon="-17.3214607">
        <ele>88.000000</ele>
        <time>2009-09-23T16:06:43Z</time>
      </trkpt>
      <trkpt lat="28.08473960" lon="-17.3215122">
        <ele>90.000000</ele>
        <time>2009-09-23T16:06:45Z</time>
      </trkpt>
      <trkpt lat="28.08474340" lon="-17.3214893">
        <ele>90.000000</ele>
        <time>2009-09-23T16:06:46Z</time>
      </trkpt>
      <trkpt lat="28.08474540" lon="-17.3215065">
        <ele>91.000000</ele>
        <time>2009-09-23T16:06:47Z</time>
      </trkpt>
      <trkpt lat="28.08481210" lon="-17.3216037">
        <ele>92.000000</ele>
        <time>2009-09-23T16:06:51Z</time>
      </trkpt>
      <trkpt lat="28.08481020" lon="-17.3216896">
        <ele>94.000000</ele>
        <time>2009-09-23T16:06:54Z</time>
      </trkpt>
      <trkpt lat="28.08480070" lon="-17.3217353">
        <ele>94.000000</ele>
        <time>2009-09-23T16:06:56Z</time>
      </trkpt>
      <trkpt lat="28.08478160" lon="-17.3219127">
        <ele>96.000000</ele>
        <time>2009-09-23T16:07:02Z</time>
      </trkpt>
      <trkpt lat="28.08478540" lon="-17.3220043">
        <ele>96.000000</ele>
        <time>2009-09-23T16:07:05Z</time>
      </trkpt>
      <trkpt lat="28.08478730" lon="-17.3219795">
        <ele>96.000000</ele>
        <time>2009-09-23T16:07:06Z</time>
      </trkpt>
      <trkpt lat="28.08477780" lon="-17.3220844">
        <ele>96.000000</ele>
        <time>2009-09-23T16:07:10Z</time>
      </trkpt>
      <trkpt lat="28.08476440" lon="-17.3221225">
        <ele>96.000000</ele>
        <time>2009-09-23T16:07:11Z</time>
      </trkpt>
      <trkpt lat="28.08480450" lon="-17.3222637">
        <ele>96.000000</ele>
        <time>2009-09-23T16:07:17Z</time>
      </trkpt>
      <trkpt lat="28.08483310" lon="-17.3223781">
        <ele>96.000000</ele>
        <time>2009-09-23T16:07:21Z</time>
      </trkpt>
      <trkpt lat="28.08488460" lon="-17.3224334">
        <ele>97.000000</ele>
        <time>2009-09-23T16:07:24Z</time>
      </trkpt>
      <trkpt lat="28.08497040" lon="-17.3224925">
        <ele>100.00000</ele>
        <time>2009-09-23T16:07:28Z</time>
      </trkpt>
      <trkpt lat="28.08492080" lon="-17.3223819">
        <ele>104.00000</ele>
        <time>2009-09-23T16:07:32Z</time>
      </trkpt>
      <trkpt lat="28.08488650" lon="-17.3223686">
        <ele>105.00000</ele>
        <time>2009-09-23T16:07:33Z</time>
      </trkpt>
      <trkpt lat="28.08491320" lon="-17.3224811">
        <ele>107.00000</ele>
        <time>2009-09-23T16:07:38Z</time>
      </trkpt>
      <trkpt lat="28.08494180" lon="-17.3224716">
        <ele>108.00000</ele>
        <time>2009-09-23T16:07:39Z</time>
      </trkpt>
      <trkpt lat="28.08502000" lon="-17.3225212">
        <ele>109.00000</ele>
        <time>2009-09-23T16:07:42Z</time>
      </trkpt>
      <trkpt lat="28.08517450" lon="-17.3224487">
        <ele>109.00000</ele>
        <time>2009-09-23T16:07:49Z</time>
      </trkpt>
      <trkpt lat="28.08525270" lon="-17.3223915">
        <ele>110.00000</ele>
        <time>2009-09-23T16:07:53Z</time>
      </trkpt>
      <trkpt lat="28.08525080" lon="-17.3223476">
        <ele>110.00000</ele>
        <time>2009-09-23T16:07:54Z</time>
      </trkpt>
      <trkpt lat="28.08537670" lon="-17.3223457">
        <ele>109.00000</ele>
        <time>2009-09-23T16:07:59Z</time>
      </trkpt>
      <trkpt lat="28.08543770" lon="-17.3222217">
        <ele>109.00000</ele>
        <time>2009-09-23T16:08:04Z</time>
      </trkpt>
      <trkpt lat="28.08551400" lon="-17.3221473">
        <ele>109.00000</ele>
        <time>2009-09-23T16:08:08Z</time>
      </trkpt>
      <trkpt lat="28.08557310" lon="-17.3220748">
        <ele>109.00000</ele>
        <time>2009-09-23T16:08:12Z</time>
      </trkpt>
      <trkpt lat="28.08589740" lon="-17.3220863">
        <ele>109.00000</ele>
        <time>2009-09-23T16:08:25Z</time>
      </trkpt>
      <trkpt lat="28.08597370" lon="-17.3220920">
        <ele>109.00000</ele>
        <time>2009-09-23T16:08:28Z</time>
      </trkpt>
      <trkpt lat="28.08583640" lon="-17.3219413">
        <ele>113.00000</ele>
        <time>2009-09-23T16:08:36Z</time>
      </trkpt>
      <trkpt lat="28.08572570" lon="-17.3218955">
        <ele>115.00000</ele>
        <time>2009-09-23T16:08:40Z</time>
      </trkpt>
      <trkpt lat="28.08574290" lon="-17.3217582">
        <ele>118.00000</ele>
        <time>2009-09-23T16:08:45Z</time>
      </trkpt>
      <trkpt lat="28.08572000" lon="-17.3217372">
        <ele>119.00000</ele>
        <time>2009-09-23T16:08:46Z</time>
      </trkpt>
      <trkpt lat="28.08577910" lon="-17.3217849">
        <ele>121.00000</ele>
        <time>2009-09-23T16:08:49Z</time>
      </trkpt>
      <trkpt lat="28.08572190" lon="-17.3216457">
        <ele>123.00000</ele>
        <time>2009-09-23T16:08:55Z</time>
      </trkpt>
      <trkpt lat="28.08580010" lon="-17.3217391">
        <ele>125.00000</ele>
        <time>2009-09-23T16:08:59Z</time>
      </trkpt>
      <trkpt lat="28.08600040" lon="-17.3217315">
        <ele>127.00000</ele>
        <time>2009-09-23T16:09:07Z</time>
      </trkpt>
      <trkpt lat="28.08610720" lon="-17.3221130">
        <ele>131.00000</ele>
        <time>2009-09-23T16:09:21Z</time>
      </trkpt>
      <trkpt lat="28.08601950" lon="-17.3218288">
        <ele>134.00000</ele>
        <time>2009-09-23T16:09:32Z</time>
      </trkpt>
      <trkpt lat="28.08568380" lon="-17.3215427">
        <ele>138.00000</ele>
        <time>2009-09-23T16:09:49Z</time>
      </trkpt>
      <trkpt lat="28.08566090" lon="-17.3214740">
        <ele>139.00000</ele>
        <time>2009-09-23T16:09:51Z</time>
      </trkpt>
      <trkpt lat="28.08632650" lon="-17.3211040">
        <ele>143.00000</ele>
        <time>2009-09-23T16:10:21Z</time>
      </trkpt>
      <trkpt lat="28.08590310" lon="-17.3212852">
        <ele>145.00000</ele>
        <time>2009-09-23T16:10:39Z</time>
      </trkpt>
      <trkpt lat="28.08572570" lon="-17.3213253">
        <ele>147.00000</ele>
        <time>2009-09-23T16:10:46Z</time>
      </trkpt>
      <trkpt lat="28.08569140" lon="-17.3213424">
        <ele>147.00000</ele>
        <time>2009-09-23T16:10:48Z</time>
      </trkpt>
      <trkpt lat="28.08592410" lon="-17.3212070">
        <ele>150.00000</ele>
        <time>2009-09-23T16:10:58Z</time>
      </trkpt>
      <trkpt lat="28.08591070" lon="-17.3211212">
        <ele>151.00000</ele>
        <time>2009-09-23T16:11:02Z</time>
      </trkpt>
      <trkpt lat="28.08576770" lon="-17.3211765">
        <ele>154.00000</ele>
        <time>2009-09-23T16:11:08Z</time>
      </trkpt>
      <trkpt lat="28.08568570" lon="-17.3211555">
        <ele>155.00000</ele>
        <time>2009-09-23T16:11:11Z</time>
      </trkpt>
      <trkpt lat="28.08577910" lon="-17.3211269">
        <ele>157.00000</ele>
        <time>2009-09-23T16:11:15Z</time>
      </trkpt>
      <trkpt lat="28.08575630" lon="-17.3212146">
        <ele>159.00000</ele>
        <time>2009-09-23T16:11:18Z</time>
      </trkpt>
      <trkpt lat="28.08578100" lon="-17.3211441">
        <ele>160.00000</ele>
        <time>2009-09-23T16:11:21Z</time>
      </trkpt>
      <trkpt lat="28.08584970" lon="-17.3211479">
        <ele>162.00000</ele>
        <time>2009-09-23T16:11:23Z</time>
      </trkpt>
      <trkpt lat="28.08598130" lon="-17.3210144">
        <ele>165.00000</ele>
        <time>2009-09-23T16:11:31Z</time>
      </trkpt>
      <trkpt lat="28.08585730" lon="-17.3209686">
        <ele>167.00000</ele>
        <time>2009-09-23T16:11:36Z</time>
      </trkpt>
      <trkpt lat="28.08580780" lon="-17.3208599">
        <ele>168.00000</ele>
        <time>2009-09-23T16:11:40Z</time>
      </trkpt>
      <trkpt lat="28.08609580" lon="-17.3206310">
        <ele>172.00000</ele>
        <time>2009-09-23T16:11:54Z</time>
      </trkpt>
      <trkpt lat="28.08613960" lon="-17.3206119">
        <ele>172.00000</ele>
        <time>2009-09-23T16:11:56Z</time>
      </trkpt>
      <trkpt lat="28.08615300" lon="-17.3207798">
        <ele>174.00000</ele>
        <time>2009-09-23T16:12:02Z</time>
      </trkpt>
      <trkpt lat="28.08603280" lon="-17.3207149">
        <ele>176.00000</ele>
        <time>2009-09-23T16:12:07Z</time>
      </trkpt>
      <trkpt lat="28.08596420" lon="-17.3208541">
        <ele>177.00000</ele>
        <time>2009-09-23T16:12:13Z</time>
      </trkpt>
      <trkpt lat="28.08607670" lon="-17.3207721">
        <ele>179.00000</ele>
        <time>2009-09-23T16:12:18Z</time>
      </trkpt>
      <trkpt lat="28.08619880" lon="-17.3207855">
        <ele>179.00000</ele>
        <time>2009-09-23T16:12:23Z</time>
      </trkpt>
      <trkpt lat="28.08632850" lon="-17.3206653">
        <ele>180.00000</ele>
        <time>2009-09-23T16:12:30Z</time>
      </trkpt>
      <trkpt lat="28.08655730" lon="-17.3206958">
        <ele>181.00000</ele>
        <time>2009-09-23T16:12:39Z</time>
      </trkpt>
      <trkpt lat="28.08769600" lon="-17.3205204">
        <ele>230.00000</ele>
        <time>2009-09-23T16:13:25Z</time>
      </trkpt>
      <trkpt lat="28.08781620" lon="-17.3202152">
        <ele>211.00000</ele>
        <time>2009-09-23T16:13:37Z</time>
      </trkpt>
      <trkpt lat="28.08768080" lon="-17.3200016">
        <ele>211.00000</ele>
        <time>2009-09-23T16:13:46Z</time>
      </trkpt>
      <trkpt lat="28.08771510" lon="-17.3200302">
        <ele>211.00000</ele>
        <time>2009-09-23T16:13:48Z</time>
      </trkpt>
      <trkpt lat="28.08756820" lon="-17.3197269">
        <ele>213.00000</ele>
        <time>2009-09-23T16:14:00Z</time>
      </trkpt>
      <trkpt lat="28.08762160" lon="-17.3197135">
        <ele>213.00000</ele>
        <time>2009-09-23T16:14:02Z</time>
      </trkpt>
      <trkpt lat="28.08796310" lon="-17.3198585">
        <ele>215.00000</ele>
        <time>2009-09-23T16:14:17Z</time>
      </trkpt>
      <trkpt lat="28.08808130" lon="-17.3199768">
        <ele>215.00000</ele>
        <time>2009-09-23T16:14:23Z</time>
      </trkpt>
      <trkpt lat="28.08824340" lon="-17.3199329">
        <ele>215.00000</ele>
        <time>2009-09-23T16:14:30Z</time>
      </trkpt>
      <trkpt lat="28.08825490" lon="-17.3200187">
        <ele>215.00000</ele>
        <time>2009-09-23T16:14:33Z</time>
      </trkpt>
      <trkpt lat="28.08838080" lon="-17.3200473">
        <ele>216.00000</ele>
        <time>2009-09-23T16:14:38Z</time>
      </trkpt>
      <trkpt lat="28.08839410" lon="-17.3201007">
        <ele>217.00000</ele>
        <time>2009-09-23T16:14:40Z</time>
      </trkpt>
      <trkpt lat="28.08828540" lon="-17.3202419">
        <ele>218.00000</ele>
        <time>2009-09-23T16:14:47Z</time>
      </trkpt>
      <trkpt lat="28.08823580" lon="-17.3204669">
        <ele>218.00000</ele>
        <time>2009-09-23T16:14:55Z</time>
      </trkpt>
      <trkpt lat="28.08843040" lon="-17.3202934">
        <ele>219.00000</ele>
        <time>2009-09-23T16:15:05Z</time>
      </trkpt>
      <trkpt lat="28.08866880" lon="-17.3202190">
        <ele>218.00000</ele>
        <time>2009-09-23T16:15:15Z</time>
      </trkpt>
      <trkpt lat="28.08876030" lon="-17.3202972">
        <ele>218.00000</ele>
        <time>2009-09-23T16:15:19Z</time>
      </trkpt>
      <trkpt lat="28.08882330" lon="-17.3204441">
        <ele>217.00000</ele>
        <time>2009-09-23T16:15:25Z</time>
      </trkpt>
      <trkpt lat="28.08880610" lon="-17.3208084">
        <ele>219.00000</ele>
        <time>2009-09-23T16:15:38Z</time>
      </trkpt>
      <trkpt lat="28.08886900" lon="-17.3207454">
        <ele>221.00000</ele>
        <time>2009-09-23T16:15:41Z</time>
      </trkpt>
      <trkpt lat="28.08898920" lon="-17.3208332">
        <ele>224.00000</ele>
        <time>2009-09-23T16:15:47Z</time>
      </trkpt>
      <trkpt lat="28.08897200" lon="-17.3208255">
        <ele>225.00000</ele>
        <time>2009-09-23T16:15:48Z</time>
      </trkpt>
      <trkpt lat="28.08898540" lon="-17.3207035">
        <ele>229.00000</ele>
        <time>2009-09-23T16:15:52Z</time>
      </trkpt>
      <trkpt lat="28.08901400" lon="-17.3206443">
        <ele>232.00000</ele>
        <time>2009-09-23T16:15:54Z</time>
      </trkpt>
      <trkpt lat="28.08917420" lon="-17.3205852">
        <ele>237.00000</ele>
        <time>2009-09-23T16:16:01Z</time>
      </trkpt>
      <trkpt lat="28.08915900" lon="-17.3205909">
        <ele>238.00000</ele>
        <time>2009-09-23T16:16:02Z</time>
      </trkpt>
      <trkpt lat="28.08904830" lon="-17.3206825">
        <ele>241.00000</ele>
        <time>2009-09-23T16:16:07Z</time>
      </trkpt>
      <trkpt lat="28.08911320" lon="-17.3204822">
        <ele>244.00000</ele>
        <time>2009-09-23T16:16:15Z</time>
      </trkpt>
      <trkpt lat="28.08928290" lon="-17.3203849">
        <ele>247.00000</ele>
        <time>2009-09-23T16:16:23Z</time>
      </trkpt>
      <trkpt lat="28.08925620" lon="-17.3203468">
        <ele>248.00000</ele>
        <time>2009-09-23T16:16:24Z</time>
      </trkpt>
      <trkpt lat="28.08919710" lon="-17.3202285">
        <ele>250.00000</ele>
        <time>2009-09-23T16:16:29Z</time>
      </trkpt>
      <trkpt lat="28.08925620" lon="-17.3202152">
        <ele>252.00000</ele>
        <time>2009-09-23T16:16:31Z</time>
      </trkpt>
      <trkpt lat="28.08919140" lon="-17.3201923">
        <ele>253.00000</ele>
        <time>2009-09-23T16:16:34Z</time>
      </trkpt>
      <trkpt lat="28.08926390" lon="-17.3202857">
        <ele>254.00000</ele>
        <time>2009-09-23T16:16:39Z</time>
      </trkpt>
      <trkpt lat="28.08941260" lon="-17.3204784">
        <ele>254.00000</ele>
        <time>2009-09-23T16:16:48Z</time>
      </trkpt>
      <trkpt lat="28.08926010" lon="-17.3202629">
        <ele>254.00000</ele>
        <time>2009-09-23T16:16:57Z</time>
      </trkpt>
      <trkpt lat="28.08971020" lon="-17.3203048">
        <ele>256.00000</ele>
        <time>2009-09-23T16:17:15Z</time>
      </trkpt>
      <trkpt lat="28.08932110" lon="-17.3204631">
        <ele>259.00000</ele>
        <time>2009-09-23T16:17:32Z</time>
      </trkpt>
      <trkpt lat="28.08937450" lon="-17.3205718">
        <ele>260.00000</ele>
        <time>2009-09-23T16:17:36Z</time>
      </trkpt>
      <trkpt lat="28.08936880" lon="-17.3205184">
        <ele>261.00000</ele>
        <time>2009-09-23T16:17:38Z</time>
      </trkpt>
      <trkpt lat="28.08962050" lon="-17.3203754">
        <ele>265.00000</ele>
        <time>2009-09-23T16:17:50Z</time>
      </trkpt>
      <trkpt lat="28.08958240" lon="-17.3201942">
        <ele>268.00000</ele>
        <time>2009-09-23T16:17:56Z</time>
      </trkpt>
      <trkpt lat="28.08968160" lon="-17.3201713">
        <ele>270.00000</ele>
        <time>2009-09-23T16:18:00Z</time>
      </trkpt>
      <trkpt lat="28.08989710" lon="-17.3199024">
        <ele>278.00000</ele>
        <time>2009-09-23T16:18:13Z</time>
      </trkpt>
      <trkpt lat="28.08970060" lon="-17.3200969">
        <ele>284.00000</ele>
        <time>2009-09-23T16:18:23Z</time>
      </trkpt>
      <trkpt lat="28.08954230" lon="-17.3200893">
        <ele>345.00000</ele>
        <time>2009-09-23T16:18:30Z</time>
      </trkpt>
      <trkpt lat="28.08964150" lon="-17.3199405">
        <ele>344.00000</ele>
        <time>2009-09-23T16:18:36Z</time>
      </trkpt>
      <trkpt lat="28.08962240" lon="-17.3201885">
        <ele>340.00000</ele>
        <time>2009-09-23T16:18:45Z</time>
      </trkpt>
      <trkpt lat="28.08945270" lon="-17.3201313">
        <ele>337.00000</ele>
        <time>2009-09-23T16:18:52Z</time>
      </trkpt>
      <trkpt lat="28.08939170" lon="-17.3199901">
        <ele>336.00000</ele>
        <time>2009-09-23T16:18:58Z</time>
      </trkpt>
      <trkpt lat="28.08920280" lon="-17.3197631">
        <ele>337.00000</ele>
        <time>2009-09-23T16:19:09Z</time>
      </trkpt>
      <trkpt lat="28.08911890" lon="-17.3196983">
        <ele>338.00000</ele>
        <time>2009-09-23T16:19:13Z</time>
      </trkpt>
      <trkpt lat="28.08905020" lon="-17.3196411">
        <ele>340.00000</ele>
        <time>2009-09-23T16:19:16Z</time>
      </trkpt>
      <trkpt lat="28.08910940" lon="-17.3195419">
        <ele>344.00000</ele>
        <time>2009-09-23T16:19:21Z</time>
      </trkpt>
      <trkpt lat="28.08893770" lon="-17.3195419">
        <ele>351.00000</ele>
        <time>2009-09-23T16:19:27Z</time>
      </trkpt>
      <trkpt lat="28.08904830" lon="-17.3195915">
        <ele>354.00000</ele>
        <time>2009-09-23T16:19:32Z</time>
      </trkpt>
      <trkpt lat="28.08913990" lon="-17.3194370">
        <ele>356.00000</ele>
        <time>2009-09-23T16:19:39Z</time>
      </trkpt>
      <trkpt lat="28.08926010" lon="-17.3192672">
        <ele>359.00000</ele>
        <time>2009-09-23T16:19:46Z</time>
      </trkpt>
      <trkpt lat="28.08910750" lon="-17.3193664">
        <ele>360.00000</ele>
        <time>2009-09-23T16:19:53Z</time>
      </trkpt>
      <trkpt lat="28.08917420" lon="-17.3190593">
        <ele>371.00000</ele>
        <time>2009-09-23T16:20:05Z</time>
      </trkpt>
      <trkpt lat="28.08932870" lon="-17.3192214">
        <ele>370.00000</ele>
        <time>2009-09-23T16:20:13Z</time>
      </trkpt>
      <trkpt lat="28.08970060" lon="-17.3201580">
        <ele>338.00000</ele>
        <time>2009-09-23T16:20:49Z</time>
      </trkpt>
      <trkpt lat="28.08965490" lon="-17.3202800">
        <ele>339.00000</ele>
        <time>2009-09-23T16:20:54Z</time>
      </trkpt>
      <trkpt lat="28.08965870" lon="-17.3203048">
        <ele>339.00000</ele>
        <time>2009-09-23T16:20:55Z</time>
      </trkpt>
      <trkpt lat="28.08962630" lon="-17.3203563">
        <ele>340.00000</ele>
        <time>2009-09-23T16:20:57Z</time>
      </trkpt>
      <trkpt lat="28.08964530" lon="-17.3203315">
        <ele>340.00000</ele>
        <time>2009-09-23T16:20:58Z</time>
      </trkpt>
      <trkpt lat="28.08963770" lon="-17.3202400">
        <ele>342.00000</ele>
        <time>2009-09-23T16:21:02Z</time>
      </trkpt>
      <trkpt lat="28.08967780" lon="-17.3202781">
        <ele>343.00000</ele>
        <time>2009-09-23T16:21:04Z</time>
      </trkpt>
      <trkpt lat="28.08969870" lon="-17.3202476">
        <ele>343.00000</ele>
        <time>2009-09-23T16:21:05Z</time>
      </trkpt>
      <trkpt lat="28.08963960" lon="-17.3202247">
        <ele>344.00000</ele>
        <time>2009-09-23T16:21:07Z</time>
      </trkpt>
      <trkpt lat="28.08973500" lon="-17.3201370">
        <ele>347.00000</ele>
        <time>2009-09-23T16:21:12Z</time>
      </trkpt>
      <trkpt lat="28.08979030" lon="-17.3200435">
        <ele>347.00000</ele>
        <time>2009-09-23T16:21:16Z</time>
      </trkpt>
      <trkpt lat="28.08979790" lon="-17.3200283">
        <ele>347.00000</ele>
        <time>2009-09-23T16:21:17Z</time>
      </trkpt>
      <trkpt lat="28.08989140" lon="-17.3199424">
        <ele>348.00000</ele>
        <time>2009-09-23T16:21:22Z</time>
      </trkpt>
      <trkpt lat="28.08992000" lon="-17.3199138">
        <ele>348.00000</ele>
        <time>2009-09-23T16:21:23Z</time>
      </trkpt>
      <trkpt lat="28.08996390" lon="-17.3198451">
        <ele>349.00000</ele>
        <time>2009-09-23T16:21:26Z</time>
      </trkpt>
      <trkpt lat="28.09002300" lon="-17.3199996">
        <ele>352.00000</ele>
        <time>2009-09-23T16:21:32Z</time>
      </trkpt>
      <trkpt lat="28.08997340" lon="-17.3199787">
        <ele>353.00000</ele>
        <time>2009-09-23T16:21:34Z</time>
      </trkpt>
      <trkpt lat="28.09008780" lon="-17.3197956">
        <ele>360.00000</ele>
        <time>2009-09-23T16:21:42Z</time>
      </trkpt>
      <trkpt lat="28.09027670" lon="-17.3198051">
        <ele>369.00000</ele>
        <time>2009-09-23T16:21:50Z</time>
      </trkpt>
      <trkpt lat="28.09080310" lon="-17.3197460">
        <ele>398.00000</ele>
        <time>2009-09-23T16:22:11Z</time>
      </trkpt>
      <trkpt lat="28.09087560" lon="-17.3201179">
        <ele>394.00000</ele>
        <time>2009-09-23T16:22:25Z</time>
      </trkpt>
      <trkpt lat="28.09096140" lon="-17.3202438">
        <ele>392.00000</ele>
        <time>2009-09-23T16:22:30Z</time>
      </trkpt>
      <trkpt lat="28.09080880" lon="-17.3198966">
        <ele>391.00000</ele>
        <time>2009-09-23T16:22:44Z</time>
      </trkpt>
      <trkpt lat="28.09088700" lon="-17.3198585">
        <ele>390.00000</ele>
        <time>2009-09-23T16:22:47Z</time>
      </trkpt>
      <trkpt lat="28.09090800" lon="-17.3199081">
        <ele>390.00000</ele>
        <time>2009-09-23T16:22:49Z</time>
      </trkpt>
      <trkpt lat="28.09085460" lon="-17.3200454">
        <ele>389.00000</ele>
        <time>2009-09-23T16:22:54Z</time>
      </trkpt>
      <trkpt lat="28.09097290" lon="-17.3200588">
        <ele>390.00000</ele>
        <time>2009-09-23T16:22:59Z</time>
      </trkpt>
      <trkpt lat="28.09103580" lon="-17.3201198">
        <ele>393.00000</ele>
        <time>2009-09-23T16:23:03Z</time>
      </trkpt>
      <trkpt lat="28.09099190" lon="-17.3201923">
        <ele>395.00000</ele>
        <time>2009-09-23T16:23:06Z</time>
      </trkpt>
      <trkpt lat="28.09099760" lon="-17.3202247">
        <ele>395.00000</ele>
        <time>2009-09-23T16:23:07Z</time>
      </trkpt>
      <trkpt lat="28.09109110" lon="-17.3203620">
        <ele>399.00000</ele>
        <time>2009-09-23T16:23:13Z</time>
      </trkpt>
      <trkpt lat="28.09104910" lon="-17.3204498">
        <ele>401.00000</ele>
        <time>2009-09-23T16:23:16Z</time>
      </trkpt>
      <trkpt lat="28.09115400" lon="-17.3203773">
        <ele>403.00000</ele>
        <time>2009-09-23T16:23:21Z</time>
      </trkpt>
      <trkpt lat="28.09128180" lon="-17.3203659">
        <ele>406.00000</ele>
        <time>2009-09-23T16:23:27Z</time>
      </trkpt>
      <trkpt lat="28.09129330" lon="-17.3203868">
        <ele>406.00000</ele>
        <time>2009-09-23T16:23:27Z</time>
      </trkpt>
      <trkpt lat="28.09133520" lon="-17.3204727">
        <ele>407.00000</ele>
        <time>2009-09-23T16:23:31Z</time>
      </trkpt>
      <trkpt lat="28.09132190" lon="-17.3205852">
        <ele>409.00000</ele>
        <time>2009-09-23T16:23:35Z</time>
      </trkpt>
      <trkpt lat="28.09136390" lon="-17.3206195">
        <ele>409.00000</ele>
        <time>2009-09-23T16:23:37Z</time>
      </trkpt>
      <trkpt lat="28.09150310" lon="-17.3205890">
        <ele>411.00000</ele>
        <time>2009-09-23T16:23:43Z</time>
      </trkpt>
      <trkpt lat="28.09166330" lon="-17.3205223">
        <ele>413.00000</ele>
        <time>2009-09-23T16:23:49Z</time>
      </trkpt>
      <trkpt lat="28.09173770" lon="-17.3204231">
        <ele>415.00000</ele>
        <time>2009-09-23T16:23:54Z</time>
      </trkpt>
      <trkpt lat="28.09181020" lon="-17.3207168">
        <ele>419.00000</ele>
        <time>2009-09-23T16:24:05Z</time>
      </trkpt>
      <trkpt lat="28.09192460" lon="-17.3210258">
        <ele>424.00000</ele>
        <time>2009-09-23T16:24:17Z</time>
      </trkpt>
      <trkpt lat="28.09210770" lon="-17.3210868">
        <ele>427.00000</ele>
        <time>2009-09-23T16:24:24Z</time>
      </trkpt>
      <trkpt lat="28.09220690" lon="-17.3207702">
        <ele>432.00000</ele>
        <time>2009-09-23T16:24:36Z</time>
      </trkpt>
      <trkpt lat="28.09218970" lon="-17.3208065">
        <ele>432.00000</ele>
        <time>2009-09-23T16:24:38Z</time>
      </trkpt>
      <trkpt lat="28.09222410" lon="-17.3211708">
        <ele>437.00000</ele>
        <time>2009-09-23T16:24:51Z</time>
      </trkpt>
      <trkpt lat="28.09230990" lon="-17.3210449">
        <ele>438.00000</ele>
        <time>2009-09-23T16:24:56Z</time>
      </trkpt>
      <trkpt lat="28.09245490" lon="-17.3207893">
        <ele>434.00000</ele>
        <time>2009-09-23T16:25:07Z</time>
      </trkpt>
      <trkpt lat="28.09261130" lon="-17.3207530">
        <ele>431.00000</ele>
        <time>2009-09-23T16:25:13Z</time>
      </trkpt>
      <trkpt lat="28.09274290" lon="-17.3207778">
        <ele>430.00000</ele>
        <time>2009-09-23T16:25:19Z</time>
      </trkpt>
      <trkpt lat="28.09272950" lon="-17.3208694">
        <ele>430.00000</ele>
        <time>2009-09-23T16:25:22Z</time>
      </trkpt>
      <trkpt lat="28.09267990" lon="-17.3208484">
        <ele>430.00000</ele>
        <time>2009-09-23T16:25:24Z</time>
      </trkpt>
      <trkpt lat="28.09259410" lon="-17.3207263">
        <ele>431.00000</ele>
        <time>2009-09-23T16:25:30Z</time>
      </trkpt>
      <trkpt lat="28.09270090" lon="-17.3205776">
        <ele>433.00000</ele>
        <time>2009-09-23T16:25:36Z</time>
      </trkpt>
      <trkpt lat="28.09275050" lon="-17.3204326">
        <ele>435.00000</ele>
        <time>2009-09-23T16:25:42Z</time>
      </trkpt>
      <trkpt lat="28.09261700" lon="-17.3200187">
        <ele>442.00000</ele>
        <time>2009-09-23T16:25:57Z</time>
      </trkpt>
      <trkpt lat="28.09275810" lon="-17.3199481">
        <ele>445.00000</ele>
        <time>2009-09-23T16:26:04Z</time>
      </trkpt>
      <trkpt lat="28.09297940" lon="-17.3198585">
        <ele>449.00000</ele>
        <time>2009-09-23T16:26:13Z</time>
      </trkpt>
      <trkpt lat="28.09314530" lon="-17.3197212">
        <ele>449.00000</ele>
        <time>2009-09-23T16:26:21Z</time>
      </trkpt>
      <trkpt lat="28.09325400" lon="-17.3197212">
        <ele>448.00000</ele>
        <time>2009-09-23T16:26:26Z</time>
      </trkpt>
      <trkpt lat="28.09334750" lon="-17.3198146">
        <ele>445.00000</ele>
        <time>2009-09-23T16:26:31Z</time>
      </trkpt>
      <trkpt lat="28.09338180" lon="-17.3198299">
        <ele>445.00000</ele>
        <time>2009-09-23T16:26:32Z</time>
      </trkpt>
      <trkpt lat="28.09345430" lon="-17.3197441">
        <ele>448.00000</ele>
        <time>2009-09-23T16:26:36Z</time>
      </trkpt>
      <trkpt lat="28.09353250" lon="-17.3197307">
        <ele>450.00000</ele>
        <time>2009-09-23T16:26:39Z</time>
      </trkpt>
      <trkpt lat="28.09363740" lon="-17.3197364">
        <ele>452.00000</ele>
        <time>2009-09-23T16:26:44Z</time>
      </trkpt>
      <trkpt lat="28.09369850" lon="-17.3196563">
        <ele>453.00000</ele>
        <time>2009-09-23T16:26:47Z</time>
      </trkpt>
      <trkpt lat="28.09384910" lon="-17.3196830">
        <ele>454.00000</ele>
        <time>2009-09-23T16:26:53Z</time>
      </trkpt>
      <trkpt lat="28.09396170" lon="-17.3196887">
        <ele>455.00000</ele>
        <time>2009-09-23T16:26:58Z</time>
      </trkpt>
      <trkpt lat="28.09405130" lon="-17.3196392">
        <ele>456.00000</ele>
        <time>2009-09-23T16:27:02Z</time>
      </trkpt>
      <trkpt lat="28.09413710" lon="-17.3196334">
        <ele>456.00000</ele>
        <time>2009-09-23T16:27:05Z</time>
      </trkpt>
      <trkpt lat="28.09417720" lon="-17.3196392">
        <ele>456.00000</ele>
        <time>2009-09-23T16:27:07Z</time>
      </trkpt>
      <trkpt lat="28.09428210" lon="-17.3196601">
        <ele>456.00000</ele>
        <time>2009-09-23T16:27:11Z</time>
      </trkpt>
      <trkpt lat="28.09439460" lon="-17.3197479">
        <ele>455.00000</ele>
        <time>2009-09-23T16:27:17Z</time>
      </trkpt>
      <trkpt lat="28.09446710" lon="-17.3197517">
        <ele>456.00000</ele>
        <time>2009-09-23T16:27:20Z</time>
      </trkpt>
      <trkpt lat="28.09453200" lon="-17.3197231">
        <ele>458.00000</ele>
        <time>2009-09-23T16:27:22Z</time>
      </trkpt>
      <trkpt lat="28.09463500" lon="-17.3197002">
        <ele>462.00000</ele>
        <time>2009-09-23T16:27:27Z</time>
      </trkpt>
      <trkpt lat="28.09467120" lon="-17.3195877">
        <ele>466.00000</ele>
        <time>2009-09-23T16:27:31Z</time>
      </trkpt>
      <trkpt lat="28.09466740" lon="-17.3195934">
        <ele>467.00000</ele>
        <time>2009-09-23T16:27:31Z</time>
      </trkpt>
      <trkpt lat="28.09461590" lon="-17.3194923">
        <ele>471.00000</ele>
        <time>2009-09-23T16:27:35Z</time>
      </trkpt>
      <trkpt lat="28.09455680" lon="-17.3194084">
        <ele>475.00000</ele>
        <time>2009-09-23T16:27:39Z</time>
      </trkpt>
      <trkpt lat="28.09450140" lon="-17.3193340">
        <ele>479.00000</ele>
        <time>2009-09-23T16:27:42Z</time>
      </trkpt>
      <trkpt lat="28.09445760" lon="-17.3192310">
        <ele>483.00000</ele>
        <time>2009-09-23T16:27:46Z</time>
      </trkpt>
      <trkpt lat="28.09446140" lon="-17.3192100">
        <ele>484.00000</ele>
        <time>2009-09-23T16:27:47Z</time>
      </trkpt>
      <trkpt lat="28.09442900" lon="-17.3191337">
        <ele>487.00000</ele>
        <time>2009-09-23T16:27:50Z</time>
      </trkpt>
      <trkpt lat="28.09448050" lon="-17.3190612">
        <ele>490.00000</ele>
        <time>2009-09-23T16:27:54Z</time>
      </trkpt>
      <trkpt lat="28.09455290" lon="-17.3191146">
        <ele>493.00000</ele>
        <time>2009-09-23T16:27:57Z</time>
      </trkpt>
      <trkpt lat="28.09448810" lon="-17.3190574">
        <ele>495.00000</ele>
        <time>2009-09-23T16:28:00Z</time>
      </trkpt>
      <trkpt lat="28.09444040" lon="-17.3190040">
        <ele>497.00000</ele>
        <time>2009-09-23T16:28:03Z</time>
      </trkpt>
      <trkpt lat="28.09442710" lon="-17.3188972">
        <ele>501.00000</ele>
        <time>2009-09-23T16:28:07Z</time>
      </trkpt>
      <trkpt lat="28.09440800" lon="-17.3188476">
        <ele>504.00000</ele>
        <time>2009-09-23T16:28:09Z</time>
      </trkpt>
      <trkpt lat="28.09436600" lon="-17.3187923">
        <ele>507.00000</ele>
        <time>2009-09-23T16:28:11Z</time>
      </trkpt>
      <trkpt lat="28.09434890" lon="-17.3187313">
        <ele>509.00000</ele>
        <time>2009-09-23T16:28:13Z</time>
      </trkpt>
      <trkpt lat="28.09434700" lon="-17.3186550">
        <ele>512.00000</ele>
        <time>2009-09-23T16:28:16Z</time>
      </trkpt>
      <trkpt lat="28.09430310" lon="-17.3186206">
        <ele>514.00000</ele>
        <time>2009-09-23T16:28:18Z</time>
      </trkpt>
      <trkpt lat="28.09425540" lon="-17.3186111">
        <ele>515.00000</ele>
        <time>2009-09-23T16:28:20Z</time>
      </trkpt>
      <trkpt lat="28.09420580" lon="-17.3185462">
        <ele>518.00000</ele>
        <time>2009-09-23T16:28:23Z</time>
      </trkpt>
      <trkpt lat="28.09419440" lon="-17.3185043">
        <ele>519.00000</ele>
        <time>2009-09-23T16:28:25Z</time>
      </trkpt>
      <trkpt lat="28.09414860" lon="-17.3184909">
        <ele>520.00000</ele>
        <time>2009-09-23T16:28:27Z</time>
      </trkpt>
      <trkpt lat="28.09422870" lon="-17.3183975">
        <ele>525.00000</ele>
        <time>2009-09-23T16:28:31Z</time>
      </trkpt>
      <trkpt lat="28.09415050" lon="-17.3183822">
        <ele>528.00000</ele>
        <time>2009-09-23T16:28:35Z</time>
      </trkpt>
      <trkpt lat="28.09419250" lon="-17.3182640">
        <ele>533.00000</ele>
        <time>2009-09-23T16:28:39Z</time>
      </trkpt>
      <trkpt lat="28.09417530" lon="-17.3182239">
        <ele>536.00000</ele>
        <time>2009-09-23T16:28:41Z</time>
      </trkpt>
      <trkpt lat="28.09420200" lon="-17.3181991">
        <ele>538.00000</ele>
        <time>2009-09-23T16:28:42Z</time>
      </trkpt>
      <trkpt lat="28.09422110" lon="-17.3181648">
        <ele>540.00000</ele>
        <time>2009-09-23T16:28:43Z</time>
      </trkpt>
      <trkpt lat="28.09422110" lon="-17.3181228">
        <ele>542.00000</ele>
        <time>2009-09-23T16:28:45Z</time>
      </trkpt>
      <trkpt lat="28.09418100" lon="-17.3180866">
        <ele>545.00000</ele>
        <time>2009-09-23T16:28:47Z</time>
      </trkpt>
      <trkpt lat="28.09420010" lon="-17.3180007">
        <ele>550.00000</ele>
        <time>2009-09-23T16:28:50Z</time>
      </trkpt>
      <trkpt lat="28.09422490" lon="-17.3179759">
        <ele>552.00000</ele>
        <time>2009-09-23T16:28:51Z</time>
      </trkpt>
      <trkpt lat="28.09427640" lon="-17.3178615">
        <ele>560.00000</ele>
        <time>2009-09-23T16:28:56Z</time>
      </trkpt>
      <trkpt lat="28.09423630" lon="-17.3177928">
        <ele>564.00000</ele>
        <time>2009-09-23T16:28:59Z</time>
      </trkpt>
      <trkpt lat="28.09424970" lon="-17.3177452">
        <ele>566.00000</ele>
        <time>2009-09-23T16:29:01Z</time>
      </trkpt>
      <trkpt lat="28.09418290" lon="-17.3176441">
        <ele>571.00000</ele>
        <time>2009-09-23T16:29:05Z</time>
      </trkpt>
      <trkpt lat="28.09427640" lon="-17.3176269">
        <ele>575.00000</ele>
        <time>2009-09-23T16:29:09Z</time>
      </trkpt>
      <trkpt lat="28.09436600" lon="-17.3175277">
        <ele>580.00000</ele>
        <time>2009-09-23T16:29:14Z</time>
      </trkpt>
      <trkpt lat="28.09449190" lon="-17.3174953">
        <ele>584.00000</ele>
        <time>2009-09-23T16:29:19Z</time>
      </trkpt>
      <trkpt lat="28.09455100" lon="-17.3175544">
        <ele>585.00000</ele>
        <time>2009-09-23T16:29:22Z</time>
      </trkpt>
      <trkpt lat="28.09459870" lon="-17.3175907">
        <ele>585.00000</ele>
        <time>2009-09-23T16:29:24Z</time>
      </trkpt>
      <trkpt lat="28.09455870" lon="-17.3175773">
        <ele>585.00000</ele>
        <time>2009-09-23T16:29:26Z</time>
      </trkpt>
      <trkpt lat="28.09449950" lon="-17.3175315">
        <ele>586.00000</ele>
        <time>2009-09-23T16:29:29Z</time>
      </trkpt>
      <trkpt lat="28.09445570" lon="-17.3175163">
        <ele>587.00000</ele>
        <time>2009-09-23T16:29:31Z</time>
      </trkpt>
      <trkpt lat="28.09441560" lon="-17.3174629">
        <ele>589.00000</ele>
        <time>2009-09-23T16:29:33Z</time>
      </trkpt>
      <trkpt lat="28.09437560" lon="-17.3173789">
        <ele>593.00000</ele>
        <time>2009-09-23T16:29:37Z</time>
      </trkpt>
      <trkpt lat="28.09440230" lon="-17.3173294">
        <ele>595.00000</ele>
        <time>2009-09-23T16:29:39Z</time>
      </trkpt>
      <trkpt lat="28.09441940" lon="-17.3173236">
        <ele>596.00000</ele>
        <time>2009-09-23T16:29:39Z</time>
      </trkpt>
      <trkpt lat="28.09451670" lon="-17.3172893">
        <ele>600.00000</ele>
        <time>2009-09-23T16:29:44Z</time>
      </trkpt>
      <trkpt lat="28.09454720" lon="-17.3172893">
        <ele>601.00000</ele>
        <time>2009-09-23T16:29:45Z</time>
      </trkpt>
      <trkpt lat="28.09448810" lon="-17.3172149">
        <ele>605.00000</ele>
        <time>2009-09-23T16:29:48Z</time>
      </trkpt>
      <trkpt lat="28.09442320" lon="-17.3171787">
        <ele>607.00000</ele>
        <time>2009-09-23T16:29:51Z</time>
      </trkpt>
      <trkpt lat="28.09436790" lon="-17.3171062">
        <ele>611.00000</ele>
        <time>2009-09-23T16:29:55Z</time>
      </trkpt>
      <trkpt lat="28.09429160" lon="-17.3170089">
        <ele>616.00000</ele>
        <time>2009-09-23T16:29:59Z</time>
      </trkpt>
      <trkpt lat="28.09425160" lon="-17.3169174">
        <ele>620.00000</ele>
        <time>2009-09-23T16:30:03Z</time>
      </trkpt>
      <trkpt lat="28.09420960" lon="-17.3168087">
        <ele>625.00000</ele>
        <time>2009-09-23T16:30:07Z</time>
      </trkpt>
      <trkpt lat="28.09416580" lon="-17.3167533">
        <ele>628.00000</ele>
        <time>2009-09-23T16:30:10Z</time>
      </trkpt>
      <trkpt lat="28.09410660" lon="-17.3167610">
        <ele>630.00000</ele>
        <time>2009-09-23T16:30:12Z</time>
      </trkpt>
      <trkpt lat="28.09403990" lon="-17.3167381">
        <ele>630.00000</ele>
        <time>2009-09-23T16:30:15Z</time>
      </trkpt>
      <trkpt lat="28.09392920" lon="-17.3167629">
        <ele>631.00000</ele>
        <time>2009-09-23T16:30:19Z</time>
      </trkpt>
      <trkpt lat="28.09385490" lon="-17.3167743">
        <ele>630.00000</ele>
        <time>2009-09-23T16:30:22Z</time>
      </trkpt>
      <trkpt lat="28.09375950" lon="-17.3168106">
        <ele>629.00000</ele>
        <time>2009-09-23T16:30:26Z</time>
      </trkpt>
      <trkpt lat="28.09371370" lon="-17.3168601">
        <ele>628.00000</ele>
        <time>2009-09-23T16:30:29Z</time>
      </trkpt>
      <trkpt lat="28.09366030" lon="-17.3169136">
        <ele>627.00000</ele>
        <time>2009-09-23T16:30:32Z</time>
      </trkpt>
      <trkpt lat="28.09363930" lon="-17.3169269">
        <ele>627.00000</ele>
        <time>2009-09-23T16:30:33Z</time>
      </trkpt>
      <trkpt lat="28.09343910" lon="-17.3169364">
        <ele>627.00000</ele>
        <time>2009-09-23T16:30:41Z</time>
      </trkpt>
      <trkpt lat="28.09338760" lon="-17.3169555">
        <ele>627.00000</ele>
        <time>2009-09-23T16:30:43Z</time>
      </trkpt>
      <trkpt lat="28.09332080" lon="-17.3169288">
        <ele>629.00000</ele>
        <time>2009-09-23T16:30:46Z</time>
      </trkpt>
      <trkpt lat="28.09330360" lon="-17.3169116">
        <ele>629.00000</ele>
        <time>2009-09-23T16:30:47Z</time>
      </trkpt>
      <trkpt lat="28.09327880" lon="-17.3168697">
        <ele>630.00000</ele>
        <time>2009-09-23T16:30:48Z</time>
      </trkpt>
      <trkpt lat="28.09322920" lon="-17.3168315">
        <ele>632.00000</ele>
        <time>2009-09-23T16:30:51Z</time>
      </trkpt>
      <trkpt lat="28.09321210" lon="-17.3167896">
        <ele>633.00000</ele>
        <time>2009-09-23T16:30:52Z</time>
      </trkpt>
      <trkpt lat="28.09318540" lon="-17.3167781">
        <ele>633.00000</ele>
        <time>2009-09-23T16:30:54Z</time>
      </trkpt>
      <trkpt lat="28.09328070" lon="-17.3166885">
        <ele>637.00000</ele>
        <time>2009-09-23T16:30:59Z</time>
      </trkpt>
      <trkpt lat="28.09331700" lon="-17.3166751">
        <ele>638.00000</ele>
        <time>2009-09-23T16:31:00Z</time>
      </trkpt>
      <trkpt lat="28.09340660" lon="-17.3166198">
        <ele>640.00000</ele>
        <time>2009-09-23T16:31:04Z</time>
      </trkpt>
      <trkpt lat="28.09344480" lon="-17.3165435">
        <ele>642.00000</ele>
        <time>2009-09-23T16:31:07Z</time>
      </trkpt>
      <trkpt lat="28.09345620" lon="-17.3164863">
        <ele>643.00000</ele>
        <time>2009-09-23T16:31:09Z</time>
      </trkpt>
      <trkpt lat="28.09352110" lon="-17.3164405">
        <ele>645.00000</ele>
        <time>2009-09-23T16:31:12Z</time>
      </trkpt>
      <trkpt lat="28.09357450" lon="-17.3163871">
        <ele>647.00000</ele>
        <time>2009-09-23T16:31:15Z</time>
      </trkpt>
      <trkpt lat="28.09358400" lon="-17.3163719">
        <ele>648.00000</ele>
        <time>2009-09-23T16:31:16Z</time>
      </trkpt>
      <trkpt lat="28.09365080" lon="-17.3162708">
        <ele>650.00000</ele>
        <time>2009-09-23T16:31:20Z</time>
      </trkpt>
      <trkpt lat="28.09376330" lon="-17.3162193">
        <ele>653.00000</ele>
        <time>2009-09-23T16:31:25Z</time>
      </trkpt>
      <trkpt lat="28.09379570" lon="-17.3162136">
        <ele>654.00000</ele>
        <time>2009-09-23T16:31:27Z</time>
      </trkpt>
      <trkpt lat="28.09389870" lon="-17.3161792">
        <ele>656.00000</ele>
        <time>2009-09-23T16:31:31Z</time>
      </trkpt>
      <trkpt lat="28.09396740" lon="-17.3161582">
        <ele>656.00000</ele>
        <time>2009-09-23T16:31:34Z</time>
      </trkpt>
      <trkpt lat="28.09406470" lon="-17.3161621">
        <ele>658.00000</ele>
        <time>2009-09-23T16:31:38Z</time>
      </trkpt>
      <trkpt lat="28.09418670" lon="-17.3161773">
        <ele>658.00000</ele>
        <time>2009-09-23T16:31:42Z</time>
      </trkpt>
      <trkpt lat="28.09427260" lon="-17.3162384">
        <ele>658.00000</ele>
        <time>2009-09-23T16:31:47Z</time>
      </trkpt>
      <trkpt lat="28.09435460" lon="-17.3162288">
        <ele>658.00000</ele>
        <time>2009-09-23T16:31:50Z</time>
      </trkpt>
      <trkpt lat="28.09447280" lon="-17.3162517">
        <ele>658.00000</ele>
        <time>2009-09-23T16:31:55Z</time>
      </trkpt>
      <trkpt lat="28.09453010" lon="-17.3162727">
        <ele>658.00000</ele>
        <time>2009-09-23T16:31:57Z</time>
      </trkpt>
      <trkpt lat="28.09463500" lon="-17.3162803">
        <ele>658.00000</ele>
        <time>2009-09-23T16:32:01Z</time>
      </trkpt>
      <trkpt lat="28.09466360" lon="-17.3163013">
        <ele>658.00000</ele>
        <time>2009-09-23T16:32:03Z</time>
      </trkpt>
      <trkpt lat="28.09478560" lon="-17.3163528">
        <ele>658.00000</ele>
        <time>2009-09-23T16:32:08Z</time>
      </trkpt>
      <trkpt lat="28.09479520" lon="-17.3163585">
        <ele>658.00000</ele>
        <time>2009-09-23T16:32:08Z</time>
      </trkpt>
      <trkpt lat="28.09490580" lon="-17.3163967">
        <ele>658.00000</ele>
        <time>2009-09-23T16:32:13Z</time>
      </trkpt>
      <trkpt lat="28.09503550" lon="-17.3163013">
        <ele>662.00000</ele>
        <time>2009-09-23T16:32:19Z</time>
      </trkpt>
      <trkpt lat="28.09497640" lon="-17.3162918">
        <ele>663.00000</ele>
        <time>2009-09-23T16:32:21Z</time>
      </trkpt>
      <trkpt lat="28.09498970" lon="-17.3162212">
        <ele>665.00000</ele>
        <time>2009-09-23T16:32:24Z</time>
      </trkpt>
      <trkpt lat="28.09502790" lon="-17.3160762">
        <ele>671.00000</ele>
        <time>2009-09-23T16:32:29Z</time>
      </trkpt>
      <trkpt lat="28.09502980" lon="-17.3159580">
        <ele>675.00000</ele>
        <time>2009-09-23T16:32:34Z</time>
      </trkpt>
      <trkpt lat="28.09501450" lon="-17.3158626">
        <ele>678.00000</ele>
        <time>2009-09-23T16:32:37Z</time>
      </trkpt>
      <trkpt lat="28.09498400" lon="-17.3157386">
        <ele>682.00000</ele>
        <time>2009-09-23T16:32:41Z</time>
      </trkpt>
      <trkpt lat="28.09499740" lon="-17.3156890">
        <ele>683.00000</ele>
        <time>2009-09-23T16:32:43Z</time>
      </trkpt>
      <trkpt lat="28.09499350" lon="-17.3156452">
        <ele>684.00000</ele>
        <time>2009-09-23T16:32:45Z</time>
      </trkpt>
      <trkpt lat="28.09498020" lon="-17.3156166">
        <ele>684.00000</ele>
        <time>2009-09-23T16:32:46Z</time>
      </trkpt>
      <trkpt lat="28.09497450" lon="-17.3154335">
        <ele>686.00000</ele>
        <time>2009-09-23T16:32:52Z</time>
      </trkpt>
      <trkpt lat="28.09497640" lon="-17.3154048">
        <ele>686.00000</ele>
        <time>2009-09-23T16:32:54Z</time>
      </trkpt>
      <trkpt lat="28.09497450" lon="-17.3152904">
        <ele>687.00000</ele>
        <time>2009-09-23T16:32:58Z</time>
      </trkpt>
      <trkpt lat="28.09498210" lon="-17.3152713">
        <ele>687.00000</ele>
        <time>2009-09-23T16:32:58Z</time>
      </trkpt>
      <trkpt lat="28.09499930" lon="-17.3150959">
        <ele>688.00000</ele>
        <time>2009-09-23T16:33:05Z</time>
      </trkpt>
      <trkpt lat="28.09500310" lon="-17.3149986">
        <ele>689.00000</ele>
        <time>2009-09-23T16:33:08Z</time>
      </trkpt>
      <trkpt lat="28.09507170" lon="-17.3148727">
        <ele>689.00000</ele>
        <time>2009-09-23T16:33:13Z</time>
      </trkpt>
      <trkpt lat="28.09508890" lon="-17.3147544">
        <ele>689.00000</ele>
        <time>2009-09-23T16:33:17Z</time>
      </trkpt>
      <trkpt lat="28.09506790" lon="-17.3147258">
        <ele>689.00000</ele>
        <time>2009-09-23T16:33:19Z</time>
      </trkpt>
      <trkpt lat="28.09506790" lon="-17.3146057">
        <ele>689.00000</ele>
        <time>2009-09-23T16:33:23Z</time>
      </trkpt>
      <trkpt lat="28.09510420" lon="-17.3144092">
        <ele>689.00000</ele>
        <time>2009-09-23T16:33:30Z</time>
      </trkpt>
      <trkpt lat="28.09515570" lon="-17.3142547">
        <ele>689.00000</ele>
        <time>2009-09-23T16:33:36Z</time>
      </trkpt>
      <trkpt lat="28.09517860" lon="-17.3142013">
        <ele>690.00000</ele>
        <time>2009-09-23T16:33:38Z</time>
      </trkpt>
      <trkpt lat="28.09518050" lon="-17.3141727">
        <ele>690.00000</ele>
        <time>2009-09-23T16:33:39Z</time>
      </trkpt>
      <trkpt lat="28.09527960" lon="-17.3140659">
        <ele>690.00000</ele>
        <time>2009-09-23T16:33:44Z</time>
      </trkpt>
      <trkpt lat="28.09525480" lon="-17.3140201">
        <ele>691.00000</ele>
        <time>2009-09-23T16:33:46Z</time>
      </trkpt>
      <trkpt lat="28.09528160" lon="-17.3139915">
        <ele>691.00000</ele>
        <time>2009-09-23T16:33:48Z</time>
      </trkpt>
      <trkpt lat="28.09540360" lon="-17.3138446">
        <ele>693.00000</ele>
        <time>2009-09-23T16:33:55Z</time>
      </trkpt>
      <trkpt lat="28.09541510" lon="-17.3138408">
        <ele>694.00000</ele>
        <time>2009-09-23T16:33:55Z</time>
      </trkpt>
      <trkpt lat="28.09543800" lon="-17.3138389">
        <ele>694.00000</ele>
        <time>2009-09-23T16:33:56Z</time>
      </trkpt>
      <trkpt lat="28.09547230" lon="-17.3138828">
        <ele>694.00000</ele>
        <time>2009-09-23T16:33:58Z</time>
      </trkpt>
      <trkpt lat="28.09548950" lon="-17.3141059">
        <ele>696.00000</ele>
        <time>2009-09-23T16:34:06Z</time>
      </trkpt>
      <trkpt lat="28.09554670" lon="-17.3143463">
        <ele>698.00000</ele>
        <time>2009-09-23T16:34:15Z</time>
      </trkpt>
      <trkpt lat="28.09567640" lon="-17.3144207">
        <ele>699.00000</ele>
        <time>2009-09-23T16:34:21Z</time>
      </trkpt>
      <trkpt lat="28.09570310" lon="-17.3144226">
        <ele>699.00000</ele>
        <time>2009-09-23T16:34:22Z</time>
      </trkpt>
      <trkpt lat="28.09575460" lon="-17.3144187">
        <ele>699.00000</ele>
        <time>2009-09-23T16:34:24Z</time>
      </trkpt>
      <trkpt lat="28.09586330" lon="-17.3144493">
        <ele>699.00000</ele>
        <time>2009-09-23T16:34:29Z</time>
      </trkpt>
      <trkpt lat="28.09598920" lon="-17.3144264">
        <ele>698.00000</ele>
        <time>2009-09-23T16:34:34Z</time>
      </trkpt>
      <trkpt lat="28.09610550" lon="-17.3144016">
        <ele>699.00000</ele>
        <time>2009-09-23T16:34:38Z</time>
      </trkpt>
      <trkpt lat="28.09614180" lon="-17.3143882">
        <ele>700.00000</ele>
        <time>2009-09-23T16:34:40Z</time>
      </trkpt>
      <trkpt lat="28.09625620" lon="-17.3142795">
        <ele>703.00000</ele>
        <time>2009-09-23T16:34:46Z</time>
      </trkpt>
      <trkpt lat="28.09635730" lon="-17.3141536">
        <ele>706.00000</ele>
        <time>2009-09-23T16:34:52Z</time>
      </trkpt>
      <trkpt lat="28.09639930" lon="-17.3139953">
        <ele>709.00000</ele>
        <time>2009-09-23T16:34:58Z</time>
      </trkpt>
      <trkpt lat="28.09638400" lon="-17.3138313">
        <ele>712.00000</ele>
        <time>2009-09-23T16:35:04Z</time>
      </trkpt>
      <trkpt lat="28.09640880" lon="-17.3136043">
        <ele>715.00000</ele>
        <time>2009-09-23T16:35:12Z</time>
      </trkpt>
      <trkpt lat="28.09640310" lon="-17.3135395">
        <ele>716.00000</ele>
        <time>2009-09-23T16:35:14Z</time>
      </trkpt>
      <trkpt lat="28.09642600" lon="-17.3133735">
        <ele>719.00000</ele>
        <time>2009-09-23T16:35:20Z</time>
      </trkpt>
      <trkpt lat="28.09652130" lon="-17.3133258">
        <ele>720.00000</ele>
        <time>2009-09-23T16:35:24Z</time>
      </trkpt>
      <trkpt lat="28.09656140" lon="-17.3133678">
        <ele>720.00000</ele>
        <time>2009-09-23T16:35:26Z</time>
      </trkpt>
      <trkpt lat="28.09659950" lon="-17.3134403">
        <ele>721.00000</ele>
        <time>2009-09-23T16:35:29Z</time>
      </trkpt>
      <trkpt lat="28.09661860" lon="-17.3134918">
        <ele>721.00000</ele>
        <time>2009-09-23T16:35:31Z</time>
      </trkpt>
      <trkpt lat="28.09674070" lon="-17.3136501">
        <ele>720.00000</ele>
        <time>2009-09-23T16:35:39Z</time>
      </trkpt>
      <trkpt lat="28.09687610" lon="-17.3137416">
        <ele>719.00000</ele>
        <time>2009-09-23T16:35:45Z</time>
      </trkpt>
      <trkpt lat="28.09691230" lon="-17.3137512">
        <ele>719.00000</ele>
        <time>2009-09-23T16:35:46Z</time>
      </trkpt>
      <trkpt lat="28.09699440" lon="-17.3137550">
        <ele>720.00000</ele>
        <time>2009-09-23T16:35:50Z</time>
      </trkpt>
      <trkpt lat="28.09706490" lon="-17.3137130">
        <ele>721.00000</ele>
        <time>2009-09-23T16:35:53Z</time>
      </trkpt>
      <trkpt lat="28.09709160" lon="-17.3137035">
        <ele>721.00000</ele>
        <time>2009-09-23T16:35:54Z</time>
      </trkpt>
      <trkpt lat="28.09720990" lon="-17.3137531">
        <ele>720.00000</ele>
        <time>2009-09-23T16:35:59Z</time>
      </trkpt>
      <trkpt lat="28.09728240" lon="-17.3138256">
        <ele>720.00000</ele>
        <time>2009-09-23T16:36:03Z</time>
      </trkpt>
      <trkpt lat="28.09734150" lon="-17.3138256">
        <ele>720.00000</ele>
        <time>2009-09-23T16:36:05Z</time>
      </trkpt>
      <trkpt lat="28.09741210" lon="-17.3138523">
        <ele>720.00000</ele>
        <time>2009-09-23T16:36:08Z</time>
      </trkpt>
      <trkpt lat="28.09742920" lon="-17.3138427">
        <ele>720.00000</ele>
        <time>2009-09-23T16:36:09Z</time>
      </trkpt>
      <trkpt lat="28.09741590" lon="-17.3138504">
        <ele>720.00000</ele>
        <time>2009-09-23T16:36:10Z</time>
      </trkpt>
      <trkpt lat="28.09735100" lon="-17.3138408">
        <ele>720.00000</ele>
        <time>2009-09-23T16:36:12Z</time>
      </trkpt>
      <trkpt lat="28.09736060" lon="-17.3138408">
        <ele>720.00000</ele>
        <time>2009-09-23T16:36:13Z</time>
      </trkpt>
      <trkpt lat="28.09742730" lon="-17.3138332">
        <ele>721.00000</ele>
        <time>2009-09-23T16:36:15Z</time>
      </trkpt>
      <trkpt lat="28.09745400" lon="-17.3137969">
        <ele>721.00000</ele>
        <time>2009-09-23T16:36:17Z</time>
      </trkpt>
      <trkpt lat="28.09746930" lon="-17.3137779">
        <ele>722.00000</ele>
        <time>2009-09-23T16:36:18Z</time>
      </trkpt>
      <trkpt lat="28.09754370" lon="-17.3136825">
        <ele>724.00000</ele>
        <time>2009-09-23T16:36:22Z</time>
      </trkpt>
      <trkpt lat="28.09767150" lon="-17.3135204">
        <ele>726.00000</ele>
        <time>2009-09-23T16:36:30Z</time>
      </trkpt>
      <trkpt lat="28.09775160" lon="-17.3133640">
        <ele>728.00000</ele>
        <time>2009-09-23T16:36:36Z</time>
      </trkpt>
      <trkpt lat="28.09782400" lon="-17.3132114">
        <ele>729.00000</ele>
        <time>2009-09-23T16:36:43Z</time>
      </trkpt>
      <trkpt lat="28.09782980" lon="-17.3131923">
        <ele>729.00000</ele>
        <time>2009-09-23T16:36:43Z</time>
      </trkpt>
      <trkpt lat="28.09785840" lon="-17.3131217">
        <ele>730.00000</ele>
        <time>2009-09-23T16:36:46Z</time>
      </trkpt>
      <trkpt lat="28.09785840" lon="-17.3130397">
        <ele>731.00000</ele>
        <time>2009-09-23T16:36:49Z</time>
      </trkpt>
      <trkpt lat="28.09786790" lon="-17.3129272">
        <ele>733.00000</ele>
        <time>2009-09-23T16:36:53Z</time>
      </trkpt>
      <trkpt lat="28.09792510" lon="-17.3128013">
        <ele>735.00000</ele>
        <time>2009-09-23T16:36:58Z</time>
      </trkpt>
      <trkpt lat="28.09793280" lon="-17.3127079">
        <ele>737.00000</ele>
        <time>2009-09-23T16:37:01Z</time>
      </trkpt>
      <trkpt lat="28.09796140" lon="-17.3125686">
        <ele>739.00000</ele>
        <time>2009-09-23T16:37:06Z</time>
      </trkpt>
      <trkpt lat="28.09799760" lon="-17.3125095">
        <ele>740.00000</ele>
        <time>2009-09-23T16:37:09Z</time>
      </trkpt>
      <trkpt lat="28.09811590" lon="-17.3124027">
        <ele>743.00000</ele>
        <time>2009-09-23T16:37:15Z</time>
      </trkpt>
      <trkpt lat="28.09822650" lon="-17.3123073">
        <ele>745.00000</ele>
        <time>2009-09-23T16:37:20Z</time>
      </trkpt>
      <trkpt lat="28.09830850" lon="-17.3121910">
        <ele>747.00000</ele>
        <time>2009-09-23T16:37:26Z</time>
      </trkpt>
      <trkpt lat="28.09832190" lon="-17.3120746">
        <ele>749.00000</ele>
        <time>2009-09-23T16:37:30Z</time>
      </trkpt>
      <trkpt lat="28.09837530" lon="-17.3119945">
        <ele>750.00000</ele>
        <time>2009-09-23T16:37:33Z</time>
      </trkpt>
      <trkpt lat="28.09844200" lon="-17.3118953">
        <ele>751.00000</ele>
        <time>2009-09-23T16:37:38Z</time>
      </trkpt>
      <trkpt lat="28.09852980" lon="-17.3118095">
        <ele>752.00000</ele>
        <time>2009-09-23T16:37:42Z</time>
      </trkpt>
      <trkpt lat="28.09860420" lon="-17.3116912">
        <ele>754.00000</ele>
        <time>2009-09-23T16:37:48Z</time>
      </trkpt>
      <trkpt lat="28.09860610" lon="-17.3116683">
        <ele>754.00000</ele>
        <time>2009-09-23T16:37:48Z</time>
      </trkpt>
      <trkpt lat="28.09861940" lon="-17.3115615">
        <ele>755.00000</ele>
        <time>2009-09-23T16:37:52Z</time>
      </trkpt>
      <trkpt lat="28.09863090" lon="-17.3115291">
        <ele>755.00000</ele>
        <time>2009-09-23T16:37:53Z</time>
      </trkpt>
      <trkpt lat="28.09864420" lon="-17.3114376">
        <ele>755.00000</ele>
        <time>2009-09-23T16:37:57Z</time>
      </trkpt>
      <trkpt lat="28.09866140" lon="-17.3114128">
        <ele>756.00000</ele>
        <time>2009-09-23T16:37:58Z</time>
      </trkpt>
      <trkpt lat="28.09875100" lon="-17.3113059">
        <ele>756.00000</ele>
        <time>2009-09-23T16:38:03Z</time>
      </trkpt>
      <trkpt lat="28.09886360" lon="-17.3111801">
        <ele>757.00000</ele>
        <time>2009-09-23T16:38:09Z</time>
      </trkpt>
      <trkpt lat="28.09887690" lon="-17.3111343">
        <ele>758.00000</ele>
        <time>2009-09-23T16:38:11Z</time>
      </trkpt>
      <trkpt lat="28.09889980" lon="-17.3110027">
        <ele>760.00000</ele>
        <time>2009-09-23T16:38:16Z</time>
      </trkpt>
      <trkpt lat="28.09891310" lon="-17.3108806">
        <ele>761.00000</ele>
        <time>2009-09-23T16:38:20Z</time>
      </trkpt>
      <trkpt lat="28.09897230" lon="-17.3107967">
        <ele>763.00000</ele>
        <time>2009-09-23T16:38:24Z</time>
      </trkpt>
      <trkpt lat="28.09901040" lon="-17.3107185">
        <ele>764.00000</ele>
        <time>2009-09-23T16:38:27Z</time>
      </trkpt>
      <trkpt lat="28.09908860" lon="-17.3106632">
        <ele>765.00000</ele>
        <time>2009-09-23T16:38:31Z</time>
      </trkpt>
      <trkpt lat="28.09919350" lon="-17.3105754">
        <ele>766.00000</ele>
        <time>2009-09-23T16:38:36Z</time>
      </trkpt>
      <trkpt lat="28.09933280" lon="-17.3105068">
        <ele>766.00000</ele>
        <time>2009-09-23T16:38:42Z</time>
      </trkpt>
      <trkpt lat="28.09955210" lon="-17.3104553">
        <ele>766.00000</ele>
        <time>2009-09-23T16:38:51Z</time>
      </trkpt>
      <trkpt lat="28.09959220" lon="-17.3104362">
        <ele>766.00000</ele>
        <time>2009-09-23T16:38:53Z</time>
      </trkpt>
      <trkpt lat="28.09964750" lon="-17.3104114">
        <ele>766.00000</ele>
        <time>2009-09-23T16:38:55Z</time>
      </trkpt>
      <trkpt lat="28.09985730" lon="-17.3103485">
        <ele>765.00000</ele>
        <time>2009-09-23T16:39:04Z</time>
      </trkpt>
      <trkpt lat="28.09996030" lon="-17.3103389">
        <ele>765.00000</ele>
        <time>2009-09-23T16:39:08Z</time>
      </trkpt>
      <trkpt lat="28.10010910" lon="-17.3103351">
        <ele>763.00000</ele>
        <time>2009-09-23T16:39:14Z</time>
      </trkpt>
      <trkpt lat="28.10030740" lon="-17.3103084">
        <ele>761.00000</ele>
        <time>2009-09-23T16:39:22Z</time>
      </trkpt>
      <trkpt lat="28.10043140" lon="-17.3103141">
        <ele>760.00000</ele>
        <time>2009-09-23T16:39:27Z</time>
      </trkpt>
      <trkpt lat="28.10048480" lon="-17.3102912">
        <ele>761.00000</ele>
        <time>2009-09-23T16:39:29Z</time>
      </trkpt>
      <trkpt lat="28.10043900" lon="-17.3102874">
        <ele>761.00000</ele>
        <time>2009-09-23T16:39:31Z</time>
      </trkpt>
      <trkpt lat="28.10047720" lon="-17.3102359">
        <ele>762.00000</ele>
        <time>2009-09-23T16:39:33Z</time>
      </trkpt>
      <trkpt lat="28.10058400" lon="-17.3101711">
        <ele>763.00000</ele>
        <time>2009-09-23T16:39:38Z</time>
      </trkpt>
      <trkpt lat="28.10061640" lon="-17.3101501">
        <ele>764.00000</ele>
        <time>2009-09-23T16:39:40Z</time>
      </trkpt>
      <trkpt lat="28.10064880" lon="-17.3101253">
        <ele>764.00000</ele>
        <time>2009-09-23T16:39:41Z</time>
      </trkpt>
      <trkpt lat="28.10089870" lon="-17.3100795">
        <ele>763.00000</ele>
        <time>2009-09-23T16:39:51Z</time>
      </trkpt>
      <trkpt lat="28.10092920" lon="-17.3100738">
        <ele>763.00000</ele>
        <time>2009-09-23T16:39:53Z</time>
      </trkpt>
      <trkpt lat="28.10108180" lon="-17.3100910">
        <ele>760.00000</ele>
        <time>2009-09-23T16:39:59Z</time>
      </trkpt>
      <trkpt lat="28.10110090" lon="-17.3101081">
        <ele>759.00000</ele>
        <time>2009-09-23T16:40:00Z</time>
      </trkpt>
      <trkpt lat="28.10127440" lon="-17.3101272">
        <ele>754.00000</ele>
        <time>2009-09-23T16:40:07Z</time>
      </trkpt>
      <trkpt lat="28.10136980" lon="-17.3102188">
        <ele>749.00000</ele>
        <time>2009-09-23T16:40:12Z</time>
      </trkpt>
      <trkpt lat="28.10143080" lon="-17.3102569">
        <ele>745.00000</ele>
        <time>2009-09-23T16:40:15Z</time>
      </trkpt>
      <trkpt lat="28.10144420" lon="-17.3103981">
        <ele>739.00000</ele>
        <time>2009-09-23T16:40:20Z</time>
      </trkpt>
      <trkpt lat="28.10147660" lon="-17.3104553">
        <ele>735.00000</ele>
        <time>2009-09-23T16:40:22Z</time>
      </trkpt>
      <trkpt lat="28.10151100" lon="-17.3105754">
        <ele>729.00000</ele>
        <time>2009-09-23T16:40:26Z</time>
      </trkpt>
      <trkpt lat="28.10151290" lon="-17.3105754">
        <ele>729.00000</ele>
        <time>2009-09-23T16:40:27Z</time>
      </trkpt>
      <trkpt lat="28.10153570" lon="-17.3105888">
        <ele>728.00000</ele>
        <time>2009-09-23T16:40:28Z</time>
      </trkpt>
      <trkpt lat="28.10151290" lon="-17.3105030">
        <ele>727.00000</ele>
        <time>2009-09-23T16:40:31Z</time>
      </trkpt>
      <trkpt lat="28.10153380" lon="-17.3105850">
        <ele>727.00000</ele>
        <time>2009-09-23T16:40:34Z</time>
      </trkpt>
      <trkpt lat="28.10153960" lon="-17.3105964">
        <ele>727.00000</ele>
        <time>2009-09-23T16:40:34Z</time>
      </trkpt>
      <trkpt lat="28.10153000" lon="-17.3105678">
        <ele>729.00000</ele>
        <time>2009-09-23T16:40:35Z</time>
      </trkpt>
      <trkpt lat="28.10153190" lon="-17.3105049">
        <ele>732.00000</ele>
        <time>2009-09-23T16:40:38Z</time>
      </trkpt>
      <trkpt lat="28.10149570" lon="-17.3104591">
        <ele>734.00000</ele>
        <time>2009-09-23T16:40:40Z</time>
      </trkpt>
      <trkpt lat="28.10141560" lon="-17.3104763">
        <ele>737.00000</ele>
        <time>2009-09-23T16:40:43Z</time>
      </trkpt>
      <trkpt lat="28.10142130" lon="-17.3104057">
        <ele>740.00000</ele>
        <time>2009-09-23T16:40:45Z</time>
      </trkpt>
      <trkpt lat="28.10142130" lon="-17.3103389">
        <ele>742.00000</ele>
        <time>2009-09-23T16:40:48Z</time>
      </trkpt>
      <trkpt lat="28.10143660" lon="-17.3102092">
        <ele>747.00000</ele>
        <time>2009-09-23T16:40:52Z</time>
      </trkpt>
      <trkpt lat="28.10148810" lon="-17.3101558">
        <ele>750.00000</ele>
        <time>2009-09-23T16:40:55Z</time>
      </trkpt>
      <trkpt lat="28.10154910" lon="-17.3101310">
        <ele>752.00000</ele>
        <time>2009-09-23T16:40:58Z</time>
      </trkpt>
      <trkpt lat="28.10166160" lon="-17.3100090">
        <ele>755.00000</ele>
        <time>2009-09-23T16:41:04Z</time>
      </trkpt>
      <trkpt lat="28.10172460" lon="-17.3098926">
        <ele>758.00000</ele>
        <time>2009-09-23T16:41:09Z</time>
      </trkpt>
      <trkpt lat="28.10178750" lon="-17.3098182">
        <ele>759.00000</ele>
        <time>2009-09-23T16:41:13Z</time>
      </trkpt>
      <trkpt lat="28.10186950" lon="-17.3097400">
        <ele>760.00000</ele>
        <time>2009-09-23T16:41:17Z</time>
      </trkpt>
      <trkpt lat="28.10187530" lon="-17.3097286">
        <ele>760.00000</ele>
        <time>2009-09-23T16:41:17Z</time>
      </trkpt>
      <trkpt lat="28.10193820" lon="-17.3096084">
        <ele>761.00000</ele>
        <time>2009-09-23T16:41:22Z</time>
      </trkpt>
      <trkpt lat="28.10194390" lon="-17.3095893">
        <ele>762.00000</ele>
        <time>2009-09-23T16:41:23Z</time>
      </trkpt>
      <trkpt lat="28.10200500" lon="-17.3094978">
        <ele>763.00000</ele>
        <time>2009-09-23T16:41:27Z</time>
      </trkpt>
      <trkpt lat="28.10202780" lon="-17.3094787">
        <ele>762.00000</ele>
        <time>2009-09-23T16:41:28Z</time>
      </trkpt>
      <trkpt lat="28.10218620" lon="-17.3095035">
        <ele>753.00000</ele>
        <time>2009-09-23T16:41:35Z</time>
      </trkpt>
      <trkpt lat="28.10226050" lon="-17.3095569">
        <ele>748.00000</ele>
        <time>2009-09-23T16:41:38Z</time>
      </trkpt>
      <trkpt lat="28.10235970" lon="-17.3095684">
        <ele>744.00000</ele>
        <time>2009-09-23T16:41:42Z</time>
      </trkpt>
      <trkpt lat="28.10249510" lon="-17.3094711">
        <ele>743.00000</ele>
        <time>2009-09-23T16:41:48Z</time>
      </trkpt>
      <trkpt lat="28.10254280" lon="-17.3093814">
        <ele>742.00000</ele>
        <time>2009-09-23T16:41:52Z</time>
      </trkpt>
      <trkpt lat="28.10261910" lon="-17.3092441">
        <ele>742.00000</ele>
        <time>2009-09-23T16:41:58Z</time>
      </trkpt>
      <trkpt lat="28.10265920" lon="-17.3092384">
        <ele>743.00000</ele>
        <time>2009-09-23T16:41:59Z</time>
      </trkpt>
      <trkpt lat="28.10266300" lon="-17.3091468">
        <ele>744.00000</ele>
        <time>2009-09-23T16:42:03Z</time>
      </trkpt>
      <trkpt lat="28.10267630" lon="-17.3090839">
        <ele>745.00000</ele>
        <time>2009-09-23T16:42:05Z</time>
      </trkpt>
      <trkpt lat="28.10273360" lon="-17.3090057">
        <ele>747.00000</ele>
        <time>2009-09-23T16:42:09Z</time>
      </trkpt>
      <trkpt lat="28.10275650" lon="-17.3089370">
        <ele>747.00000</ele>
        <time>2009-09-23T16:42:11Z</time>
      </trkpt>
      <trkpt lat="28.10276790" lon="-17.3089179">
        <ele>747.00000</ele>
        <time>2009-09-23T16:42:12Z</time>
      </trkpt>
      <trkpt lat="28.10284990" lon="-17.3088436">
        <ele>746.00000</ele>
        <time>2009-09-23T16:42:16Z</time>
      </trkpt>
      <trkpt lat="28.10290520" lon="-17.3087902">
        <ele>745.00000</ele>
        <time>2009-09-23T16:42:19Z</time>
      </trkpt>
      <trkpt lat="28.10297200" lon="-17.3087120">
        <ele>745.00000</ele>
        <time>2009-09-23T16:42:23Z</time>
      </trkpt>
      <trkpt lat="28.10297770" lon="-17.3087062">
        <ele>745.00000</ele>
        <time>2009-09-23T16:42:23Z</time>
      </trkpt>
      <trkpt lat="28.10299300" lon="-17.3086833">
        <ele>745.00000</ele>
        <time>2009-09-23T16:42:24Z</time>
      </trkpt>
      <trkpt lat="28.10301200" lon="-17.3086242">
        <ele>746.00000</ele>
        <time>2009-09-23T16:42:27Z</time>
      </trkpt>
      <trkpt lat="28.10306160" lon="-17.3085594">
        <ele>747.00000</ele>
        <time>2009-09-23T16:42:30Z</time>
      </trkpt>
      <trkpt lat="28.10313980" lon="-17.3084259">
        <ele>748.00000</ele>
        <time>2009-09-23T16:42:35Z</time>
      </trkpt>
      <trkpt lat="28.10314750" lon="-17.3084182">
        <ele>748.00000</ele>
        <time>2009-09-23T16:42:36Z</time>
      </trkpt>
      <trkpt lat="28.10317610" lon="-17.3083953">
        <ele>748.00000</ele>
        <time>2009-09-23T16:42:37Z</time>
      </trkpt>
      <trkpt lat="28.10326380" lon="-17.3083057">
        <ele>747.00000</ele>
        <time>2009-09-23T16:42:42Z</time>
      </trkpt>
      <trkpt lat="28.10327520" lon="-17.3082981">
        <ele>747.00000</ele>
        <time>2009-09-23T16:42:42Z</time>
      </trkpt>
      <trkpt lat="28.10339730" lon="-17.3082561">
        <ele>747.00000</ele>
        <time>2009-09-23T16:42:47Z</time>
      </trkpt>
      <trkpt lat="28.10346220" lon="-17.3080959">
        <ele>748.00000</ele>
        <time>2009-09-23T16:42:54Z</time>
      </trkpt>
      <trkpt lat="28.10350990" lon="-17.3079891">
        <ele>749.00000</ele>
        <time>2009-09-23T16:42:58Z</time>
      </trkpt>
      <trkpt lat="28.10348890" lon="-17.3079891">
        <ele>749.00000</ele>
        <time>2009-09-23T16:42:59Z</time>
      </trkpt>
      <trkpt lat="28.10347550" lon="-17.3079929">
        <ele>749.00000</ele>
        <time>2009-09-23T16:42:59Z</time>
      </trkpt>
      <trkpt lat="28.10350030" lon="-17.3079910">
        <ele>749.00000</ele>
        <time>2009-09-23T16:43:00Z</time>
      </trkpt>
      <trkpt lat="28.10359760" lon="-17.3079223">
        <ele>746.00000</ele>
        <time>2009-09-23T16:43:05Z</time>
      </trkpt>
      <trkpt lat="28.10364720" lon="-17.3079185">
        <ele>744.00000</ele>
        <time>2009-09-23T16:43:07Z</time>
      </trkpt>
      <trkpt lat="28.10370250" lon="-17.3078670">
        <ele>743.00000</ele>
        <time>2009-09-23T16:43:10Z</time>
      </trkpt>
      <trkpt lat="28.10375590" lon="-17.3078098">
        <ele>742.00000</ele>
        <time>2009-09-23T16:43:13Z</time>
      </trkpt>
      <trkpt lat="28.10383600" lon="-17.3077297">
        <ele>741.00000</ele>
        <time>2009-09-23T16:43:17Z</time>
      </trkpt>
      <trkpt lat="28.10391800" lon="-17.3076648">
        <ele>739.00000</ele>
        <time>2009-09-23T16:43:21Z</time>
      </trkpt>
      <trkpt lat="28.10401910" lon="-17.3076038">
        <ele>736.00000</ele>
        <time>2009-09-23T16:43:25Z</time>
      </trkpt>
      <trkpt lat="28.10411260" lon="-17.3075656">
        <ele>733.00000</ele>
        <time>2009-09-23T16:43:29Z</time>
      </trkpt>
      <trkpt lat="28.10420600" lon="-17.3075103">
        <ele>730.00000</ele>
        <time>2009-09-23T16:43:34Z</time>
      </trkpt>
      <trkpt lat="28.10422510" lon="-17.3075160">
        <ele>730.00000</ele>
        <time>2009-09-23T16:43:34Z</time>
      </trkpt>
      <trkpt lat="28.10429380" lon="-17.3075027">
        <ele>727.00000</ele>
        <time>2009-09-23T16:43:37Z</time>
      </trkpt>
      <trkpt lat="28.10439680" lon="-17.3074951">
        <ele>723.00000</ele>
        <time>2009-09-23T16:43:41Z</time>
      </trkpt>
      <trkpt lat="28.10453410" lon="-17.3075160">
        <ele>717.00000</ele>
        <time>2009-09-23T16:43:47Z</time>
      </trkpt>
      <trkpt lat="28.10458750" lon="-17.3074989">
        <ele>715.00000</ele>
        <time>2009-09-23T16:43:49Z</time>
      </trkpt>
      <trkpt lat="28.10460850" lon="-17.3074970">
        <ele>714.00000</ele>
        <time>2009-09-23T16:43:50Z</time>
      </trkpt>
      <trkpt lat="28.10470190" lon="-17.3074741">
        <ele>711.00000</ele>
        <time>2009-09-23T16:43:54Z</time>
      </trkpt>
      <trkpt lat="28.10480110" lon="-17.3074760">
        <ele>707.00000</ele>
        <time>2009-09-23T16:43:58Z</time>
      </trkpt>
      <trkpt lat="28.10485070" lon="-17.3074569">
        <ele>706.00000</ele>
        <time>2009-09-23T16:44:00Z</time>
      </trkpt>
      <trkpt lat="28.10486600" lon="-17.3074340">
        <ele>705.00000</ele>
        <time>2009-09-23T16:44:01Z</time>
      </trkpt>
      <trkpt lat="28.10492700" lon="-17.3073959">
        <ele>704.00000</ele>
        <time>2009-09-23T16:44:04Z</time>
      </trkpt>
      <trkpt lat="28.10499190" lon="-17.3073806">
        <ele>702.00000</ele>
        <time>2009-09-23T16:44:06Z</time>
      </trkpt>
      <trkpt lat="28.10500710" lon="-17.3074607">
        <ele>699.00000</ele>
        <time>2009-09-23T16:44:09Z</time>
      </trkpt>
      <trkpt lat="28.10501090" lon="-17.3075428">
        <ele>696.00000</ele>
        <time>2009-09-23T16:44:12Z</time>
      </trkpt>
      <trkpt lat="28.10499950" lon="-17.3076477">
        <ele>692.00000</ele>
        <time>2009-09-23T16:44:16Z</time>
      </trkpt>
      <trkpt lat="28.10502810" lon="-17.3076686">
        <ele>691.00000</ele>
        <time>2009-09-23T16:44:17Z</time>
      </trkpt>
      <trkpt lat="28.10501280" lon="-17.3077507">
        <ele>688.00000</ele>
        <time>2009-09-23T16:44:20Z</time>
      </trkpt>
      <trkpt lat="28.10498230" lon="-17.3078784">
        <ele>684.00000</ele>
        <time>2009-09-23T16:44:25Z</time>
      </trkpt>
      <trkpt lat="28.10502620" lon="-17.3079109">
        <ele>682.00000</ele>
        <time>2009-09-23T16:44:27Z</time>
      </trkpt>
      <trkpt lat="28.10507200" lon="-17.3079757">
        <ele>680.00000</ele>
        <time>2009-09-23T16:44:30Z</time>
      </trkpt>
      <trkpt lat="28.10507010" lon="-17.3081150">
        <ele>676.00000</ele>
        <time>2009-09-23T16:44:35Z</time>
      </trkpt>
      <trkpt lat="28.10504910" lon="-17.3081970">
        <ele>675.00000</ele>
        <time>2009-09-23T16:44:38Z</time>
      </trkpt>
      <trkpt lat="28.10510820" lon="-17.3082618">
        <ele>673.00000</ele>
        <time>2009-09-23T16:44:41Z</time>
      </trkpt>
      <trkpt lat="28.10514640" lon="-17.3082656">
        <ele>672.00000</ele>
        <time>2009-09-23T16:44:43Z</time>
      </trkpt>
      <trkpt lat="28.10514250" lon="-17.3082561">
        <ele>672.00000</ele>
        <time>2009-09-23T16:44:43Z</time>
      </trkpt>
      <trkpt lat="28.10519400" lon="-17.3083286">
        <ele>672.00000</ele>
        <time>2009-09-23T16:44:46Z</time>
      </trkpt>
      <trkpt lat="28.10519400" lon="-17.3083305">
        <ele>672.00000</ele>
        <time>2009-09-23T16:44:46Z</time>
      </trkpt>
      <trkpt lat="28.10519590" lon="-17.3083629">
        <ele>672.00000</ele>
        <time>2009-09-23T16:44:48Z</time>
      </trkpt>
      <trkpt lat="28.10522460" lon="-17.3084316">
        <ele>674.00000</ele>
        <time>2009-09-23T16:44:50Z</time>
      </trkpt>
      <trkpt lat="28.10526460" lon="-17.3084716">
        <ele>675.00000</ele>
        <time>2009-09-23T16:44:52Z</time>
      </trkpt>
      <trkpt lat="28.10535240" lon="-17.3084602">
        <ele>677.00000</ele>
        <time>2009-09-23T16:44:56Z</time>
      </trkpt>
      <trkpt lat="28.10546300" lon="-17.3084125">
        <ele>680.00000</ele>
        <time>2009-09-23T16:45:01Z</time>
      </trkpt>
      <trkpt lat="28.10551070" lon="-17.3083610">
        <ele>682.00000</ele>
        <time>2009-09-23T16:45:03Z</time>
      </trkpt>
      <trkpt lat="28.10565750" lon="-17.3084297">
        <ele>687.00000</ele>
        <time>2009-09-23T16:45:10Z</time>
      </trkpt>
      <trkpt lat="28.10567280" lon="-17.3085098">
        <ele>689.00000</ele>
        <time>2009-09-23T16:45:12Z</time>
      </trkpt>
      <trkpt lat="28.10562700" lon="-17.3086738">
        <ele>692.00000</ele>
        <time>2009-09-23T16:45:19Z</time>
      </trkpt>
      <trkpt lat="28.10561180" lon="-17.3087692">
        <ele>692.00000</ele>
        <time>2009-09-23T16:45:22Z</time>
      </trkpt>
      <trkpt lat="28.10551830" lon="-17.3087902">
        <ele>691.00000</ele>
        <time>2009-09-23T16:45:26Z</time>
      </trkpt>
      <trkpt lat="28.10536570" lon="-17.3088684">
        <ele>686.00000</ele>
        <time>2009-09-23T16:45:33Z</time>
      </trkpt>
      <trkpt lat="28.10516730" lon="-17.3089675">
        <ele>678.00000</ele>
        <time>2009-09-23T16:45:41Z</time>
      </trkpt>
      <trkpt lat="28.10500520" lon="-17.3090839">
        <ele>670.00000</ele>
        <time>2009-09-23T16:45:49Z</time>
      </trkpt>
      <trkpt lat="28.10493080" lon="-17.3091564">
        <ele>667.00000</ele>
        <time>2009-09-23T16:45:53Z</time>
      </trkpt>
      <trkpt lat="28.10479920" lon="-17.3092880">
        <ele>666.00000</ele>
        <time>2009-09-23T16:46:00Z</time>
      </trkpt>
      <trkpt lat="28.10478780" lon="-17.3092918">
        <ele>665.00000</ele>
        <time>2009-09-23T16:46:00Z</time>
      </trkpt>
      <trkpt lat="28.10478400" lon="-17.3093147">
        <ele>665.00000</ele>
        <time>2009-09-23T16:46:01Z</time>
      </trkpt>
      <trkpt lat="28.10469050" lon="-17.3094081">
        <ele>664.00000</ele>
        <time>2009-09-23T16:46:06Z</time>
      </trkpt>
      <trkpt lat="28.10464280" lon="-17.3094673">
        <ele>663.00000</ele>
        <time>2009-09-23T16:46:09Z</time>
      </trkpt>
      <trkpt lat="28.10456460" lon="-17.3095302">
        <ele>662.00000</ele>
        <time>2009-09-23T16:46:13Z</time>
      </trkpt>
      <trkpt lat="28.10451310" lon="-17.3096427">
        <ele>662.00000</ele>
        <time>2009-09-23T16:46:17Z</time>
      </trkpt>
      <trkpt lat="28.10453220" lon="-17.3097133">
        <ele>662.00000</ele>
        <time>2009-09-23T16:46:20Z</time>
      </trkpt>
      <trkpt lat="28.10454750" lon="-17.3097457">
        <ele>662.00000</ele>
        <time>2009-09-23T16:46:21Z</time>
      </trkpt>
      <trkpt lat="28.10455320" lon="-17.3097763">
        <ele>662.00000</ele>
        <time>2009-09-23T16:46:22Z</time>
      </trkpt>
      <trkpt lat="28.10454360" lon="-17.3099651">
        <ele>663.00000</ele>
        <time>2009-09-23T16:46:29Z</time>
      </trkpt>
      <trkpt lat="28.10453030" lon="-17.3101387">
        <ele>662.00000</ele>
        <time>2009-09-23T16:46:35Z</time>
      </trkpt>
      <trkpt lat="28.10449400" lon="-17.3102779">
        <ele>660.00000</ele>
        <time>2009-09-23T16:46:40Z</time>
      </trkpt>
      <trkpt lat="28.10450360" lon="-17.3103065">
        <ele>660.00000</ele>
        <time>2009-09-23T16:46:41Z</time>
      </trkpt>
      <trkpt lat="28.10451310" lon="-17.3103275">
        <ele>660.00000</ele>
        <time>2009-09-23T16:46:42Z</time>
      </trkpt>
      <trkpt lat="28.10456460" lon="-17.3106250">
        <ele>662.00000</ele>
        <time>2009-09-23T16:46:53Z</time>
      </trkpt>
      <trkpt lat="28.10459320" lon="-17.3106803">
        <ele>662.00000</ele>
        <time>2009-09-23T16:46:55Z</time>
      </trkpt>
      <trkpt lat="28.10465040" lon="-17.3108997">
        <ele>663.00000</ele>
        <time>2009-09-23T16:47:03Z</time>
      </trkpt>
      <trkpt lat="28.10465620" lon="-17.3109397">
        <ele>664.00000</ele>
        <time>2009-09-23T16:47:05Z</time>
      </trkpt>
      <trkpt lat="28.10462950" lon="-17.3111190">
        <ele>665.00000</ele>
        <time>2009-09-23T16:47:11Z</time>
      </trkpt>
      <trkpt lat="28.10463330" lon="-17.3111324">
        <ele>665.00000</ele>
        <time>2009-09-23T16:47:12Z</time>
      </trkpt>
      <trkpt lat="28.10464660" lon="-17.3112277">
        <ele>665.00000</ele>
        <time>2009-09-23T16:47:15Z</time>
      </trkpt>
      <trkpt lat="28.10463710" lon="-17.3112773">
        <ele>666.00000</ele>
        <time>2009-09-23T16:47:17Z</time>
      </trkpt>
      <trkpt lat="28.10460660" lon="-17.3113975">
        <ele>665.00000</ele>
        <time>2009-09-23T16:47:21Z</time>
      </trkpt>
      <trkpt lat="28.10455130" lon="-17.3114871">
        <ele>664.00000</ele>
        <time>2009-09-23T16:47:25Z</time>
      </trkpt>
      <trkpt lat="28.10445400" lon="-17.3116188">
        <ele>662.00000</ele>
        <time>2009-09-23T16:47:31Z</time>
      </trkpt>
      <trkpt lat="28.10445020" lon="-17.3116321">
        <ele>661.00000</ele>
        <time>2009-09-23T16:47:32Z</time>
      </trkpt>
      <trkpt lat="28.10443110" lon="-17.3117275">
        <ele>661.00000</ele>
        <time>2009-09-23T16:47:35Z</time>
      </trkpt>
      <trkpt lat="28.10434340" lon="-17.3118591">
        <ele>661.00000</ele>
        <time>2009-09-23T16:47:41Z</time>
      </trkpt>
      <trkpt lat="28.10427850" lon="-17.3120117">
        <ele>660.00000</ele>
        <time>2009-09-23T16:47:47Z</time>
      </trkpt>
      <trkpt lat="28.10420600" lon="-17.3121299">
        <ele>660.00000</ele>
        <time>2009-09-23T16:47:52Z</time>
      </trkpt>
      <trkpt lat="28.10410490" lon="-17.3122482">
        <ele>659.00000</ele>
        <time>2009-09-23T16:47:58Z</time>
      </trkpt>
      <trkpt lat="28.10403250" lon="-17.3123893">
        <ele>659.00000</ele>
        <time>2009-09-23T16:48:03Z</time>
      </trkpt>
      <trkpt lat="28.10400580" lon="-17.3124389">
        <ele>659.00000</ele>
        <time>2009-09-23T16:48:06Z</time>
      </trkpt>
      <trkpt lat="28.10401530" lon="-17.3125991">
        <ele>660.00000</ele>
        <time>2009-09-23T16:48:11Z</time>
      </trkpt>
      <trkpt lat="28.10401910" lon="-17.3126449">
        <ele>660.00000</ele>
        <time>2009-09-23T16:48:13Z</time>
      </trkpt>
      <trkpt lat="28.10401910" lon="-17.3128261">
        <ele>659.00000</ele>
        <time>2009-09-23T16:48:19Z</time>
      </trkpt>
      <trkpt lat="28.10398290" lon="-17.3129692">
        <ele>659.00000</ele>
        <time>2009-09-23T16:48:24Z</time>
      </trkpt>
      <trkpt lat="28.10387420" lon="-17.3131332">
        <ele>656.00000</ele>
        <time>2009-09-23T16:48:32Z</time>
      </trkpt>
      <trkpt lat="28.10376930" lon="-17.3132495">
        <ele>654.00000</ele>
        <time>2009-09-23T16:48:38Z</time>
      </trkpt>
      <trkpt lat="28.10375210" lon="-17.3132858">
        <ele>653.00000</ele>
        <time>2009-09-23T16:48:39Z</time>
      </trkpt>
      <trkpt lat="28.10372160" lon="-17.3133907">
        <ele>651.00000</ele>
        <time>2009-09-23T16:48:43Z</time>
      </trkpt>
      <trkpt lat="28.10370250" lon="-17.3134098">
        <ele>651.00000</ele>
        <time>2009-09-23T16:48:44Z</time>
      </trkpt>
      <trkpt lat="28.10365670" lon="-17.3135452">
        <ele>648.00000</ele>
        <time>2009-09-23T16:48:49Z</time>
      </trkpt>
      <trkpt lat="28.10362050" lon="-17.3136463">
        <ele>647.00000</ele>
        <time>2009-09-23T16:48:53Z</time>
      </trkpt>
      <trkpt lat="28.10365670" lon="-17.3136844">
        <ele>646.00000</ele>
        <time>2009-09-23T16:48:55Z</time>
      </trkpt>
      <trkpt lat="28.10368910" lon="-17.3137245">
        <ele>646.00000</ele>
        <time>2009-09-23T16:48:57Z</time>
      </trkpt>
      <trkpt lat="28.10370060" lon="-17.3137378">
        <ele>646.00000</ele>
        <time>2009-09-23T16:48:58Z</time>
      </trkpt>
      <trkpt lat="28.10373490" lon="-17.3137416">
        <ele>647.00000</ele>
        <time>2009-09-23T16:48:59Z</time>
      </trkpt>
      <trkpt lat="28.10385320" lon="-17.3137187">
        <ele>649.00000</ele>
        <time>2009-09-23T16:49:04Z</time>
      </trkpt>
      <trkpt lat="28.10388180" lon="-17.3137264">
        <ele>649.00000</ele>
        <time>2009-09-23T16:49:05Z</time>
      </trkpt>
      <trkpt lat="28.10394280" lon="-17.3137187">
        <ele>650.00000</ele>
        <time>2009-09-23T16:49:07Z</time>
      </trkpt>
      <trkpt lat="28.10403820" lon="-17.3137416">
        <ele>651.00000</ele>
        <time>2009-09-23T16:49:11Z</time>
      </trkpt>
      <trkpt lat="28.10402670" lon="-17.3137454">
        <ele>652.00000</ele>
        <time>2009-09-23T16:49:12Z</time>
      </trkpt>
      <trkpt lat="28.10405340" lon="-17.3137378">
        <ele>652.00000</ele>
        <time>2009-09-23T16:49:13Z</time>
      </trkpt>
      <trkpt lat="28.10409920" lon="-17.3137416">
        <ele>652.00000</ele>
        <time>2009-09-23T16:49:15Z</time>
      </trkpt>
      <trkpt lat="28.10413160" lon="-17.3137664">
        <ele>652.00000</ele>
        <time>2009-09-23T16:49:16Z</time>
      </trkpt>
      <trkpt lat="28.10417930" lon="-17.3137855">
        <ele>651.00000</ele>
        <time>2009-09-23T16:49:18Z</time>
      </trkpt>
      <trkpt lat="28.10431090" lon="-17.3138580">
        <ele>647.00000</ele>
        <time>2009-09-23T16:49:24Z</time>
      </trkpt>
      <trkpt lat="28.10440630" lon="-17.3139095">
        <ele>645.00000</ele>
        <time>2009-09-23T16:49:28Z</time>
      </trkpt>
      <trkpt lat="28.10450930" lon="-17.3139419">
        <ele>642.00000</ele>
        <time>2009-09-23T16:49:33Z</time>
      </trkpt>
      <trkpt lat="28.10460090" lon="-17.3139743">
        <ele>639.00000</ele>
        <time>2009-09-23T16:49:36Z</time>
      </trkpt>
      <trkpt lat="28.10464090" lon="-17.3140182">
        <ele>637.00000</ele>
        <time>2009-09-23T16:49:39Z</time>
      </trkpt>
      <trkpt lat="28.10469050" lon="-17.3141059">
        <ele>634.00000</ele>
        <time>2009-09-23T16:49:42Z</time>
      </trkpt>
      <trkpt lat="28.10473820" lon="-17.3141326">
        <ele>632.00000</ele>
        <time>2009-09-23T16:49:44Z</time>
      </trkpt>
      <trkpt lat="28.10470770" lon="-17.3142070">
        <ele>630.00000</ele>
        <time>2009-09-23T16:49:47Z</time>
      </trkpt>
      <trkpt lat="28.10472100" lon="-17.3142280">
        <ele>629.00000</ele>
        <time>2009-09-23T16:49:48Z</time>
      </trkpt>
      <trkpt lat="28.10481070" lon="-17.3142108">
        <ele>627.00000</ele>
        <time>2009-09-23T16:49:52Z</time>
      </trkpt>
      <trkpt lat="28.10481640" lon="-17.3141956">
        <ele>627.00000</ele>
        <time>2009-09-23T16:49:53Z</time>
      </trkpt>
      <trkpt lat="28.10495940" lon="-17.3140811">
        <ele>623.00000</ele>
        <time>2009-09-23T16:50:00Z</time>
      </trkpt>
      <trkpt lat="28.10505670" lon="-17.3140792">
        <ele>621.00000</ele>
        <time>2009-09-23T16:50:03Z</time>
      </trkpt>
      <trkpt lat="28.10516350" lon="-17.3141670">
        <ele>615.00000</ele>
        <time>2009-09-23T16:50:09Z</time>
      </trkpt>
      <trkpt lat="28.10517310" lon="-17.3141746">
        <ele>614.00000</ele>
        <time>2009-09-23T16:50:09Z</time>
      </trkpt>
      <trkpt lat="28.10521120" lon="-17.3142185">
        <ele>610.00000</ele>
        <time>2009-09-23T16:50:11Z</time>
      </trkpt>
      <trkpt lat="28.10526840" lon="-17.3142795">
        <ele>604.00000</ele>
        <time>2009-09-23T16:50:14Z</time>
      </trkpt>
      <trkpt lat="28.10526270" lon="-17.3143177">
        <ele>602.00000</ele>
        <time>2009-09-23T16:50:16Z</time>
      </trkpt>
      <trkpt lat="28.10536570" lon="-17.3144302">
        <ele>592.00000</ele>
        <time>2009-09-23T16:50:22Z</time>
      </trkpt>
      <trkpt lat="28.10542290" lon="-17.3144588">
        <ele>588.00000</ele>
        <time>2009-09-23T16:50:24Z</time>
      </trkpt>
      <trkpt lat="28.10543630" lon="-17.3145427">
        <ele>585.00000</ele>
        <time>2009-09-23T16:50:27Z</time>
      </trkpt>
      <trkpt lat="28.10549730" lon="-17.3145828">
        <ele>582.00000</ele>
        <time>2009-09-23T16:50:30Z</time>
      </trkpt>
      <trkpt lat="28.10552400" lon="-17.3146705">
        <ele>581.00000</ele>
        <time>2009-09-23T16:50:33Z</time>
      </trkpt>
      <trkpt lat="28.10548010" lon="-17.3146419">
        <ele>582.00000</ele>
        <time>2009-09-23T16:50:35Z</time>
      </trkpt>
      <trkpt lat="28.10535430" lon="-17.3145923">
        <ele>586.00000</ele>
        <time>2009-09-23T16:50:41Z</time>
      </trkpt>
      <trkpt lat="28.10524740" lon="-17.3145980">
        <ele>589.00000</ele>
        <time>2009-09-23T16:50:45Z</time>
      </trkpt>
      <trkpt lat="28.10515210" lon="-17.3146286">
        <ele>590.00000</ele>
        <time>2009-09-23T16:50:49Z</time>
      </trkpt>
      <trkpt lat="28.10501280" lon="-17.3147335">
        <ele>591.00000</ele>
        <time>2009-09-23T16:50:55Z</time>
      </trkpt>
      <trkpt lat="28.10497280" lon="-17.3147678">
        <ele>591.00000</ele>
        <time>2009-09-23T16:50:58Z</time>
      </trkpt>
      <trkpt lat="28.10503760" lon="-17.3147659">
        <ele>589.00000</ele>
        <time>2009-09-23T16:51:00Z</time>
      </trkpt>
      <trkpt lat="28.10511010" lon="-17.3147602">
        <ele>587.00000</ele>
        <time>2009-09-23T16:51:03Z</time>
      </trkpt>
      <trkpt lat="28.10512730" lon="-17.3147697">
        <ele>587.00000</ele>
        <time>2009-09-23T16:51:04Z</time>
      </trkpt>
      <trkpt lat="28.10517690" lon="-17.3147907">
        <ele>584.00000</ele>
        <time>2009-09-23T16:51:06Z</time>
      </trkpt>
      <trkpt lat="28.10521120" lon="-17.3148841">
        <ele>579.00000</ele>
        <time>2009-09-23T16:51:09Z</time>
      </trkpt>
      <trkpt lat="28.10522460" lon="-17.3150424">
        <ele>571.00000</ele>
        <time>2009-09-23T16:51:15Z</time>
      </trkpt>
      <trkpt lat="28.10522270" lon="-17.3151245">
        <ele>567.00000</ele>
        <time>2009-09-23T16:51:18Z</time>
      </trkpt>
      <trkpt lat="28.10523220" lon="-17.3151779">
        <ele>565.00000</ele>
        <time>2009-09-23T16:51:20Z</time>
      </trkpt>
      <trkpt lat="28.10538100" lon="-17.3152809">
        <ele>558.00000</ele>
        <time>2009-09-23T16:51:27Z</time>
      </trkpt>
      <trkpt lat="28.10544580" lon="-17.3153114">
        <ele>556.00000</ele>
        <time>2009-09-23T16:51:30Z</time>
      </trkpt>
      <trkpt lat="28.10553740" lon="-17.3153438">
        <ele>553.00000</ele>
        <time>2009-09-23T16:51:34Z</time>
      </trkpt>
      <trkpt lat="28.10560600" lon="-17.3153667">
        <ele>552.00000</ele>
        <time>2009-09-23T16:51:36Z</time>
      </trkpt>
      <trkpt lat="28.10564800" lon="-17.3154029">
        <ele>551.00000</ele>
        <time>2009-09-23T16:51:39Z</time>
      </trkpt>
      <trkpt lat="28.10571280" lon="-17.3154125">
        <ele>549.00000</ele>
        <time>2009-09-23T16:51:41Z</time>
      </trkpt>
      <trkpt lat="28.10573760" lon="-17.3154468">
        <ele>548.00000</ele>
        <time>2009-09-23T16:51:43Z</time>
      </trkpt>
      <trkpt lat="28.10573570" lon="-17.3154983">
        <ele>547.00000</ele>
        <time>2009-09-23T16:51:45Z</time>
      </trkpt>
      <trkpt lat="28.10577200" lon="-17.3155422">
        <ele>545.00000</ele>
        <time>2009-09-23T16:51:47Z</time>
      </trkpt>
      <trkpt lat="28.10577010" lon="-17.3155937">
        <ele>543.00000</ele>
        <time>2009-09-23T16:51:48Z</time>
      </trkpt>
      <trkpt lat="28.10574720" lon="-17.3155994">
        <ele>543.00000</ele>
        <time>2009-09-23T16:51:49Z</time>
      </trkpt>
      <trkpt lat="28.10575290" lon="-17.3156471">
        <ele>541.00000</ele>
        <time>2009-09-23T16:51:51Z</time>
      </trkpt>
      <trkpt lat="28.10577010" lon="-17.3157253">
        <ele>540.00000</ele>
        <time>2009-09-23T16:51:54Z</time>
      </trkpt>
      <trkpt lat="28.10560030" lon="-17.3157424">
        <ele>536.00000</ele>
        <time>2009-09-23T16:52:01Z</time>
      </trkpt>
      <trkpt lat="28.10548010" lon="-17.3157939">
        <ele>533.00000</ele>
        <time>2009-09-23T16:52:06Z</time>
      </trkpt>
      <trkpt lat="28.10541720" lon="-17.3158340">
        <ele>531.00000</ele>
        <time>2009-09-23T16:52:09Z</time>
      </trkpt>
      <trkpt lat="28.10535430" lon="-17.3158550">
        <ele>529.00000</ele>
        <time>2009-09-23T16:52:11Z</time>
      </trkpt>
      <trkpt lat="28.10525320" lon="-17.3159103">
        <ele>525.00000</ele>
        <time>2009-09-23T16:52:16Z</time>
      </trkpt>
      <trkpt lat="28.10531040" lon="-17.3159656">
        <ele>523.00000</ele>
        <time>2009-09-23T16:52:19Z</time>
      </trkpt>
      <trkpt lat="28.10532950" lon="-17.3159637">
        <ele>522.00000</ele>
        <time>2009-09-23T16:52:20Z</time>
      </trkpt>
      <trkpt lat="28.10536570" lon="-17.3160247">
        <ele>521.00000</ele>
        <time>2009-09-23T16:52:22Z</time>
      </trkpt>
      <trkpt lat="28.10525890" lon="-17.3160324">
        <ele>517.00000</ele>
        <time>2009-09-23T16:52:27Z</time>
      </trkpt>
      <trkpt lat="28.10519210" lon="-17.3160877">
        <ele>515.00000</ele>
        <time>2009-09-23T16:52:30Z</time>
      </trkpt>
      <trkpt lat="28.10511390" lon="-17.3161182">
        <ele>512.00000</ele>
        <time>2009-09-23T16:52:33Z</time>
      </trkpt>
      <trkpt lat="28.10512540" lon="-17.3161392">
        <ele>511.00000</ele>
        <time>2009-09-23T16:52:34Z</time>
      </trkpt>
      <trkpt lat="28.10513300" lon="-17.3161964">
        <ele>509.00000</ele>
        <time>2009-09-23T16:52:36Z</time>
      </trkpt>
      <trkpt lat="28.10515970" lon="-17.3162002">
        <ele>508.00000</ele>
        <time>2009-09-23T16:52:37Z</time>
      </trkpt>
      <trkpt lat="28.10519020" lon="-17.3162345">
        <ele>507.00000</ele>
        <time>2009-09-23T16:52:39Z</time>
      </trkpt>
      <trkpt lat="28.10525510" lon="-17.3162994">
        <ele>504.00000</ele>
        <time>2009-09-23T16:52:42Z</time>
      </trkpt>
      <trkpt lat="28.10529130" lon="-17.3163452">
        <ele>502.00000</ele>
        <time>2009-09-23T16:52:45Z</time>
      </trkpt>
      <trkpt lat="28.10527420" lon="-17.3163681">
        <ele>501.00000</ele>
        <time>2009-09-23T16:52:46Z</time>
      </trkpt>
      <trkpt lat="28.10522270" lon="-17.3164196">
        <ele>499.00000</ele>
        <time>2009-09-23T16:52:48Z</time>
      </trkpt>
      <trkpt lat="28.10528370" lon="-17.3164443">
        <ele>497.00000</ele>
        <time>2009-09-23T16:52:51Z</time>
      </trkpt>
      <trkpt lat="28.10532950" lon="-17.3164958">
        <ele>495.00000</ele>
        <time>2009-09-23T16:52:54Z</time>
      </trkpt>
      <trkpt lat="28.10534660" lon="-17.3165092">
        <ele>495.00000</ele>
        <time>2009-09-23T16:52:54Z</time>
      </trkpt>
      <trkpt lat="28.10543630" lon="-17.3166217">
        <ele>490.00000</ele>
        <time>2009-09-23T16:53:00Z</time>
      </trkpt>
      <trkpt lat="28.10546300" lon="-17.3167228">
        <ele>487.00000</ele>
        <time>2009-09-23T16:53:03Z</time>
      </trkpt>
      <trkpt lat="28.10544960" lon="-17.3167419">
        <ele>486.00000</ele>
        <time>2009-09-23T16:53:04Z</time>
      </trkpt>
      <trkpt lat="28.10548970" lon="-17.3167629">
        <ele>484.00000</ele>
        <time>2009-09-23T16:53:06Z</time>
      </trkpt>
      <trkpt lat="28.10544960" lon="-17.3168754">
        <ele>478.00000</ele>
        <time>2009-09-23T16:53:10Z</time>
      </trkpt>
      <trkpt lat="28.10545150" lon="-17.3169517">
        <ele>474.00000</ele>
        <time>2009-09-23T16:53:13Z</time>
      </trkpt>
      <trkpt lat="28.10545530" lon="-17.3170318">
        <ele>470.00000</ele>
        <time>2009-09-23T16:53:16Z</time>
      </trkpt>
      <trkpt lat="28.10549160" lon="-17.3171062">
        <ele>466.00000</ele>
        <time>2009-09-23T16:53:19Z</time>
      </trkpt>
      <trkpt lat="28.10540000" lon="-17.3171386">
        <ele>462.00000</ele>
        <time>2009-09-23T16:53:23Z</time>
      </trkpt>
      <trkpt lat="28.10543630" lon="-17.3171882">
        <ele>460.00000</ele>
        <time>2009-09-23T16:53:25Z</time>
      </trkpt>
      <trkpt lat="28.10542100" lon="-17.3172359">
        <ele>458.00000</ele>
        <time>2009-09-23T16:53:27Z</time>
      </trkpt>
      <trkpt lat="28.10546490" lon="-17.3172855">
        <ele>455.00000</ele>
        <time>2009-09-23T16:53:29Z</time>
      </trkpt>
      <trkpt lat="28.10545920" lon="-17.3173637">
        <ele>452.00000</ele>
        <time>2009-09-23T16:53:32Z</time>
      </trkpt>
      <trkpt lat="28.10537520" lon="-17.3173503">
        <ele>450.00000</ele>
        <time>2009-09-23T16:53:35Z</time>
      </trkpt>
      <trkpt lat="28.10530280" lon="-17.3172931">
        <ele>449.00000</ele>
        <time>2009-09-23T16:53:39Z</time>
      </trkpt>
      <trkpt lat="28.10521310" lon="-17.3172950">
        <ele>448.00000</ele>
        <time>2009-09-23T16:53:43Z</time>
      </trkpt>
      <trkpt lat="28.10522070" lon="-17.3173522">
        <ele>446.00000</ele>
        <time>2009-09-23T16:53:45Z</time>
      </trkpt>
      <trkpt lat="28.10521880" lon="-17.3173961">
        <ele>444.00000</ele>
        <time>2009-09-23T16:53:46Z</time>
      </trkpt>
      <trkpt lat="28.10522840" lon="-17.3174495">
        <ele>442.00000</ele>
        <time>2009-09-23T16:53:48Z</time>
      </trkpt>
      <trkpt lat="28.10526460" lon="-17.3174743">
        <ele>440.00000</ele>
        <time>2009-09-23T16:53:50Z</time>
      </trkpt>
      <trkpt lat="28.10528370" lon="-17.3175525">
        <ele>437.00000</ele>
        <time>2009-09-23T16:53:53Z</time>
      </trkpt>
      <trkpt lat="28.10534090" lon="-17.3176193">
        <ele>434.00000</ele>
        <time>2009-09-23T16:53:56Z</time>
      </trkpt>
      <trkpt lat="28.10533140" lon="-17.3177471">
        <ele>430.00000</ele>
        <time>2009-09-23T16:54:00Z</time>
      </trkpt>
      <trkpt lat="28.10533140" lon="-17.3177871">
        <ele>429.00000</ele>
        <time>2009-09-23T16:54:02Z</time>
      </trkpt>
      <trkpt lat="28.10538100" lon="-17.3179092">
        <ele>424.00000</ele>
        <time>2009-09-23T16:54:07Z</time>
      </trkpt>
      <trkpt lat="28.10547440" lon="-17.3179817">
        <ele>421.00000</ele>
        <time>2009-09-23T16:54:11Z</time>
      </trkpt>
      <trkpt lat="28.10550680" lon="-17.3180332">
        <ele>420.00000</ele>
        <time>2009-09-23T16:54:13Z</time>
      </trkpt>
      <trkpt lat="28.10561560" lon="-17.3181953">
        <ele>416.00000</ele>
        <time>2009-09-23T16:54:21Z</time>
      </trkpt>
      <trkpt lat="28.10563650" lon="-17.3182258">
        <ele>416.00000</ele>
        <time>2009-09-23T16:54:22Z</time>
      </trkpt>
      <trkpt lat="28.10570330" lon="-17.3181877">
        <ele>419.00000</ele>
        <time>2009-09-23T16:54:25Z</time>
      </trkpt>
      <trkpt lat="28.10572240" lon="-17.3181381">
        <ele>421.00000</ele>
        <time>2009-09-23T16:54:27Z</time>
      </trkpt>
      <trkpt lat="28.10580060" lon="-17.3179569">
        <ele>428.00000</ele>
        <time>2009-09-23T16:54:34Z</time>
      </trkpt>
      <trkpt lat="28.10582920" lon="-17.3179359">
        <ele>429.00000</ele>
        <time>2009-09-23T16:54:35Z</time>
      </trkpt>
      <trkpt lat="28.10589980" lon="-17.3178672">
        <ele>432.00000</ele>
        <time>2009-09-23T16:54:39Z</time>
      </trkpt>
      <trkpt lat="28.10591120" lon="-17.3178119">
        <ele>432.00000</ele>
        <time>2009-09-23T16:54:41Z</time>
      </trkpt>
      <trkpt lat="28.10594940" lon="-17.3177547">
        <ele>431.00000</ele>
        <time>2009-09-23T16:54:44Z</time>
      </trkpt>
      <trkpt lat="28.10601040" lon="-17.3177070">
        <ele>431.00000</ele>
        <time>2009-09-23T16:54:47Z</time>
      </trkpt>
      <trkpt lat="28.10614010" lon="-17.3176364">
        <ele>427.00000</ele>
        <time>2009-09-23T16:54:52Z</time>
      </trkpt>
      <trkpt lat="28.10629270" lon="-17.3176288">
        <ele>422.00000</ele>
        <time>2009-09-23T16:54:58Z</time>
      </trkpt>
      <trkpt lat="28.10635180" lon="-17.3175888">
        <ele>420.00000</ele>
        <time>2009-09-23T16:55:01Z</time>
      </trkpt>
      <trkpt lat="28.10636130" lon="-17.3175315">
        <ele>419.00000</ele>
        <time>2009-09-23T16:55:03Z</time>
      </trkpt>
      <trkpt lat="28.10644530" lon="-17.3174991">
        <ele>416.00000</ele>
        <time>2009-09-23T16:55:07Z</time>
      </trkpt>
      <trkpt lat="28.10642810" lon="-17.3175754">
        <ele>414.00000</ele>
        <time>2009-09-23T16:55:10Z</time>
      </trkpt>
      <trkpt lat="28.10643000" lon="-17.3175830">
        <ele>414.00000</ele>
        <time>2009-09-23T16:55:10Z</time>
      </trkpt>
      <trkpt lat="28.10643000" lon="-17.3176231">
        <ele>413.00000</ele>
        <time>2009-09-23T16:55:11Z</time>
      </trkpt>
      <trkpt lat="28.10643950" lon="-17.3176364">
        <ele>412.00000</ele>
        <time>2009-09-23T16:55:12Z</time>
      </trkpt>
      <trkpt lat="28.10647770" lon="-17.3175659">
        <ele>411.00000</ele>
        <time>2009-09-23T16:55:15Z</time>
      </trkpt>
      <trkpt lat="28.10660170" lon="-17.3174858">
        <ele>408.00000</ele>
        <time>2009-09-23T16:55:21Z</time>
      </trkpt>
      <trkpt lat="28.10665890" lon="-17.3174285">
        <ele>407.00000</ele>
        <time>2009-09-23T16:55:24Z</time>
      </trkpt>
      <trkpt lat="28.10666270" lon="-17.3174629">
        <ele>406.00000</ele>
        <time>2009-09-23T16:55:25Z</time>
      </trkpt>
      <trkpt lat="28.10664930" lon="-17.3174171">
        <ele>407.00000</ele>
        <time>2009-09-23T16:55:26Z</time>
      </trkpt>
      <trkpt lat="28.10666080" lon="-17.3173370">
        <ele>408.00000</ele>
        <time>2009-09-23T16:55:29Z</time>
      </trkpt>
      <trkpt lat="28.10668370" lon="-17.3172683">
        <ele>407.00000</ele>
        <time>2009-09-23T16:55:32Z</time>
      </trkpt>
      <trkpt lat="28.10672180" lon="-17.3172359">
        <ele>406.00000</ele>
        <time>2009-09-23T16:55:34Z</time>
      </trkpt>
      <trkpt lat="28.10675620" lon="-17.3172740">
        <ele>404.00000</ele>
        <time>2009-09-23T16:55:36Z</time>
      </trkpt>
      <trkpt lat="28.10677900" lon="-17.3172893">
        <ele>402.00000</ele>
        <time>2009-09-23T16:55:37Z</time>
      </trkpt>
      <trkpt lat="28.10685920" lon="-17.3173599">
        <ele>398.00000</ele>
        <time>2009-09-23T16:55:41Z</time>
      </trkpt>
      <trkpt lat="28.10686490" lon="-17.3174629">
        <ele>395.00000</ele>
        <time>2009-09-23T16:55:45Z</time>
      </trkpt>
      <trkpt lat="28.10682860" lon="-17.3175735">
        <ele>393.00000</ele>
        <time>2009-09-23T16:55:49Z</time>
      </trkpt>
      <trkpt lat="28.10682290" lon="-17.3175601">
        <ele>393.00000</ele>
        <time>2009-09-23T16:55:49Z</time>
      </trkpt>
      <trkpt lat="28.10679240" lon="-17.3174762">
        <ele>393.00000</ele>
        <time>2009-09-23T16:55:52Z</time>
      </trkpt>
      <trkpt lat="28.10681530" lon="-17.3175392">
        <ele>392.00000</ele>
        <time>2009-09-23T16:55:55Z</time>
      </trkpt>
      <trkpt lat="28.10689920" lon="-17.3175373">
        <ele>388.00000</ele>
        <time>2009-09-23T16:55:58Z</time>
      </trkpt>
      <trkpt lat="28.10690300" lon="-17.3175754">
        <ele>386.00000</ele>
        <time>2009-09-23T16:56:00Z</time>
      </trkpt>
      <trkpt lat="28.10691640" lon="-17.3176250">
        <ele>383.00000</ele>
        <time>2009-09-23T16:56:01Z</time>
      </trkpt>
      <trkpt lat="28.10697170" lon="-17.3176040">
        <ele>381.00000</ele>
        <time>2009-09-23T16:56:04Z</time>
      </trkpt>
      <trkpt lat="28.10697930" lon="-17.3175964">
        <ele>381.00000</ele>
        <time>2009-09-23T16:56:04Z</time>
      </trkpt>
      <trkpt lat="28.10701170" lon="-17.3175430">
        <ele>379.00000</ele>
        <time>2009-09-23T16:56:06Z</time>
      </trkpt>
      <trkpt lat="28.10705750" lon="-17.3176212">
        <ele>376.00000</ele>
        <time>2009-09-23T16:56:10Z</time>
      </trkpt>
      <trkpt lat="28.10702890" lon="-17.3177509">
        <ele>371.00000</ele>
        <time>2009-09-23T16:56:14Z</time>
      </trkpt>
      <trkpt lat="28.10703460" lon="-17.3177661">
        <ele>371.00000</ele>
        <time>2009-09-23T16:56:15Z</time>
      </trkpt>
      <trkpt lat="28.10713000" lon="-17.3178672">
        <ele>364.00000</ele>
        <time>2009-09-23T16:56:20Z</time>
      </trkpt>
      <trkpt lat="28.10722350" lon="-17.3178253">
        <ele>359.00000</ele>
        <time>2009-09-23T16:56:24Z</time>
      </trkpt>
      <trkpt lat="28.10723680" lon="-17.3178100">
        <ele>358.00000</ele>
        <time>2009-09-23T16:56:25Z</time>
      </trkpt>
      <trkpt lat="28.10732070" lon="-17.3176937">
        <ele>354.00000</ele>
        <time>2009-09-23T16:56:30Z</time>
      </trkpt>
      <trkpt lat="28.10735890" lon="-17.3176631">
        <ele>353.00000</ele>
        <time>2009-09-23T16:56:32Z</time>
      </trkpt>
      <trkpt lat="28.10750380" lon="-17.3175983">
        <ele>348.00000</ele>
        <time>2009-09-23T16:56:38Z</time>
      </trkpt>
      <trkpt lat="28.10756490" lon="-17.3175354">
        <ele>346.00000</ele>
        <time>2009-09-23T16:56:42Z</time>
      </trkpt>
      <trkpt lat="28.10757250" lon="-17.3175811">
        <ele>345.00000</ele>
        <time>2009-09-23T16:56:43Z</time>
      </trkpt>
      <trkpt lat="28.10754390" lon="-17.3177108">
        <ele>342.00000</ele>
        <time>2009-09-23T16:56:48Z</time>
      </trkpt>
      <trkpt lat="28.10752290" lon="-17.3178634">
        <ele>339.00000</ele>
        <time>2009-09-23T16:56:54Z</time>
      </trkpt>
      <trkpt lat="28.10755340" lon="-17.3179779">
        <ele>336.00000</ele>
        <time>2009-09-23T16:56:58Z</time>
      </trkpt>
      <trkpt lat="28.10756110" lon="-17.3180007">
        <ele>335.00000</ele>
        <time>2009-09-23T16:56:59Z</time>
      </trkpt>
      <trkpt lat="28.10758780" lon="-17.3180465">
        <ele>333.00000</ele>
        <time>2009-09-23T16:57:01Z</time>
      </trkpt>
      <trkpt lat="28.10761830" lon="-17.3181018">
        <ele>330.00000</ele>
        <time>2009-09-23T16:57:03Z</time>
      </trkpt>
      <trkpt lat="28.10769840" lon="-17.3181838">
        <ele>324.00000</ele>
        <time>2009-09-23T16:57:07Z</time>
      </trkpt>
      <trkpt lat="28.10774990" lon="-17.3182640">
        <ele>321.00000</ele>
        <time>2009-09-23T16:57:11Z</time>
      </trkpt>
      <trkpt lat="28.10776130" lon="-17.3182792">
        <ele>320.00000</ele>
        <time>2009-09-23T16:57:11Z</time>
      </trkpt>
      <trkpt lat="28.10778800" lon="-17.3184051">
        <ele>317.00000</ele>
        <time>2009-09-23T16:57:16Z</time>
      </trkpt>
      <trkpt lat="28.10777470" lon="-17.3184623">
        <ele>316.00000</ele>
        <time>2009-09-23T16:57:18Z</time>
      </trkpt>
      <trkpt lat="28.10764120" lon="-17.3185386">
        <ele>314.00000</ele>
        <time>2009-09-23T16:57:24Z</time>
      </trkpt>
      <trkpt lat="28.10764880" lon="-17.3186016">
        <ele>314.00000</ele>
        <time>2009-09-23T16:57:26Z</time>
      </trkpt>
      <trkpt lat="28.10753820" lon="-17.3186740">
        <ele>314.00000</ele>
        <time>2009-09-23T16:57:31Z</time>
      </trkpt>
      <trkpt lat="28.10748290" lon="-17.3187179">
        <ele>313.00000</ele>
        <time>2009-09-23T16:57:34Z</time>
      </trkpt>
      <trkpt lat="28.10740850" lon="-17.3188018">
        <ele>313.00000</ele>
        <time>2009-09-23T16:57:38Z</time>
      </trkpt>
      <trkpt lat="28.10733980" lon="-17.3188190">
        <ele>312.00000</ele>
        <time>2009-09-23T16:57:41Z</time>
      </trkpt>
      <trkpt lat="28.10733410" lon="-17.3188934">
        <ele>311.00000</ele>
        <time>2009-09-23T16:57:44Z</time>
      </trkpt>
      <trkpt lat="28.10731500" lon="-17.3189449">
        <ele>309.00000</ele>
        <time>2009-09-23T16:57:46Z</time>
      </trkpt>
      <trkpt lat="28.10739320" lon="-17.3190479">
        <ele>302.00000</ele>
        <time>2009-09-23T16:57:51Z</time>
      </trkpt>
      <trkpt lat="28.10744470" lon="-17.3190898">
        <ele>299.00000</ele>
        <time>2009-09-23T16:57:53Z</time>
      </trkpt>
      <trkpt lat="28.10741990" lon="-17.3191623">
        <ele>295.00000</ele>
        <time>2009-09-23T16:57:56Z</time>
      </trkpt>
      <trkpt lat="28.10745420" lon="-17.3191738">
        <ele>294.00000</ele>
        <time>2009-09-23T16:57:57Z</time>
      </trkpt>
      <trkpt lat="28.10748100" lon="-17.3191642">
        <ele>293.00000</ele>
        <time>2009-09-23T16:57:58Z</time>
      </trkpt>
      <trkpt lat="28.10753050" lon="-17.3191547">
        <ele>292.00000</ele>
        <time>2009-09-23T16:58:00Z</time>
      </trkpt>
      <trkpt lat="28.10760110" lon="-17.3191967">
        <ele>289.00000</ele>
        <time>2009-09-23T16:58:04Z</time>
      </trkpt>
      <trkpt lat="28.10758200" lon="-17.3191833">
        <ele>288.00000</ele>
        <time>2009-09-23T16:58:05Z</time>
      </trkpt>
      <trkpt lat="28.10759920" lon="-17.3192253">
        <ele>287.00000</ele>
        <time>2009-09-23T16:58:06Z</time>
      </trkpt>
      <trkpt lat="28.10761640" lon="-17.3192729">
        <ele>285.00000</ele>
        <time>2009-09-23T16:58:08Z</time>
      </trkpt>
      <trkpt lat="28.10766600" lon="-17.3192729">
        <ele>283.00000</ele>
        <time>2009-09-23T16:58:10Z</time>
      </trkpt>
      <trkpt lat="28.10767360" lon="-17.3192844">
        <ele>282.00000</ele>
        <time>2009-09-23T16:58:10Z</time>
      </trkpt>
      <trkpt lat="28.10760870" lon="-17.3193874">
        <ele>279.00000</ele>
        <time>2009-09-23T16:58:15Z</time>
      </trkpt>
      <trkpt lat="28.10761830" lon="-17.3194065">
        <ele>279.00000</ele>
        <time>2009-09-23T16:58:16Z</time>
      </trkpt>
      <trkpt lat="28.10760490" lon="-17.3194389">
        <ele>278.00000</ele>
        <time>2009-09-23T16:58:17Z</time>
      </trkpt>
      <trkpt lat="28.10753630" lon="-17.3194828">
        <ele>276.00000</ele>
        <time>2009-09-23T16:58:20Z</time>
      </trkpt>
      <trkpt lat="28.10758010" lon="-17.3195133">
        <ele>275.00000</ele>
        <time>2009-09-23T16:58:22Z</time>
      </trkpt>
      <trkpt lat="28.10761260" lon="-17.3195438">
        <ele>274.00000</ele>
        <time>2009-09-23T16:58:24Z</time>
      </trkpt>
      <trkpt lat="28.10751910" lon="-17.3196678">
        <ele>271.00000</ele>
        <time>2009-09-23T16:58:30Z</time>
      </trkpt>
      <trkpt lat="28.10742370" lon="-17.3198413">
        <ele>268.00000</ele>
        <time>2009-09-23T16:58:37Z</time>
      </trkpt>
      <trkpt lat="28.10736840" lon="-17.3199214">
        <ele>265.00000</ele>
        <time>2009-09-23T16:58:40Z</time>
      </trkpt>
      <trkpt lat="28.10737220" lon="-17.3199291">
        <ele>265.00000</ele>
        <time>2009-09-23T16:58:41Z</time>
      </trkpt>
      <trkpt lat="28.10742950" lon="-17.3200321">
        <ele>261.00000</ele>
        <time>2009-09-23T16:58:45Z</time>
      </trkpt>
      <trkpt lat="28.10747520" lon="-17.3201961">
        <ele>253.00000</ele>
        <time>2009-09-23T16:58:51Z</time>
      </trkpt>
      <trkpt lat="28.10753050" lon="-17.3202953">
        <ele>249.00000</ele>
        <time>2009-09-23T16:58:55Z</time>
      </trkpt>
      <trkpt lat="28.10755150" lon="-17.3203201">
        <ele>247.00000</ele>
        <time>2009-09-23T16:58:56Z</time>
      </trkpt>
      <trkpt lat="28.10762780" lon="-17.3203926">
        <ele>243.00000</ele>
        <time>2009-09-23T16:59:00Z</time>
      </trkpt>
      <trkpt lat="28.10767360" lon="-17.3204498">
        <ele>240.00000</ele>
        <time>2009-09-23T16:59:03Z</time>
      </trkpt>
      <trkpt lat="28.10776900" lon="-17.3205261">
        <ele>235.00000</ele>
        <time>2009-09-23T16:59:08Z</time>
      </trkpt>
      <trkpt lat="28.10778800" lon="-17.3205318">
        <ele>234.00000</ele>
        <time>2009-09-23T16:59:09Z</time>
      </trkpt>
      <trkpt lat="28.10786620" lon="-17.3204994">
        <ele>232.00000</ele>
        <time>2009-09-23T16:59:12Z</time>
      </trkpt>
      <trkpt lat="28.10789480" lon="-17.3205623">
        <ele>230.00000</ele>
        <time>2009-09-23T16:59:14Z</time>
      </trkpt>
      <trkpt lat="28.10789870" lon="-17.3205757">
        <ele>230.00000</ele>
        <time>2009-09-23T16:59:15Z</time>
      </trkpt>
      <trkpt lat="28.10786430" lon="-17.3205871">
        <ele>229.00000</ele>
        <time>2009-09-23T16:59:16Z</time>
      </trkpt>
      <trkpt lat="28.10791200" lon="-17.3207321">
        <ele>224.00000</ele>
        <time>2009-09-23T16:59:22Z</time>
      </trkpt>
      <trkpt lat="28.10795400" lon="-17.3208446">
        <ele>221.00000</ele>
        <time>2009-09-23T16:59:26Z</time>
      </trkpt>
      <trkpt lat="28.10794830" lon="-17.3208789">
        <ele>220.00000</ele>
        <time>2009-09-23T16:59:27Z</time>
      </trkpt>
      <trkpt lat="28.10795400" lon="-17.3209152">
        <ele>219.00000</ele>
        <time>2009-09-23T16:59:29Z</time>
      </trkpt>
      <trkpt lat="28.10789100" lon="-17.3210372">
        <ele>217.00000</ele>
        <time>2009-09-23T16:59:34Z</time>
      </trkpt>
      <trkpt lat="28.10778420" lon="-17.3212070">
        <ele>213.00000</ele>
        <time>2009-09-23T16:59:41Z</time>
      </trkpt>
      <trkpt lat="28.10776130" lon="-17.3213424">
        <ele>211.00000</ele>
        <time>2009-09-23T16:59:46Z</time>
      </trkpt>
      <trkpt lat="28.10768310" lon="-17.3215217">
        <ele>208.00000</ele>
        <time>2009-09-23T16:59:53Z</time>
      </trkpt>
      <trkpt lat="28.10763160" lon="-17.3216190">
        <ele>206.00000</ele>
        <time>2009-09-23T16:59:57Z</time>
      </trkpt>
      <trkpt lat="28.10753050" lon="-17.3218002">
        <ele>204.00000</ele>
        <time>2009-09-23T17:00:05Z</time>
      </trkpt>
      <trkpt lat="28.10741610" lon="-17.3219032">
        <ele>204.00000</ele>
        <time>2009-09-23T17:00:10Z</time>
      </trkpt>
      <trkpt lat="28.10732070" lon="-17.3219718">
        <ele>206.00000</ele>
        <time>2009-09-23T17:00:15Z</time>
      </trkpt>
      <trkpt lat="28.10719870" lon="-17.3220653">
        <ele>208.00000</ele>
        <time>2009-09-23T17:00:21Z</time>
      </trkpt>
      <trkpt lat="28.10715480" lon="-17.3221015">
        <ele>208.00000</ele>
        <time>2009-09-23T17:00:23Z</time>
      </trkpt>
      <trkpt lat="28.10707280" lon="-17.3222656">
        <ele>207.00000</ele>
        <time>2009-09-23T17:00:30Z</time>
      </trkpt>
      <trkpt lat="28.10699080" lon="-17.3224372">
        <ele>206.00000</ele>
        <time>2009-09-23T17:00:37Z</time>
      </trkpt>
      <trkpt lat="28.10683630" lon="-17.3224983">
        <ele>206.00000</ele>
        <time>2009-09-23T17:00:43Z</time>
      </trkpt>
      <trkpt lat="28.10674280" lon="-17.3225936">
        <ele>206.00000</ele>
        <time>2009-09-23T17:00:48Z</time>
      </trkpt>
      <trkpt lat="28.10663600" lon="-17.3227348">
        <ele>206.00000</ele>
        <time>2009-09-23T17:00:55Z</time>
      </trkpt>
      <trkpt lat="28.10655970" lon="-17.3228263">
        <ele>207.00000</ele>
        <time>2009-09-23T17:00:59Z</time>
      </trkpt>
      <trkpt lat="28.10640140" lon="-17.3227920">
        <ele>210.00000</ele>
        <time>2009-09-23T17:01:06Z</time>
      </trkpt>
      <trkpt lat="28.10619160" lon="-17.3228816">
        <ele>213.00000</ele>
        <time>2009-09-23T17:01:15Z</time>
      </trkpt>
      <trkpt lat="28.10618970" lon="-17.3229160">
        <ele>213.00000</ele>
        <time>2009-09-23T17:01:16Z</time>
      </trkpt>
      <trkpt lat="28.10623160" lon="-17.3230056">
        <ele>209.00000</ele>
        <time>2009-09-23T17:01:19Z</time>
      </trkpt>
      <trkpt lat="28.10630220" lon="-17.3230838">
        <ele>205.00000</ele>
        <time>2009-09-23T17:01:23Z</time>
      </trkpt>
      <trkpt lat="28.10638800" lon="-17.3232040">
        <ele>199.00000</ele>
        <time>2009-09-23T17:01:29Z</time>
      </trkpt>
      <trkpt lat="28.10646620" lon="-17.3233318">
        <ele>193.00000</ele>
        <time>2009-09-23T17:01:34Z</time>
      </trkpt>
      <trkpt lat="28.10651390" lon="-17.3233642">
        <ele>190.00000</ele>
        <time>2009-09-23T17:01:37Z</time>
      </trkpt>
      <trkpt lat="28.10653490" lon="-17.3233833">
        <ele>190.00000</ele>
        <time>2009-09-23T17:01:38Z</time>
      </trkpt>
      <trkpt lat="28.10651960" lon="-17.3232517">
        <ele>191.00000</ele>
        <time>2009-09-23T17:01:42Z</time>
      </trkpt>
      <trkpt lat="28.10652920" lon="-17.3232402">
        <ele>191.00000</ele>
        <time>2009-09-23T17:01:43Z</time>
      </trkpt>
      <trkpt lat="28.10661120" lon="-17.3232536">
        <ele>191.00000</ele>
        <time>2009-09-23T17:01:46Z</time>
      </trkpt>
      <trkpt lat="28.10663980" lon="-17.3232707">
        <ele>191.00000</ele>
        <time>2009-09-23T17:01:47Z</time>
      </trkpt>
      <trkpt lat="28.10661690" lon="-17.3232002">
        <ele>190.00000</ele>
        <time>2009-09-23T17:01:50Z</time>
      </trkpt>
      <trkpt lat="28.10664170" lon="-17.3232097">
        <ele>190.00000</ele>
        <time>2009-09-23T17:01:51Z</time>
      </trkpt>
      <trkpt lat="28.10689920" lon="-17.3232975">
        <ele>184.00000</ele>
        <time>2009-09-23T17:02:02Z</time>
      </trkpt>
      <trkpt lat="28.10699840" lon="-17.3233165">
        <ele>182.00000</ele>
        <time>2009-09-23T17:02:06Z</time>
      </trkpt>
      <trkpt lat="28.10701170" lon="-17.3233337">
        <ele>181.00000</ele>
        <time>2009-09-23T17:02:07Z</time>
      </trkpt>
      <trkpt lat="28.10699840" lon="-17.3234615">
        <ele>180.00000</ele>
        <time>2009-09-23T17:02:11Z</time>
      </trkpt>
      <trkpt lat="28.10695070" lon="-17.3236446">
        <ele>178.00000</ele>
        <time>2009-09-23T17:02:18Z</time>
      </trkpt>
      <trkpt lat="28.10677140" lon="-17.3237419">
        <ele>176.00000</ele>
        <time>2009-09-23T17:02:26Z</time>
      </trkpt>
      <trkpt lat="28.10671420" lon="-17.3237285">
        <ele>176.00000</ele>
        <time>2009-09-23T17:02:28Z</time>
      </trkpt>
      <trkpt lat="28.10668560" lon="-17.3237533">
        <ele>176.00000</ele>
        <time>2009-09-23T17:02:30Z</time>
      </trkpt>
      <trkpt lat="28.10658830" lon="-17.3239593">
        <ele>173.00000</ele>
        <time>2009-09-23T17:02:38Z</time>
      </trkpt>
      <trkpt lat="28.10652730" lon="-17.3241348">
        <ele>171.00000</ele>
        <time>2009-09-23T17:02:45Z</time>
      </trkpt>
      <trkpt lat="28.10651770" lon="-17.3242988">
        <ele>170.00000</ele>
        <time>2009-09-23T17:02:50Z</time>
      </trkpt>
      <trkpt lat="28.10651390" lon="-17.3244991">
        <ele>168.00000</ele>
        <time>2009-09-23T17:02:58Z</time>
      </trkpt>
      <trkpt lat="28.10650820" lon="-17.3245067">
        <ele>168.00000</ele>
        <time>2009-09-23T17:02:58Z</time>
      </trkpt>
      <trkpt lat="28.10648340" lon="-17.3245754">
        <ele>168.00000</ele>
        <time>2009-09-23T17:03:01Z</time>
      </trkpt>
      <trkpt lat="28.10639380" lon="-17.3246040">
        <ele>168.00000</ele>
        <time>2009-09-23T17:03:04Z</time>
      </trkpt>
      <trkpt lat="28.10620680" lon="-17.3246955">
        <ele>167.00000</ele>
        <time>2009-09-23T17:03:12Z</time>
      </trkpt>
      <trkpt lat="28.10622590" lon="-17.3247566">
        <ele>167.00000</ele>
        <time>2009-09-23T17:03:15Z</time>
      </trkpt>
      <trkpt lat="28.10616110" lon="-17.3247375">
        <ele>167.00000</ele>
        <time>2009-09-23T17:03:17Z</time>
      </trkpt>
      <trkpt lat="28.10596080" lon="-17.3248882">
        <ele>165.00000</ele>
        <time>2009-09-23T17:03:27Z</time>
      </trkpt>
      <trkpt lat="28.10577960" lon="-17.3249874">
        <ele>164.00000</ele>
        <time>2009-09-23T17:03:35Z</time>
      </trkpt>
      <trkpt lat="28.10573190" lon="-17.3249874">
        <ele>164.00000</ele>
        <time>2009-09-23T17:03:37Z</time>
      </trkpt>
      <trkpt lat="28.10553930" lon="-17.3250656">
        <ele>167.00000</ele>
        <time>2009-09-23T17:03:45Z</time>
      </trkpt>
      <trkpt lat="28.10536760" lon="-17.3251800">
        <ele>169.00000</ele>
        <time>2009-09-23T17:03:53Z</time>
      </trkpt>
      <trkpt lat="28.10526650" lon="-17.3252201">
        <ele>171.00000</ele>
        <time>2009-09-23T17:03:57Z</time>
      </trkpt>
      <trkpt lat="28.10505670" lon="-17.3252658">
        <ele>172.00000</ele>
        <time>2009-09-23T17:04:06Z</time>
      </trkpt>
      <trkpt lat="28.10490790" lon="-17.3253707">
        <ele>173.00000</ele>
        <time>2009-09-23T17:04:13Z</time>
      </trkpt>
      <trkpt lat="28.10487360" lon="-17.3254871">
        <ele>172.00000</ele>
        <time>2009-09-23T17:04:17Z</time>
      </trkpt>
      <trkpt lat="28.10476490" lon="-17.3257293">
        <ele>167.00000</ele>
        <time>2009-09-23T17:04:27Z</time>
      </trkpt>
      <trkpt lat="28.10474390" lon="-17.3257598">
        <ele>166.00000</ele>
        <time>2009-09-23T17:04:28Z</time>
      </trkpt>
      <trkpt lat="28.10467910" lon="-17.3260498">
        <ele>161.00000</ele>
        <time>2009-09-23T17:04:39Z</time>
      </trkpt>
      <trkpt lat="28.10459320" lon="-17.3262290">
        <ele>157.00000</ele>
        <time>2009-09-23T17:04:46Z</time>
      </trkpt>
      <trkpt lat="28.10458180" lon="-17.3263225">
        <ele>155.00000</ele>
        <time>2009-09-23T17:04:49Z</time>
      </trkpt>
      <trkpt lat="28.10456080" lon="-17.3263568">
        <ele>154.00000</ele>
        <time>2009-09-23T17:04:51Z</time>
      </trkpt>
      <trkpt lat="28.10453030" lon="-17.3264522">
        <ele>152.00000</ele>
        <time>2009-09-23T17:04:54Z</time>
      </trkpt>
      <trkpt lat="28.10450550" lon="-17.3266925">
        <ele>147.00000</ele>
        <time>2009-09-23T17:05:03Z</time>
      </trkpt>
      <trkpt lat="28.10441970" lon="-17.3267345">
        <ele>145.00000</ele>
        <time>2009-09-23T17:05:07Z</time>
      </trkpt>
      <trkpt lat="28.10433380" lon="-17.3267955">
        <ele>145.00000</ele>
        <time>2009-09-23T17:05:11Z</time>
      </trkpt>
      <trkpt lat="28.10425180" lon="-17.3268032">
        <ele>144.00000</ele>
        <time>2009-09-23T17:05:14Z</time>
      </trkpt>
      <trkpt lat="28.10424040" lon="-17.3268032">
        <ele>144.00000</ele>
        <time>2009-09-23T17:05:15Z</time>
      </trkpt>
      <trkpt lat="28.10421940" lon="-17.3268051">
        <ele>144.00000</ele>
        <time>2009-09-23T17:05:15Z</time>
      </trkpt>
      <trkpt lat="28.10395620" lon="-17.3268489">
        <ele>145.00000</ele>
        <time>2009-09-23T17:05:26Z</time>
      </trkpt>
      <trkpt lat="28.10386650" lon="-17.3268756">
        <ele>145.00000</ele>
        <time>2009-09-23T17:05:30Z</time>
      </trkpt>
      <trkpt lat="28.10380360" lon="-17.3269596">
        <ele>144.00000</ele>
        <time>2009-09-23T17:05:34Z</time>
      </trkpt>
      <trkpt lat="28.10367200" lon="-17.3270587">
        <ele>143.00000</ele>
        <time>2009-09-23T17:05:40Z</time>
      </trkpt>
      <trkpt lat="28.10360330" lon="-17.3271198">
        <ele>141.00000</ele>
        <time>2009-09-23T17:05:43Z</time>
      </trkpt>
      <trkpt lat="28.10348700" lon="-17.3272323">
        <ele>137.00000</ele>
        <time>2009-09-23T17:05:50Z</time>
      </trkpt>
      <trkpt lat="28.10341640" lon="-17.3272914">
        <ele>135.00000</ele>
        <time>2009-09-23T17:05:53Z</time>
      </trkpt>
      <trkpt lat="28.10333820" lon="-17.3273830">
        <ele>133.00000</ele>
        <time>2009-09-23T17:05:58Z</time>
      </trkpt>
      <trkpt lat="28.10332290" lon="-17.3273925">
        <ele>132.00000</ele>
        <time>2009-09-23T17:05:58Z</time>
      </trkpt>
      <trkpt lat="28.10319900" lon="-17.3274555">
        <ele>130.00000</ele>
        <time>2009-09-23T17:06:04Z</time>
      </trkpt>
      <trkpt lat="28.10299870" lon="-17.3275566">
        <ele>129.00000</ele>
        <time>2009-09-23T17:06:12Z</time>
      </trkpt>
      <trkpt lat="28.10285750" lon="-17.3276939">
        <ele>128.00000</ele>
        <time>2009-09-23T17:06:20Z</time>
      </trkpt>
      <trkpt lat="28.10270690" lon="-17.3277549">
        <ele>128.00000</ele>
        <time>2009-09-23T17:06:26Z</time>
      </trkpt>
      <trkpt lat="28.10264770" lon="-17.3277721">
        <ele>128.00000</ele>
        <time>2009-09-23T17:06:29Z</time>
      </trkpt>
      <trkpt lat="28.10261530" lon="-17.3277626">
        <ele>128.00000</ele>
        <time>2009-09-23T17:06:30Z</time>
      </trkpt>
      <trkpt lat="28.10256760" lon="-17.3277454">
        <ele>127.00000</ele>
        <time>2009-09-23T17:06:32Z</time>
      </trkpt>
      <trkpt lat="28.10247800" lon="-17.3278312">
        <ele>126.00000</ele>
        <time>2009-09-23T17:06:37Z</time>
      </trkpt>
      <trkpt lat="28.10235020" lon="-17.3279037">
        <ele>125.00000</ele>
        <time>2009-09-23T17:06:43Z</time>
      </trkpt>
      <trkpt lat="28.10230630" lon="-17.3280029">
        <ele>124.00000</ele>
        <time>2009-09-23T17:06:46Z</time>
      </trkpt>
      <trkpt lat="28.10227770" lon="-17.3280105">
        <ele>124.00000</ele>
        <time>2009-09-23T17:06:48Z</time>
      </trkpt>
      <trkpt lat="28.10219000" lon="-17.3281078">
        <ele>122.00000</ele>
        <time>2009-09-23T17:06:53Z</time>
      </trkpt>
      <trkpt lat="28.10214040" lon="-17.3281593">
        <ele>120.00000</ele>
        <time>2009-09-23T17:06:55Z</time>
      </trkpt>
      <trkpt lat="28.10202980" lon="-17.3282680">
        <ele>118.00000</ele>
        <time>2009-09-23T17:07:01Z</time>
      </trkpt>
      <trkpt lat="28.10193630" lon="-17.3283596">
        <ele>116.00000</ele>
        <time>2009-09-23T17:07:06Z</time>
      </trkpt>
      <trkpt lat="28.10186190" lon="-17.3283576">
        <ele>115.00000</ele>
        <time>2009-09-23T17:07:09Z</time>
      </trkpt>
      <trkpt lat="28.10180660" lon="-17.3284587">
        <ele>114.00000</ele>
        <time>2009-09-23T17:07:13Z</time>
      </trkpt>
      <trkpt lat="28.10168070" lon="-17.3284530">
        <ele>113.00000</ele>
        <time>2009-09-23T17:07:18Z</time>
      </trkpt>
      <trkpt lat="28.10168260" lon="-17.3284950">
        <ele>113.00000</ele>
        <time>2009-09-23T17:07:20Z</time>
      </trkpt>
      <trkpt lat="28.10163300" lon="-17.3285121">
        <ele>113.00000</ele>
        <time>2009-09-23T17:07:22Z</time>
      </trkpt>
      <trkpt lat="28.10160630" lon="-17.3285388">
        <ele>113.00000</ele>
        <time>2009-09-23T17:07:23Z</time>
      </trkpt>
      <trkpt lat="28.10149380" lon="-17.3286418">
        <ele>114.00000</ele>
        <time>2009-09-23T17:07:29Z</time>
      </trkpt>
      <trkpt lat="28.10148420" lon="-17.3286533">
        <ele>114.00000</ele>
        <time>2009-09-23T17:07:30Z</time>
      </trkpt>
      <trkpt lat="28.10131830" lon="-17.3286838">
        <ele>113.00000</ele>
        <time>2009-09-23T17:07:36Z</time>
      </trkpt>
      <trkpt lat="28.10113900" lon="-17.3287963">
        <ele>113.00000</ele>
        <time>2009-09-23T17:07:45Z</time>
      </trkpt>
      <trkpt lat="28.10103220" lon="-17.3289031">
        <ele>112.00000</ele>
        <time>2009-09-23T17:07:50Z</time>
      </trkpt>
      <trkpt lat="28.10088920" lon="-17.3290119">
        <ele>110.00000</ele>
        <time>2009-09-23T17:07:57Z</time>
      </trkpt>
      <trkpt lat="28.10082050" lon="-17.3290481">
        <ele>110.00000</ele>
        <time>2009-09-23T17:08:00Z</time>
      </trkpt>
      <trkpt lat="28.10067170" lon="-17.3290901">
        <ele>108.00000</ele>
        <time>2009-09-23T17:08:06Z</time>
      </trkpt>
      <trkpt lat="28.10054960" lon="-17.3291072">
        <ele>107.00000</ele>
        <time>2009-09-23T17:08:11Z</time>
      </trkpt>
      <trkpt lat="28.10045050" lon="-17.3292160">
        <ele>105.00000</ele>
        <time>2009-09-23T17:08:17Z</time>
      </trkpt>
      <trkpt lat="28.10036460" lon="-17.3292007">
        <ele>105.00000</ele>
        <time>2009-09-23T17:08:20Z</time>
      </trkpt>
      <trkpt lat="28.10033790" lon="-17.3292217">
        <ele>105.00000</ele>
        <time>2009-09-23T17:08:22Z</time>
      </trkpt>
      <trkpt lat="28.10028070" lon="-17.3293170">
        <ele>106.00000</ele>
        <time>2009-09-23T17:08:26Z</time>
      </trkpt>
      <trkpt lat="28.10029600" lon="-17.3293533">
        <ele>106.00000</ele>
        <time>2009-09-23T17:08:27Z</time>
      </trkpt>
      <trkpt lat="28.10015290" lon="-17.3292770">
        <ele>104.00000</ele>
        <time>2009-09-23T17:08:33Z</time>
      </trkpt>
      <trkpt lat="28.10005950" lon="-17.3292293">
        <ele>103.00000</ele>
        <time>2009-09-23T17:08:37Z</time>
      </trkpt>
      <trkpt lat="28.09990310" lon="-17.3292922">
        <ele>102.00000</ele>
        <time>2009-09-23T17:08:44Z</time>
      </trkpt>
      <trkpt lat="28.09979050" lon="-17.3293724">
        <ele>102.00000</ele>
        <time>2009-09-23T17:08:49Z</time>
      </trkpt>
      <trkpt lat="28.09972000" lon="-17.3293972">
        <ele>102.00000</ele>
        <time>2009-09-23T17:08:52Z</time>
      </trkpt>
      <trkpt lat="28.09962270" lon="-17.3293933">
        <ele>102.00000</ele>
        <time>2009-09-23T17:08:56Z</time>
      </trkpt>
      <trkpt lat="28.09942050" lon="-17.3294391">
        <ele>102.00000</ele>
        <time>2009-09-23T17:09:05Z</time>
      </trkpt>
      <trkpt lat="28.09936520" lon="-17.3294754">
        <ele>101.00000</ele>
        <time>2009-09-23T17:09:07Z</time>
      </trkpt>
      <trkpt lat="28.09933280" lon="-17.3294811">
        <ele>101.00000</ele>
        <time>2009-09-23T17:09:08Z</time>
      </trkpt>
      <trkpt lat="28.09912300" lon="-17.3294258">
        <ele>101.00000</ele>
        <time>2009-09-23T17:09:17Z</time>
      </trkpt>
      <trkpt lat="28.09902380" lon="-17.3294067">
        <ele>101.00000</ele>
        <time>2009-09-23T17:09:21Z</time>
      </trkpt>
      <trkpt lat="28.09893410" lon="-17.3293952">
        <ele>101.00000</ele>
        <time>2009-09-23T17:09:25Z</time>
      </trkpt>
      <trkpt lat="28.09884450" lon="-17.3293857">
        <ele>100.00000</ele>
        <time>2009-09-23T17:09:28Z</time>
      </trkpt>
      <trkpt lat="28.09870710" lon="-17.3294792">
        <ele>99.000000</ele>
        <time>2009-09-23T17:09:35Z</time>
      </trkpt>
      <trkpt lat="28.09865180" lon="-17.3296604">
        <ele>97.000000</ele>
        <time>2009-09-23T17:09:41Z</time>
      </trkpt>
      <trkpt lat="28.09853740" lon="-17.3298110">
        <ele>94.000000</ele>
        <time>2009-09-23T17:09:48Z</time>
      </trkpt>
      <trkpt lat="28.09839050" lon="-17.3299331">
        <ele>91.000000</ele>
        <time>2009-09-23T17:09:56Z</time>
      </trkpt>
      <trkpt lat="28.09838290" lon="-17.3299388">
        <ele>91.000000</ele>
        <time>2009-09-23T17:09:56Z</time>
      </trkpt>
      <trkpt lat="28.09830470" lon="-17.3299961">
        <ele>90.000000</ele>
        <time>2009-09-23T17:10:00Z</time>
      </trkpt>
      <trkpt lat="28.09828750" lon="-17.3300209">
        <ele>90.000000</ele>
        <time>2009-09-23T17:10:01Z</time>
      </trkpt>
      <trkpt lat="28.09824940" lon="-17.3300457">
        <ele>90.000000</ele>
        <time>2009-09-23T17:10:03Z</time>
      </trkpt>
      <trkpt lat="28.09820170" lon="-17.3300704">
        <ele>91.000000</ele>
        <time>2009-09-23T17:10:05Z</time>
      </trkpt>
      <trkpt lat="28.09812920" lon="-17.3301258">
        <ele>91.000000</ele>
        <time>2009-09-23T17:10:08Z</time>
      </trkpt>
      <trkpt lat="28.09797090" lon="-17.3302268">
        <ele>92.000000</ele>
        <time>2009-09-23T17:10:16Z</time>
      </trkpt>
      <trkpt lat="28.09792510" lon="-17.3302631">
        <ele>92.000000</ele>
        <time>2009-09-23T17:10:18Z</time>
      </trkpt>
      <trkpt lat="28.09787940" lon="-17.3303050">
        <ele>92.000000</ele>
        <time>2009-09-23T17:10:20Z</time>
      </trkpt>
      <trkpt lat="28.09772300" lon="-17.3304290">
        <ele>91.000000</ele>
        <time>2009-09-23T17:10:28Z</time>
      </trkpt>
      <trkpt lat="28.09770010" lon="-17.3304405">
        <ele>91.000000</ele>
        <time>2009-09-23T17:10:29Z</time>
      </trkpt>
      <trkpt lat="28.09766190" lon="-17.3304347">
        <ele>90.000000</ele>
        <time>2009-09-23T17:10:30Z</time>
      </trkpt>
      <trkpt lat="28.09758560" lon="-17.3304939">
        <ele>90.000000</ele>
        <time>2009-09-23T17:10:34Z</time>
      </trkpt>
      <trkpt lat="28.09750360" lon="-17.3305492">
        <ele>89.000000</ele>
        <time>2009-09-23T17:10:38Z</time>
      </trkpt>
      <trkpt lat="28.09737770" lon="-17.3306674">
        <ele>89.000000</ele>
        <time>2009-09-23T17:10:44Z</time>
      </trkpt>
      <trkpt lat="28.09733960" lon="-17.3307132">
        <ele>88.000000</ele>
        <time>2009-09-23T17:10:47Z</time>
      </trkpt>
      <trkpt lat="28.09732240" lon="-17.3308982">
        <ele>86.000000</ele>
        <time>2009-09-23T17:10:53Z</time>
      </trkpt>
      <trkpt lat="28.09729380" lon="-17.3310279">
        <ele>85.000000</ele>
        <time>2009-09-23T17:10:58Z</time>
      </trkpt>
      <trkpt lat="28.09724420" lon="-17.3311634">
        <ele>83.000000</ele>
        <time>2009-09-23T17:11:03Z</time>
      </trkpt>
      <trkpt lat="28.09722130" lon="-17.3313426">
        <ele>82.000000</ele>
        <time>2009-09-23T17:11:10Z</time>
      </trkpt>
      <trkpt lat="28.09707640" lon="-17.3316745">
        <ele>79.000000</ele>
        <time>2009-09-23T17:11:23Z</time>
      </trkpt>
      <trkpt lat="28.09703250" lon="-17.3318881">
        <ele>77.000000</ele>
        <time>2009-09-23T17:11:30Z</time>
      </trkpt>
      <trkpt lat="28.09695620" lon="-17.3320827">
        <ele>75.000000</ele>
        <time>2009-09-23T17:11:38Z</time>
      </trkpt>
      <trkpt lat="28.09688370" lon="-17.3322601">
        <ele>72.000000</ele>
        <time>2009-09-23T17:11:45Z</time>
      </trkpt>
      <trkpt lat="28.09683030" lon="-17.3324089">
        <ele>70.000000</ele>
        <time>2009-09-23T17:11:50Z</time>
      </trkpt>
      <trkpt lat="28.09676930" lon="-17.3325386">
        <ele>69.000000</ele>
        <time>2009-09-23T17:11:56Z</time>
      </trkpt>
      <trkpt lat="28.09675970" lon="-17.3325805">
        <ele>68.000000</ele>
        <time>2009-09-23T17:11:57Z</time>
      </trkpt>
      <trkpt lat="28.09662810" lon="-17.3327598">
        <ele>67.000000</ele>
        <time>2009-09-23T17:12:05Z</time>
      </trkpt>
      <trkpt lat="28.09653850" lon="-17.3328819">
        <ele>66.000000</ele>
        <time>2009-09-23T17:12:11Z</time>
      </trkpt>
      <trkpt lat="28.09652130" lon="-17.3329143">
        <ele>66.000000</ele>
        <time>2009-09-23T17:12:12Z</time>
      </trkpt>
      <trkpt lat="28.09648130" lon="-17.3329906">
        <ele>66.000000</ele>
        <time>2009-09-23T17:12:15Z</time>
      </trkpt>
      <trkpt lat="28.09641830" lon="-17.3330917">
        <ele>65.000000</ele>
        <time>2009-09-23T17:12:20Z</time>
      </trkpt>
      <trkpt lat="28.09639350" lon="-17.3331565">
        <ele>65.000000</ele>
        <time>2009-09-23T17:12:22Z</time>
      </trkpt>
      <trkpt lat="28.09637260" lon="-17.3332824">
        <ele>65.000000</ele>
        <time>2009-09-23T17:12:27Z</time>
      </trkpt>
      <trkpt lat="28.09632490" lon="-17.3334140">
        <ele>65.000000</ele>
        <time>2009-09-23T17:12:32Z</time>
      </trkpt>
      <trkpt lat="28.09625240" lon="-17.3335418">
        <ele>66.000000</ele>
        <time>2009-09-23T17:12:37Z</time>
      </trkpt>
      <trkpt lat="28.09615700" lon="-17.3336982">
        <ele>66.000000</ele>
        <time>2009-09-23T17:12:44Z</time>
      </trkpt>
      <trkpt lat="28.09604260" lon="-17.3338546">
        <ele>65.000000</ele>
        <time>2009-09-23T17:12:51Z</time>
      </trkpt>
      <trkpt lat="28.09587470" lon="-17.3339405">
        <ele>64.000000</ele>
        <time>2009-09-23T17:12:59Z</time>
      </trkpt>
      <trkpt lat="28.09574500" lon="-17.3341121">
        <ele>63.000000</ele>
        <time>2009-09-23T17:13:07Z</time>
      </trkpt>
      <trkpt lat="28.09572600" lon="-17.3341255">
        <ele>63.000000</ele>
        <time>2009-09-23T17:13:07Z</time>
      </trkpt>
      <trkpt lat="28.09559820" lon="-17.3342380">
        <ele>62.000000</ele>
        <time>2009-09-23T17:13:14Z</time>
      </trkpt>
      <trkpt lat="28.09545700" lon="-17.3344154">
        <ele>61.000000</ele>
        <time>2009-09-23T17:13:22Z</time>
      </trkpt>
      <trkpt lat="28.09528160" lon="-17.3346385">
        <ele>59.000000</ele>
        <time>2009-09-23T17:13:33Z</time>
      </trkpt>
      <trkpt lat="28.09514040" lon="-17.3347263">
        <ele>58.000000</ele>
        <time>2009-09-23T17:13:39Z</time>
      </trkpt>
      <trkpt lat="28.09503360" lon="-17.3348217">
        <ele>56.000000</ele>
        <time>2009-09-23T17:13:45Z</time>
      </trkpt>
      <trkpt lat="28.09490390" lon="-17.3349494">
        <ele>54.000000</ele>
        <time>2009-09-23T17:13:52Z</time>
      </trkpt>
      <trkpt lat="28.09486960" lon="-17.3350028">
        <ele>54.000000</ele>
        <time>2009-09-23T17:13:54Z</time>
      </trkpt>
      <trkpt lat="28.09475700" lon="-17.3351287">
        <ele>52.000000</ele>
        <time>2009-09-23T17:14:00Z</time>
      </trkpt>
      <trkpt lat="28.09461400" lon="-17.3353214">
        <ele>48.000000</ele>
        <time>2009-09-23T17:14:09Z</time>
      </trkpt>
      <trkpt lat="28.09450530" lon="-17.3354339">
        <ele>46.000000</ele>
        <time>2009-09-23T17:14:15Z</time>
      </trkpt>
      <trkpt lat="28.09436410" lon="-17.3355846">
        <ele>43.000000</ele>
        <time>2009-09-23T17:14:23Z</time>
      </trkpt>
      <trkpt lat="28.09424970" lon="-17.3356761">
        <ele>42.000000</ele>
        <time>2009-09-23T17:14:28Z</time>
      </trkpt>
      <trkpt lat="28.09411430" lon="-17.3357219">
        <ele>40.000000</ele>
        <time>2009-09-23T17:14:34Z</time>
      </trkpt>
      <trkpt lat="28.09405890" lon="-17.3357257">
        <ele>40.000000</ele>
        <time>2009-09-23T17:14:36Z</time>
      </trkpt>
      <trkpt lat="28.09393500" lon="-17.3356571">
        <ele>40.000000</ele>
        <time>2009-09-23T17:14:42Z</time>
      </trkpt>
      <trkpt lat="28.09373470" lon="-17.3354911">
        <ele>39.000000</ele>
        <time>2009-09-23T17:14:52Z</time>
      </trkpt>
      <trkpt lat="28.09368320" lon="-17.3354549">
        <ele>39.000000</ele>
        <time>2009-09-23T17:14:54Z</time>
      </trkpt>
      <trkpt lat="28.09356300" lon="-17.3354530">
        <ele>39.000000</ele>
        <time>2009-09-23T17:14:59Z</time>
      </trkpt>
      <trkpt lat="28.09340280" lon="-17.3354129">
        <ele>38.000000</ele>
        <time>2009-09-23T17:15:06Z</time>
      </trkpt>
      <trkpt lat="28.09322540" lon="-17.3353481">
        <ele>38.000000</ele>
        <time>2009-09-23T17:15:13Z</time>
      </trkpt>
      <trkpt lat="28.09316250" lon="-17.3353576">
        <ele>37.000000</ele>
        <time>2009-09-23T17:15:16Z</time>
      </trkpt>
      <trkpt lat="28.09296030" lon="-17.3353633">
        <ele>36.000000</ele>
        <time>2009-09-23T17:15:24Z</time>
      </trkpt>
      <trkpt lat="28.09280200" lon="-17.3353443">
        <ele>35.000000</ele>
        <time>2009-09-23T17:15:30Z</time>
      </trkpt>
      <trkpt lat="28.09267610" lon="-17.3353271">
        <ele>34.000000</ele>
        <time>2009-09-23T17:15:35Z</time>
      </trkpt>
      <trkpt lat="28.09261130" lon="-17.3353481">
        <ele>34.000000</ele>
        <time>2009-09-23T17:15:38Z</time>
      </trkpt>
      <trkpt lat="28.09252350" lon="-17.3353424">
        <ele>33.000000</ele>
        <time>2009-09-23T17:15:41Z</time>
      </trkpt>
      <trkpt lat="28.09229270" lon="-17.3353900">
        <ele>31.000000</ele>
        <time>2009-09-23T17:15:51Z</time>
      </trkpt>
      <trkpt lat="28.09230990" lon="-17.3354148">
        <ele>31.000000</ele>
        <time>2009-09-23T17:15:52Z</time>
      </trkpt>
      <trkpt lat="28.09208290" lon="-17.3355102">
        <ele>29.000000</ele>
        <time>2009-09-23T17:16:02Z</time>
      </trkpt>
      <trkpt lat="28.09192270" lon="-17.3355216">
        <ele>28.000000</ele>
        <time>2009-09-23T17:16:08Z</time>
      </trkpt>
      <trkpt lat="28.09173390" lon="-17.3355617">
        <ele>26.000000</ele>
        <time>2009-09-23T17:16:16Z</time>
      </trkpt>
      <trkpt lat="28.09154890" lon="-17.3356380">
        <ele>25.000000</ele>
        <time>2009-09-23T17:16:24Z</time>
      </trkpt>
      <trkpt lat="28.09133520" lon="-17.3357143">
        <ele>24.000000</ele>
        <time>2009-09-23T17:16:33Z</time>
      </trkpt>
      <trkpt lat="28.09114260" lon="-17.3357772">
        <ele>22.000000</ele>
        <time>2009-09-23T17:16:41Z</time>
      </trkpt>
      <trkpt lat="28.09100720" lon="-17.3358440">
        <ele>22.000000</ele>
        <time>2009-09-23T17:16:46Z</time>
      </trkpt>
      <trkpt lat="28.09097670" lon="-17.3358860">
        <ele>21.000000</ele>
        <time>2009-09-23T17:16:48Z</time>
      </trkpt>
      <trkpt lat="28.09088320" lon="-17.3359375">
        <ele>21.000000</ele>
        <time>2009-09-23T17:16:53Z</time>
      </trkpt>
      <trkpt lat="28.09063910" lon="-17.3360824">
        <ele>20.000000</ele>
        <time>2009-09-23T17:17:04Z</time>
      </trkpt>
      <trkpt lat="28.09041400" lon="-17.3362197">
        <ele>19.000000</ele>
        <time>2009-09-23T17:17:14Z</time>
      </trkpt>
      <trkpt lat="28.09024040" lon="-17.3362998">
        <ele>18.000000</ele>
        <time>2009-09-23T17:17:21Z</time>
      </trkpt>
      <trkpt lat="28.09021750" lon="-17.3365287">
        <ele>16.000000</ele>
        <time>2009-09-23T17:17:29Z</time>
      </trkpt>
      <trkpt lat="28.09015840" lon="-17.3368129">
        <ele>15.000000</ele>
        <time>2009-09-23T17:17:40Z</time>
      </trkpt>
      <trkpt lat="28.09013170" lon="-17.3369026">
        <ele>14.000000</ele>
        <time>2009-09-23T17:17:43Z</time>
      </trkpt>
      <trkpt lat="28.09005160" lon="-17.3371200">
        <ele>13.000000</ele>
        <time>2009-09-23T17:17:51Z</time>
      </trkpt>
      <trkpt lat="28.08997910" lon="-17.3373756">
        <ele>12.000000</ele>
        <time>2009-09-23T17:18:01Z</time>
      </trkpt>
      <trkpt lat="28.08992190" lon="-17.3376083">
        <ele>12.000000</ele>
        <time>2009-09-23T17:18:09Z</time>
      </trkpt>
      <trkpt lat="28.08991620" lon="-17.3376388">
        <ele>11.000000</ele>
        <time>2009-09-23T17:18:11Z</time>
      </trkpt>
      <trkpt lat="28.08985510" lon="-17.3378601">
        <ele>11.000000</ele>
        <time>2009-09-23T17:18:19Z</time>
      </trkpt>
      <trkpt lat="28.08981700" lon="-17.3380718">
        <ele>10.000000</ele>
        <time>2009-09-23T17:18:26Z</time>
      </trkpt>
      <trkpt lat="28.08973500" lon="-17.3383483">
        <ele>9.0000000</ele>
        <time>2009-09-23T17:18:37Z</time>
      </trkpt>
      <trkpt lat="28.08966820" lon="-17.3385620">
        <ele>8.0000000</ele>
        <time>2009-09-23T17:18:45Z</time>
      </trkpt>
      <trkpt lat="28.08960720" lon="-17.3387947">
        <ele>7.0000000</ele>
        <time>2009-09-23T17:18:53Z</time>
      </trkpt>
      <trkpt lat="28.08957670" lon="-17.3388538">
        <ele>7.0000000</ele>
        <time>2009-09-23T17:18:56Z</time>
      </trkpt>
      <trkpt lat="28.08955570" lon="-17.3389778">
        <ele>7.0000000</ele>
        <time>2009-09-23T17:19:00Z</time>
      </trkpt>
      <trkpt lat="28.08951370" lon="-17.3391323">
        <ele>6.0000000</ele>
        <time>2009-09-23T17:19:06Z</time>
      </trkpt>
      <trkpt lat="28.08940880" lon="-17.3391723">
        <ele>6.0000000</ele>
        <time>2009-09-23T17:19:10Z</time>
      </trkpt>
      <trkpt lat="28.08938210" lon="-17.3391571">
        <ele>6.0000000</ele>
        <time>2009-09-23T17:19:11Z</time>
      </trkpt>
      <trkpt lat="28.08927530" lon="-17.3390445">
        <ele>6.0000000</ele>
        <time>2009-09-23T17:19:17Z</time>
      </trkpt>
      <trkpt lat="28.08920470" lon="-17.3389720">
        <ele>6.0000000</ele>
        <time>2009-09-23T17:19:21Z</time>
      </trkpt>
    </trkseg>
  </trk>
</gpx>

